<?xml version="1.0" encoding="UTF-8" standalone="no" ?><gpx xmlns="http://www.topografix.com/GPX/1/1" xmlns:gpxx="http://www.garmin.com/xmlschemas/GpxExtensions/v3" xmlns:wptx1="http://www.garmin.com/xmlschemas/WaypointExtension/v1" xmlns:gpxtpx="http://www.garmin.com/xmlschemas/TrackPointExtension/v1" creator="Astro 320" version="1.1" xmlns:xsi="http://www.w3.org/2001/XMLSchema-instance" xsi:schemaLocation="http://www.topografix.com/GPX/1/1 http://www.topografix.com/GPX/1/1/gpx.xsd http://www.garmin.com/xmlschemas/GpxExtensions/v3 http://www8.garmin.com/xmlschemas/GpxExtensionsv3.xsd http://www.garmin.com/xmlschemas/WaypointExtension/v1 http://www8.garmin.com/xmlschemas/WaypointExtensionv1.xsd http://www.garmin.com/xmlschemas/TrackPointExtension/v1 http://www.garmin.com/xmlschemas/TrackPointExtensionv1.xsd"><metadata><link href="http://www.garmin.com"><text>Garmin International</text></link><time>2026-08-16T13:17:17Z</time></metadata><trk><name>12718</name><extensions><gpxx:TrackExtension><gpxx:DisplayColor>Cyan</gpxx:DisplayColor></gpxx:TrackExtension></extensions><trkseg><trkpt lat="59.8387786467" lon="30.4260434769"><ele>-87.34</ele><time>2026-08-13T09:53:51Z</time></trkpt><trkpt lat="59.8387725279" lon="30.4260712210"><ele>-87.34</ele><time>2026-08-13T09:53:52Z</time></trkpt><trkpt lat="59.8387379944" lon="30.4262193292"><ele>-87.34</ele><time>2026-08-13T09:54:18Z</time></trkpt><trkpt lat="59.8387322109" lon="30.4262255318"><ele>-87.34</ele><time>2026-08-13T09:54:29Z</time></trkpt><trkpt lat="59.3587957509" lon="34.7073952295"><ele>170.77</ele><time>2026-08-16T04:14:03Z</time></trkpt><trkpt lat="59.3587816693" lon="34.7074058745"><ele>170.77</ele><time>2026-08-16T04:14:04Z</time></trkpt><trkpt lat="59.3587524164" lon="34.7074421681"><ele>170.77</ele><time>2026-08-16T04:14:27Z</time></trkpt><trkpt lat="59.3587121833" lon="34.7074682359"><ele>170.29</ele><time>2026-08-16T04:14:50Z</time></trkpt><trkpt lat="59.3586698547" lon="34.7074851673"><ele>170.29</ele><time>2026-08-16T04:15:19Z</time></trkpt><trkpt lat="59.3586975988" lon="34.7074749414"><ele>170.29</ele><time>2026-08-16T04:15:36Z</time></trkpt><trkpt lat="59.3587049749" lon="34.7074753605"><ele>169.81</ele><time>2026-08-16T04:16:01Z</time></trkpt><trkpt lat="59.3587012868" lon="34.7074777074"><ele>169.81</ele><time>2026-08-16T04:16:16Z</time></trkpt><trkpt lat="59.3586753868" lon="34.7075906955"><ele>169.81</ele><time>2026-08-16T04:17:27Z</time></trkpt><trkpt lat="59.3586654123" lon="34.7075861692"><ele>173.17</ele><time>2026-08-16T04:17:28Z</time></trkpt><trkpt lat="59.3585783243" lon="34.7077181004"><ele>171.73</ele><time>2026-08-16T04:17:43Z</time></trkpt><trkpt lat="59.3585292902" lon="34.7078035958"><ele>171.25</ele><time>2026-08-16T04:17:53Z</time></trkpt><trkpt lat="59.3584663421" lon="34.7079170030"><ele>170.77</ele><time>2026-08-16T04:18:06Z</time></trkpt><trkpt lat="59.3584600557" lon="34.7080558911"><ele>170.77</ele><time>2026-08-16T04:18:19Z</time></trkpt><trkpt lat="59.3584651686" lon="34.7080186754"><ele>170.77</ele><time>2026-08-16T04:18:24Z</time></trkpt><trkpt lat="59.2876684293" lon="34.7109398525"><ele>178.94</ele><time>2026-08-16T06:48:16Z</time></trkpt><trkpt lat="59.2876663338" lon="34.7109586280"><ele>178.94</ele><time>2026-08-16T06:48:17Z</time></trkpt><trkpt lat="59.2877032980" lon="34.7110104281"><ele>178.46</ele><time>2026-08-16T06:48:33Z</time></trkpt><trkpt lat="59.2880440224" lon="34.7105970327"><ele>182.79</ele><time>2026-08-16T06:48:59Z</time></trkpt><trkpt lat="59.2885329388" lon="34.7099952959"><ele>186.15</ele><time>2026-08-16T06:49:02Z</time></trkpt><trkpt lat="59.2885432485" lon="34.7099771071"><ele>183.27</ele><time>2026-08-16T06:49:09Z</time></trkpt><trkpt lat="59.2885432485" lon="34.7099657916"><ele>179.90</ele><time>2026-08-16T06:49:15Z</time></trkpt><trkpt lat="59.2885266524" lon="34.7099698149"><ele>177.02</ele><time>2026-08-16T06:49:25Z</time></trkpt><trkpt lat="59.2885242216" lon="34.7099844832"><ele>173.66</ele><time>2026-08-16T06:49:36Z</time></trkpt><trkpt lat="59.2885329388" lon="34.7099735867"><ele>170.29</ele><time>2026-08-16T06:49:49Z</time></trkpt><trkpt lat="59.2885280773" lon="34.7099682223"><ele>167.41</ele><time>2026-08-16T06:49:59Z</time></trkpt><trkpt lat="59.2885106429" lon="34.7099678032"><ele>164.52</ele><time>2026-08-16T06:50:19Z</time></trkpt><trkpt lat="59.2884960584" lon="34.7099683061"><ele>161.64</ele><time>2026-08-16T06:50:52Z</time></trkpt><trkpt lat="59.2884873413" lon="34.7099672165"><ele>160.68</ele><time>2026-08-16T06:51:18Z</time></trkpt><trkpt lat="59.2884740140" lon="34.7099590860"><ele>160.68</ele><time>2026-08-16T06:51:28Z</time></trkpt><trkpt lat="59.2884742655" lon="34.7099525481"><ele>160.68</ele><time>2026-08-16T06:51:46Z</time></trkpt><trkpt lat="59.2884730082" lon="34.7099522129"><ele>160.68</ele><time>2026-08-16T06:51:57Z</time></trkpt><trkpt lat="59.2884595972" lon="34.7099498659"><ele>160.68</ele><time>2026-08-16T06:52:11Z</time></trkpt><trkpt lat="59.2884612735" lon="34.7099427413"><ele>160.68</ele><time>2026-08-16T06:52:12Z</time></trkpt><trkpt lat="59.2884604353" lon="34.7098813858"><ele>160.68</ele><time>2026-08-16T06:52:21Z</time></trkpt><trkpt lat="59.2884590942" lon="34.7099023405"><ele>160.68</ele><time>2026-08-16T06:52:37Z</time></trkpt><trkpt lat="59.2884595972" lon="34.7099176794"><ele>160.68</ele><time>2026-08-16T06:53:06Z</time></trkpt><trkpt lat="59.2884679791" lon="34.7099219542"><ele>160.20</ele><time>2026-08-16T06:53:33Z</time></trkpt><trkpt lat="59.2884666380" lon="34.7099055257"><ele>160.20</ele><time>2026-08-16T06:54:00Z</time></trkpt><trkpt lat="59.2884681467" lon="34.7099707369"><ele>160.20</ele><time>2026-08-16T06:54:11Z</time></trkpt><trkpt lat="59.2884528916" lon="34.7099100519"><ele>160.20</ele><time>2026-08-16T06:54:24Z</time></trkpt><trkpt lat="59.2884512991" lon="34.7099219542"><ele>160.20</ele><time>2026-08-16T06:54:40Z</time></trkpt><trkpt lat="59.2884523887" lon="34.7099081241"><ele>160.20</ele><time>2026-08-16T06:54:45Z</time></trkpt><trkpt lat="59.2884466890" lon="34.7099030111"><ele>160.20</ele><time>2026-08-16T06:54:58Z</time></trkpt><trkpt lat="59.2884497065" lon="34.7099056933"><ele>160.20</ele><time>2026-08-16T06:55:20Z</time></trkpt><trkpt lat="59.2884437554" lon="34.7098957188"><ele>160.20</ele><time>2026-08-16T06:55:38Z</time></trkpt><trkpt lat="59.2884461861" lon="34.7099096328"><ele>159.72</ele><time>2026-08-16T06:55:50Z</time></trkpt><trkpt lat="59.2884556577" lon="34.7099405620"><ele>159.72</ele><time>2026-08-16T06:56:03Z</time></trkpt><trkpt lat="59.2884528916" lon="34.7099204455"><ele>159.72</ele><time>2026-08-16T06:56:11Z</time></trkpt><trkpt lat="59.2884519696" lon="34.7098854091"><ele>159.72</ele><time>2026-08-16T06:56:13Z</time></trkpt><trkpt lat="59.2884390615" lon="34.7099071182"><ele>159.72</ele><time>2026-08-16T06:56:25Z</time></trkpt><trkpt lat="59.2884386424" lon="34.7099187691"><ele>159.72</ele><time>2026-08-16T06:56:38Z</time></trkpt><trkpt lat="59.2884581722" lon="34.7099148296"><ele>159.72</ele><time>2026-08-16T06:56:49Z</time></trkpt><trkpt lat="59.2884676438" lon="34.7099430766"><ele>159.72</ele><time>2026-08-16T06:56:59Z</time></trkpt><trkpt lat="59.2884552386" lon="34.7099491116"><ele>159.72</ele><time>2026-08-16T06:57:11Z</time></trkpt><trkpt lat="59.2884528078" lon="34.7099455912"><ele>159.72</ele><time>2026-08-16T06:57:30Z</time></trkpt><trkpt lat="59.2884702422" lon="34.7099468485"><ele>159.72</ele><time>2026-08-16T06:57:41Z</time></trkpt><trkpt lat="59.2885960545" lon="34.7098019253"><ele>160.20</ele><time>2026-08-16T06:57:55Z</time></trkpt><trkpt lat="59.2886516266" lon="34.7097209562"><ele>160.20</ele><time>2026-08-16T06:58:08Z</time></trkpt><trkpt lat="59.2886493634" lon="34.7097241413"><ele>160.20</ele><time>2026-08-16T06:58:28Z</time></trkpt><trkpt lat="59.2886566557" lon="34.7097192798"><ele>160.20</ele><time>2026-08-16T06:58:43Z</time></trkpt><trkpt lat="59.2886885908" lon="34.7096647974"><ele>160.20</ele><time>2026-08-16T06:58:46Z</time></trkpt><trkpt lat="59.2887202743" lon="34.7096083872"><ele>160.20</ele><time>2026-08-16T06:58:49Z</time></trkpt><trkpt lat="59.2888453323" lon="34.7093762085"><ele>160.20</ele><time>2026-08-16T06:59:05Z</time></trkpt><trkpt lat="59.2888766807" lon="34.7093293536"><ele>160.20</ele><time>2026-08-16T06:59:17Z</time></trkpt><trkpt lat="59.2888775188" lon="34.7093201336"><ele>160.20</ele><time>2026-08-16T06:59:38Z</time></trkpt><trkpt lat="59.2889171652" lon="34.7092391644"><ele>160.20</ele><time>2026-08-16T06:59:42Z</time></trkpt><trkpt lat="59.2890122160" lon="34.7090747952"><ele>160.20</ele><time>2026-08-16T06:59:56Z</time></trkpt><trkpt lat="59.2890188377" lon="34.7090628929"><ele>160.20</ele><time>2026-08-16T06:59:57Z</time></trkpt><trkpt lat="59.2890653573" lon="34.7089611366"><ele>160.20</ele><time>2026-08-16T07:00:03Z</time></trkpt><trkpt lat="59.2891941033" lon="34.7088400181"><ele>160.20</ele><time>2026-08-16T07:00:14Z</time></trkpt><trkpt lat="59.2892534472" lon="34.7087292932"><ele>160.20</ele><time>2026-08-16T07:00:21Z</time></trkpt><trkpt lat="59.2892707139" lon="34.7086684406"><ele>160.20</ele><time>2026-08-16T07:00:25Z</time></trkpt><trkpt lat="59.2892909981" lon="34.7086512577"><ele>160.20</ele><time>2026-08-16T07:00:27Z</time></trkpt><trkpt lat="59.2893166468" lon="34.7086665966"><ele>160.20</ele><time>2026-08-16T07:00:30Z</time></trkpt><trkpt lat="59.2893979512" lon="34.7085500043"><ele>159.72</ele><time>2026-08-16T07:00:41Z</time></trkpt><trkpt lat="59.2894013040" lon="34.7085376829"><ele>159.72</ele><time>2026-08-16T07:00:42Z</time></trkpt><trkpt lat="59.2894301377" lon="34.7084682807"><ele>159.72</ele><time>2026-08-16T07:00:48Z</time></trkpt><trkpt lat="59.2895378452" lon="34.7083225194"><ele>159.72</ele><time>2026-08-16T07:01:02Z</time></trkpt><trkpt lat="59.2895697802" lon="34.7082519438"><ele>159.72</ele><time>2026-08-16T07:01:07Z</time></trkpt><trkpt lat="59.2896149587" lon="34.7081972100"><ele>159.72</ele><time>2026-08-16T07:01:12Z</time></trkpt><trkpt lat="59.2896484025" lon="34.7082060110"><ele>159.72</ele><time>2026-08-16T07:01:16Z</time></trkpt><trkpt lat="59.2896891385" lon="34.7081484273"><ele>159.72</ele><time>2026-08-16T07:01:21Z</time></trkpt><trkpt lat="59.2897162959" lon="34.7081418056"><ele>159.72</ele><time>2026-08-16T07:01:32Z</time></trkpt><trkpt lat="59.2897224147" lon="34.7081213538"><ele>159.72</ele><time>2026-08-16T07:01:43Z</time></trkpt><trkpt lat="59.2897302099" lon="34.7080827132"><ele>159.72</ele><time>2026-08-16T07:01:59Z</time></trkpt><trkpt lat="59.2897309642" lon="34.7080968786"><ele>159.72</ele><time>2026-08-16T07:02:22Z</time></trkpt><trkpt lat="59.2898095865" lon="34.7078533843"><ele>159.24</ele><time>2026-08-16T07:02:37Z</time></trkpt><trkpt lat="59.2898240034" lon="34.7078160848"><ele>159.24</ele><time>2026-08-16T07:02:40Z</time></trkpt><trkpt lat="59.2898907233" lon="34.7076471895"><ele>158.27</ele><time>2026-08-16T07:02:53Z</time></trkpt><trkpt lat="59.2899251729" lon="34.7075657174"><ele>158.27</ele><time>2026-08-16T07:02:59Z</time></trkpt><trkpt lat="59.2899709381" lon="34.7074154299"><ele>158.27</ele><time>2026-08-16T07:03:07Z</time></trkpt><trkpt lat="59.2900125962" lon="34.7073135059"><ele>158.27</ele><time>2026-08-16T07:03:13Z</time></trkpt><trkpt lat="59.2900659889" lon="34.7070775554"><ele>157.31</ele><time>2026-08-16T07:03:25Z</time></trkpt><trkpt lat="59.2900973372" lon="34.7070384119"><ele>157.31</ele><time>2026-08-16T07:03:29Z</time></trkpt><trkpt lat="59.2902024463" lon="34.7067627311"><ele>157.31</ele><time>2026-08-16T07:03:45Z</time></trkpt><trkpt lat="59.2902449425" lon="34.7065903153"><ele>156.83</ele><time>2026-08-16T07:03:53Z</time></trkpt><trkpt lat="59.2902979162" lon="34.7063285485"><ele>156.35</ele><time>2026-08-16T07:04:07Z</time></trkpt><trkpt lat="59.2902995925" lon="34.7063054983"><ele>155.87</ele><time>2026-08-16T07:04:22Z</time></trkpt><trkpt lat="59.2903176975" lon="34.7062032390"><ele>155.39</ele><time>2026-08-16T07:04:43Z</time></trkpt><trkpt lat="59.2903379817" lon="34.7060268838"><ele>154.43</ele><time>2026-08-16T07:04:54Z</time></trkpt><trkpt lat="59.2903420888" lon="34.7060125507"><ele>154.43</ele><time>2026-08-16T07:04:55Z</time></trkpt><trkpt lat="59.2903684080" lon="34.7058009077"><ele>153.95</ele><time>2026-08-16T07:05:06Z</time></trkpt><trkpt lat="59.2903772928" lon="34.7055845708"><ele>153.95</ele><time>2026-08-16T07:05:19Z</time></trkpt><trkpt lat="59.2904133350" lon="34.7053976543"><ele>153.95</ele><time>2026-08-16T07:05:30Z</time></trkpt><trkpt lat="59.2904304340" lon="34.7053547390"><ele>154.91</ele><time>2026-08-16T07:05:33Z</time></trkpt><trkpt lat="59.2904592678" lon="34.7052925453"><ele>155.39</ele><time>2026-08-16T07:05:38Z</time></trkpt><trkpt lat="59.2904801387" lon="34.7052255739"><ele>155.39</ele><time>2026-08-16T07:05:52Z</time></trkpt><trkpt lat="59.2904925440" lon="34.7052134201"><ele>155.39</ele><time>2026-08-16T07:06:02Z</time></trkpt><trkpt lat="59.2905636225" lon="34.7050819919"><ele>155.87</ele><time>2026-08-16T07:06:14Z</time></trkpt><trkpt lat="59.2906055320" lon="34.7049747873"><ele>155.87</ele><time>2026-08-16T07:06:26Z</time></trkpt><trkpt lat="59.2906596791" lon="34.7049163654"><ele>155.87</ele><time>2026-08-16T07:06:37Z</time></trkpt><trkpt lat="59.2906569969" lon="34.7049057204"><ele>155.87</ele><time>2026-08-16T07:06:42Z</time></trkpt><trkpt lat="59.2907519639" lon="34.7048144415"><ele>155.87</ele><time>2026-08-16T07:06:53Z</time></trkpt><trkpt lat="59.2908251379" lon="34.7047091648"><ele>155.87</ele><time>2026-08-16T07:07:02Z</time></trkpt><trkpt lat="59.2908447515" lon="34.7047151998"><ele>155.87</ele><time>2026-08-16T07:07:04Z</time></trkpt><trkpt lat="59.2909092084" lon="34.7046494018"><ele>155.87</ele><time>2026-08-16T07:07:16Z</time></trkpt><trkpt lat="59.2909359466" lon="34.7045903932"><ele>155.39</ele><time>2026-08-16T07:07:44Z</time></trkpt><trkpt lat="59.2909422331" lon="34.7045799997"><ele>155.39</ele><time>2026-08-16T07:07:45Z</time></trkpt><trkpt lat="59.2909614276" lon="34.7045595478"><ele>155.39</ele><time>2026-08-16T07:07:47Z</time></trkpt><trkpt lat="59.2909847293" lon="34.7045177221"><ele>155.39</ele><time>2026-08-16T07:07:50Z</time></trkpt><trkpt lat="59.2909978889" lon="34.7044800036"><ele>155.39</ele><time>2026-08-16T07:07:52Z</time></trkpt><trkpt lat="59.2910812888" lon="34.7044195700"><ele>155.39</ele><time>2026-08-16T07:08:02Z</time></trkpt><trkpt lat="59.2910950352" lon="34.7043921612"><ele>155.39</ele><time>2026-08-16T07:08:04Z</time></trkpt><trkpt lat="59.2911316641" lon="34.7043350805"><ele>155.39</ele><time>2026-08-16T07:08:10Z</time></trkpt><trkpt lat="59.2912189197" lon="34.7042435501"><ele>155.39</ele><time>2026-08-16T07:08:22Z</time></trkpt><trkpt lat="59.2912422214" lon="34.7042103577"><ele>155.39</ele><time>2026-08-16T07:08:25Z</time></trkpt><trkpt lat="59.2913185805" lon="34.7040950228"><ele>155.87</ele><time>2026-08-16T07:08:36Z</time></trkpt><trkpt lat="59.2913424689" lon="34.7039480880"><ele>156.35</ele><time>2026-08-16T07:08:47Z</time></trkpt><trkpt lat="59.2913387809" lon="34.7039160691"><ele>156.83</ele><time>2026-08-16T07:08:49Z</time></trkpt><trkpt lat="59.2912690435" lon="34.7037043422"><ele>156.83</ele><time>2026-08-16T07:09:02Z</time></trkpt><trkpt lat="59.2912547104" lon="34.7036395501"><ele>156.83</ele><time>2026-08-16T07:09:06Z</time></trkpt><trkpt lat="59.2912154831" lon="34.7034434136"><ele>156.83</ele><time>2026-08-16T07:09:18Z</time></trkpt><trkpt lat="59.2912261281" lon="34.7033342812"><ele>156.83</ele><time>2026-08-16T07:09:25Z</time></trkpt><trkpt lat="59.2912487593" lon="34.7032573353"><ele>156.83</ele><time>2026-08-16T07:09:30Z</time></trkpt><trkpt lat="59.2913044151" lon="34.7030991688"><ele>156.83</ele><time>2026-08-16T07:09:42Z</time></trkpt><trkpt lat="59.2913376074" lon="34.7029566765"><ele>156.83</ele><time>2026-08-16T07:09:52Z</time></trkpt><trkpt lat="59.2914119549" lon="34.7028130107"><ele>156.83</ele><time>2026-08-16T07:10:05Z</time></trkpt><trkpt lat="59.2914537806" lon="34.7027592827"><ele>156.83</ele><time>2026-08-16T07:10:12Z</time></trkpt><trkpt lat="59.2915022280" lon="34.7025964223"><ele>156.83</ele><time>2026-08-16T07:10:25Z</time></trkpt><trkpt lat="59.2915057484" lon="34.7025814187"><ele>156.83</ele><time>2026-08-16T07:10:26Z</time></trkpt><trkpt lat="59.2915385216" lon="34.7024643235"><ele>155.39</ele><time>2026-08-16T07:10:34Z</time></trkpt><trkpt lat="59.2915886454" lon="34.7023187298"><ele>155.39</ele><time>2026-08-16T07:10:46Z</time></trkpt><trkpt lat="59.2916506715" lon="34.7021505889"><ele>155.39</ele><time>2026-08-16T07:10:59Z</time></trkpt><trkpt lat="59.2917129491" lon="34.7019871417"><ele>155.87</ele><time>2026-08-16T07:11:13Z</time></trkpt><trkpt lat="59.2917684373" lon="34.7018468287"><ele>155.87</ele><time>2026-08-16T07:11:25Z</time></trkpt><trkpt lat="59.2917900626" lon="34.7017800249"><ele>155.87</ele><time>2026-08-16T07:11:38Z</time></trkpt><trkpt lat="59.2918028031" lon="34.7017688770"><ele>156.35</ele><time>2026-08-16T07:11:56Z</time></trkpt><trkpt lat="59.2918088380" lon="34.7017475870"><ele>156.35</ele><time>2026-08-16T07:12:13Z</time></trkpt><trkpt lat="59.2917958461" lon="34.7016890813"><ele>156.35</ele><time>2026-08-16T07:12:19Z</time></trkpt><trkpt lat="59.2917424534" lon="34.7015179228"><ele>155.87</ele><time>2026-08-16T07:12:30Z</time></trkpt><trkpt lat="59.2917144578" lon="34.7014414798"><ele>155.87</ele><time>2026-08-16T07:12:42Z</time></trkpt><trkpt lat="59.2917297129" lon="34.7014004085"><ele>155.87</ele><time>2026-08-16T07:13:00Z</time></trkpt><trkpt lat="59.2917525955" lon="34.7013675515"><ele>155.87</ele><time>2026-08-16T07:13:07Z</time></trkpt><trkpt lat="59.2917215824" lon="34.7012360394"><ele>155.87</ele><time>2026-08-16T07:13:18Z</time></trkpt><trkpt lat="59.2917273659" lon="34.7011740971"><ele>155.87</ele><time>2026-08-16T07:13:22Z</time></trkpt><trkpt lat="59.2917247675" lon="34.7009411640"><ele>154.43</ele><time>2026-08-16T07:13:34Z</time></trkpt><trkpt lat="59.2917354126" lon="34.7008107416"><ele>154.43</ele><time>2026-08-16T07:13:45Z</time></trkpt><trkpt lat="59.2917536851" lon="34.7007586900"><ele>154.43</ele><time>2026-08-16T07:13:49Z</time></trkpt><trkpt lat="59.2917950079" lon="34.7005842626"><ele>154.43</ele><time>2026-08-16T07:14:01Z</time></trkpt><trkpt lat="59.2917780764" lon="34.7005780600"><ele>154.43</ele><time>2026-08-16T07:14:21Z</time></trkpt><trkpt lat="59.2917956784" lon="34.7005452868"><ele>154.43</ele><time>2026-08-16T07:14:39Z</time></trkpt><trkpt lat="59.2917991150" lon="34.7005322948"><ele>154.43</ele><time>2026-08-16T07:14:56Z</time></trkpt><trkpt lat="59.2918353248" lon="34.7005026229"><ele>154.43</ele><time>2026-08-16T07:15:14Z</time></trkpt><trkpt lat="59.2918815091" lon="34.7004612163"><ele>154.43</ele><time>2026-08-16T07:15:20Z</time></trkpt><trkpt lat="59.2919453792" lon="34.7004454583"><ele>153.95</ele><time>2026-08-16T07:15:34Z</time></trkpt><trkpt lat="59.2920115963" lon="34.7003984358"><ele>153.95</ele><time>2026-08-16T07:15:51Z</time></trkpt><trkpt lat="59.2920317966" lon="34.7003512457"><ele>153.95</ele><time>2026-08-16T07:15:59Z</time></trkpt><trkpt lat="59.2920240853" lon="34.7002151236"><ele>153.95</ele><time>2026-08-16T07:16:10Z</time></trkpt><trkpt lat="59.2920729518" lon="34.7000798397"><ele>154.91</ele><time>2026-08-16T07:16:22Z</time></trkpt><trkpt lat="59.2920389213" lon="34.7000178974"><ele>155.87</ele><time>2026-08-16T07:16:29Z</time></trkpt><trkpt lat="59.2920603789" lon="34.6998282149"><ele>155.87</ele><time>2026-08-16T07:16:41Z</time></trkpt><trkpt lat="59.2920280248" lon="34.6996107046"><ele>155.87</ele><time>2026-08-16T07:16:52Z</time></trkpt><trkpt lat="59.2920315452" lon="34.6995563060"><ele>155.87</ele><time>2026-08-16T07:16:59Z</time></trkpt><trkpt lat="59.2920299526" lon="34.6994050127"><ele>155.87</ele><time>2026-08-16T07:17:09Z</time></trkpt><trkpt lat="59.2920006160" lon="34.6991982311"><ele>156.35</ele><time>2026-08-16T07:17:23Z</time></trkpt><trkpt lat="59.2920036335" lon="34.6991794556"><ele>156.35</ele><time>2026-08-16T07:17:46Z</time></trkpt><trkpt lat="59.2919981852" lon="34.6991569083"><ele>156.35</ele><time>2026-08-16T07:18:05Z</time></trkpt><trkpt lat="59.2919855285" lon="34.6990136616"><ele>156.35</ele><time>2026-08-16T07:18:16Z</time></trkpt><trkpt lat="59.2919804156" lon="34.6989751048"><ele>156.35</ele><time>2026-08-16T07:18:18Z</time></trkpt><trkpt lat="59.2919478938" lon="34.6987523139"><ele>156.35</ele><time>2026-08-16T07:18:31Z</time></trkpt><trkpt lat="59.2919769790" lon="34.6985721029"><ele>156.35</ele><time>2026-08-16T07:18:42Z</time></trkpt><trkpt lat="59.2920317966" lon="34.6984389983"><ele>156.35</ele><time>2026-08-16T07:18:53Z</time></trkpt><trkpt lat="59.2920357361" lon="34.6983574424"><ele>156.35</ele><time>2026-08-16T07:18:59Z</time></trkpt><trkpt lat="59.2920124345" lon="34.6982442029"><ele>156.35</ele><time>2026-08-16T07:19:09Z</time></trkpt><trkpt lat="59.2919371650" lon="34.6981309634"><ele>156.35</ele><time>2026-08-16T07:19:21Z</time></trkpt><trkpt lat="59.2918737978" lon="34.6980238426"><ele>156.83</ele><time>2026-08-16T07:19:32Z</time></trkpt><trkpt lat="59.2918582913" lon="34.6979183145"><ele>156.83</ele><time>2026-08-16T07:19:43Z</time></trkpt><trkpt lat="59.2918791622" lon="34.6978208330"><ele>157.31</ele><time>2026-08-16T07:19:55Z</time></trkpt><trkpt lat="59.2919242568" lon="34.6976754069"><ele>157.79</ele><time>2026-08-16T07:20:06Z</time></trkpt><trkpt lat="59.2919286992" lon="34.6974802762"><ele>158.75</ele><time>2026-08-16T07:20:19Z</time></trkpt><trkpt lat="59.2919349018" lon="34.6973184217"><ele>158.75</ele><time>2026-08-16T07:20:29Z</time></trkpt><trkpt lat="59.2919680104" lon="34.6971356962"><ele>158.75</ele><time>2026-08-16T07:20:39Z</time></trkpt><trkpt lat="59.2920318805" lon="34.6969719138"><ele>158.75</ele><time>2026-08-16T07:20:51Z</time></trkpt><trkpt lat="59.2920852732" lon="34.6968474425"><ele>158.75</ele><time>2026-08-16T07:21:04Z</time></trkpt><trkpt lat="59.2921234109" lon="34.6966943052"><ele>157.31</ele><time>2026-08-16T07:21:14Z</time></trkpt><trkpt lat="59.2921535857" lon="34.6965252422"><ele>156.83</ele><time>2026-08-16T07:21:25Z</time></trkpt><trkpt lat="59.2921942379" lon="34.6964836679"><ele>156.35</ele><time>2026-08-16T07:21:46Z</time></trkpt><trkpt lat="59.2922125943" lon="34.6964997612"><ele>156.35</ele><time>2026-08-16T07:22:16Z</time></trkpt><trkpt lat="59.2922147736" lon="34.6965139266"><ele>156.35</ele><time>2026-08-16T07:22:40Z</time></trkpt><trkpt lat="59.2922124267" lon="34.6964108292"><ele>156.35</ele><time>2026-08-16T07:22:58Z</time></trkpt><trkpt lat="59.2922344711" lon="34.6962795686"><ele>156.35</ele><time>2026-08-16T07:23:10Z</time></trkpt><trkpt lat="59.2921842635" lon="34.6960284468"><ele>156.35</ele><time>2026-08-16T07:23:24Z</time></trkpt><trkpt lat="59.2921527475" lon="34.6959468070"><ele>156.35</ele><time>2026-08-16T07:23:28Z</time></trkpt><trkpt lat="59.2921220697" lon="34.6957919095"><ele>156.35</ele><time>2026-08-16T07:23:39Z</time></trkpt><trkpt lat="59.2921799887" lon="34.6957106888"><ele>156.35</ele><time>2026-08-16T07:23:50Z</time></trkpt><trkpt lat="59.2921972554" lon="34.6955738124"><ele>156.35</ele><time>2026-08-16T07:24:01Z</time></trkpt><trkpt lat="59.2921851855" lon="34.6954024024"><ele>156.35</ele><time>2026-08-16T07:24:14Z</time></trkpt><trkpt lat="59.2922451161" lon="34.6953485906"><ele>156.35</ele><time>2026-08-16T07:24:26Z</time></trkpt><trkpt lat="59.2923631333" lon="34.6952879895"><ele>156.35</ele><time>2026-08-16T07:24:40Z</time></trkpt><trkpt lat="59.2924110778" lon="34.6952558868"><ele>157.31</ele><time>2026-08-16T07:24:54Z</time></trkpt><trkpt lat="59.2925066315" lon="34.6952330880"><ele>157.31</ele><time>2026-08-16T07:25:06Z</time></trkpt><trkpt lat="59.2925738543" lon="34.6952029970"><ele>157.31</ele><time>2026-08-16T07:25:15Z</time></trkpt><trkpt lat="59.2925818171" lon="34.6951869875"><ele>156.35</ele><time>2026-08-16T07:25:30Z</time></trkpt><trkpt lat="59.2926002573" lon="34.6951444075"><ele>156.35</ele><time>2026-08-16T07:25:54Z</time></trkpt><trkpt lat="59.2926065437" lon="34.6951394621"><ele>156.35</ele><time>2026-08-16T07:26:09Z</time></trkpt><trkpt lat="59.2926099803" lon="34.6951413900"><ele>154.43</ele><time>2026-08-16T07:26:35Z</time></trkpt><trkpt lat="59.2926136684" lon="34.6951073594"><ele>153.95</ele><time>2026-08-16T07:27:07Z</time></trkpt><trkpt lat="59.2926455196" lon="34.6950967982"><ele>153.95</ele><time>2026-08-16T07:27:33Z</time></trkpt><trkpt lat="59.2926429212" lon="34.6950903442"><ele>153.95</ele><time>2026-08-16T07:27:57Z</time></trkpt><trkpt lat="59.2926283367" lon="34.6950815432"><ele>154.43</ele><time>2026-08-16T07:28:31Z</time></trkpt><trkpt lat="59.2926172726" lon="34.6950633544"><ele>154.43</ele><time>2026-08-16T07:28:55Z</time></trkpt><trkpt lat="59.2926058732" lon="34.6950671263"><ele>154.43</ele><time>2026-08-16T07:29:23Z</time></trkpt><trkpt lat="59.2926102318" lon="34.6950798668"><ele>155.87</ele><time>2026-08-16T07:29:38Z</time></trkpt><trkpt lat="59.2926133331" lon="34.6950905118"><ele>155.87</ele><time>2026-08-16T07:29:58Z</time></trkpt><trkpt lat="59.2926132493" lon="34.6950846445"><ele>156.35</ele><time>2026-08-16T07:30:19Z</time></trkpt><trkpt lat="59.2926210444" lon="34.6950894222"><ele>156.35</ele><time>2026-08-16T07:30:47Z</time></trkpt><trkpt lat="59.2926239781" lon="34.6950948704"><ele>156.35</ele><time>2026-08-16T07:31:16Z</time></trkpt><trkpt lat="59.2926292587" lon="34.6950994805"><ele>156.35</ele><time>2026-08-16T07:31:44Z</time></trkpt><trkpt lat="59.2926176917" lon="34.6951236203"><ele>156.35</ele><time>2026-08-16T07:32:12Z</time></trkpt><trkpt lat="59.2926322762" lon="34.6951272245"><ele>156.35</ele><time>2026-08-16T07:32:42Z</time></trkpt><trkpt lat="59.2926346231" lon="34.6951303259"><ele>156.83</ele><time>2026-08-16T07:33:14Z</time></trkpt><trkpt lat="59.2926486209" lon="34.6951584052"><ele>156.83</ele><time>2026-08-16T07:33:48Z</time></trkpt><trkpt lat="59.2926544044" lon="34.6951769292"><ele>156.83</ele><time>2026-08-16T07:34:13Z</time></trkpt><trkpt lat="59.2926550750" lon="34.6951936930"><ele>156.83</ele><time>2026-08-16T07:34:42Z</time></trkpt><trkpt lat="59.2926583439" lon="34.6951644402"><ele>156.83</ele><time>2026-08-16T07:35:07Z</time></trkpt><trkpt lat="59.2926590145" lon="34.6951624285"><ele>156.83</ele><time>2026-08-16T07:35:38Z</time></trkpt><trkpt lat="59.2926575057" lon="34.6951583214"><ele>156.83</ele><time>2026-08-16T07:36:08Z</time></trkpt><trkpt lat="59.2926532310" lon="34.6951331757"><ele>156.83</ele><time>2026-08-16T07:36:38Z</time></trkpt><trkpt lat="59.2926585954" lon="34.6951226983"><ele>156.83</ele><time>2026-08-16T07:37:15Z</time></trkpt><trkpt lat="59.2926580086" lon="34.6951230336"><ele>157.31</ele><time>2026-08-16T07:37:44Z</time></trkpt><trkpt lat="59.2926679831" lon="34.6951071918"><ele>157.31</ele><time>2026-08-16T07:38:19Z</time></trkpt><trkpt lat="59.2926610261" lon="34.6950882487"><ele>157.31</ele><time>2026-08-16T07:38:51Z</time></trkpt><trkpt lat="59.2926556617" lon="34.6951107122"><ele>157.31</ele><time>2026-08-16T07:39:15Z</time></trkpt><trkpt lat="59.2926462740" lon="34.6950781066"><ele>157.79</ele><time>2026-08-16T07:39:48Z</time></trkpt><trkpt lat="59.2926457711" lon="34.6950757597"><ele>157.79</ele><time>2026-08-16T07:40:17Z</time></trkpt><trkpt lat="59.2926475313" lon="34.6950838063"><ele>158.27</ele><time>2026-08-16T07:40:41Z</time></trkpt><trkpt lat="59.2926498782" lon="34.6951234527"><ele>158.27</ele><time>2026-08-16T07:41:11Z</time></trkpt><trkpt lat="59.2926536500" lon="34.6951344330"><ele>158.27</ele><time>2026-08-16T07:41:32Z</time></trkpt><trkpt lat="59.2926618643" lon="34.6951591596"><ele>158.75</ele><time>2026-08-16T07:41:58Z</time></trkpt><trkpt lat="59.2926635407" lon="34.6951556392"><ele>158.75</ele><time>2026-08-16T07:42:26Z</time></trkpt><trkpt lat="59.2926628701" lon="34.6951449942"><ele>158.75</ele><time>2026-08-16T07:42:57Z</time></trkpt><trkpt lat="59.2926717550" lon="34.6951481793"><ele>159.24</ele><time>2026-08-16T07:43:27Z</time></trkpt><trkpt lat="59.2926732637" lon="34.6951520350"><ele>159.24</ele><time>2026-08-16T07:43:58Z</time></trkpt><trkpt lat="59.2926697433" lon="34.6951587405"><ele>159.24</ele><time>2026-08-16T07:44:17Z</time></trkpt><trkpt lat="59.2926715035" lon="34.6951843053"><ele>159.24</ele><time>2026-08-16T07:44:44Z</time></trkpt><trkpt lat="59.2926728446" lon="34.6951763425"><ele>159.72</ele><time>2026-08-16T07:45:08Z</time></trkpt><trkpt lat="59.2926952243" lon="34.6952186711"><ele>159.72</ele><time>2026-08-16T07:45:19Z</time></trkpt><trkpt lat="59.2927024327" lon="34.6952298190"><ele>159.72</ele><time>2026-08-16T07:45:20Z</time></trkpt><trkpt lat="59.2927957233" lon="34.6953926794"><ele>159.72</ele><time>2026-08-16T07:45:35Z</time></trkpt><trkpt lat="59.2928855773" lon="34.6954570524"><ele>159.72</ele><time>2026-08-16T07:45:47Z</time></trkpt><trkpt lat="59.2929481901" lon="34.6954661887"><ele>159.72</ele><time>2026-08-16T07:45:56Z</time></trkpt><trkpt lat="59.2930294946" lon="34.6954974532"><ele>159.72</ele><time>2026-08-16T07:46:07Z</time></trkpt><trkpt lat="59.2930909339" lon="34.6956624929"><ele>159.72</ele><time>2026-08-16T07:46:19Z</time></trkpt><trkpt lat="59.2931566481" lon="34.6957922447"><ele>159.72</ele><time>2026-08-16T07:46:32Z</time></trkpt><trkpt lat="59.2932246253" lon="34.6957955137"><ele>159.24</ele><time>2026-08-16T07:46:45Z</time></trkpt><trkpt lat="59.2933131382" lon="34.6957695298"><ele>159.24</ele><time>2026-08-16T07:46:59Z</time></trkpt><trkpt lat="59.2934526131" lon="34.6957142092"><ele>159.24</ele><time>2026-08-16T07:47:12Z</time></trkpt><trkpt lat="59.2935087718" lon="34.6958640777"><ele>159.24</ele><time>2026-08-16T07:47:24Z</time></trkpt><trkpt lat="59.2935582250" lon="34.6959919017"><ele>159.24</ele><time>2026-08-16T07:47:36Z</time></trkpt><trkpt lat="59.2936164793" lon="34.6961518284"><ele>158.75</ele><time>2026-08-16T07:47:48Z</time></trkpt><trkpt lat="59.2936803494" lon="34.6961991023"><ele>160.20</ele><time>2026-08-16T07:48:00Z</time></trkpt><trkpt lat="59.2937197443" lon="34.6962330490"><ele>160.20</ele><time>2026-08-16T07:48:17Z</time></trkpt><trkpt lat="59.2937313952" lon="34.6962411795"><ele>160.20</ele><time>2026-08-16T07:48:33Z</time></trkpt><trkpt lat="59.2937890626" lon="34.6963457018"><ele>160.20</ele><time>2026-08-16T07:48:53Z</time></trkpt><trkpt lat="59.2938646674" lon="34.6963540837"><ele>160.20</ele><time>2026-08-16T07:49:03Z</time></trkpt><trkpt lat="59.2939717043" lon="34.6964391600"><ele>160.20</ele><time>2026-08-16T07:49:14Z</time></trkpt><trkpt lat="59.2940101773" lon="34.6965316962"><ele>160.20</ele><time>2026-08-16T07:49:27Z</time></trkpt><trkpt lat="59.2940867040" lon="34.6965635475"><ele>159.72</ele><time>2026-08-16T07:49:38Z</time></trkpt><trkpt lat="59.2941976804" lon="34.6965898667"><ele>159.72</ele><time>2026-08-16T07:49:51Z</time></trkpt><trkpt lat="59.2942863610" lon="34.6965539083"><ele>158.75</ele><time>2026-08-16T07:50:03Z</time></trkpt><trkpt lat="59.2943345569" lon="34.6965809818"><ele>158.75</ele><time>2026-08-16T07:50:12Z</time></trkpt><trkpt lat="59.2943748739" lon="34.6965951473"><ele>158.27</ele><time>2026-08-16T07:50:22Z</time></trkpt><trkpt lat="59.2944102455" lon="34.6967035253"><ele>158.27</ele><time>2026-08-16T07:50:33Z</time></trkpt><trkpt lat="59.2944578547" lon="34.6968824789"><ele>157.79</ele><time>2026-08-16T07:50:44Z</time></trkpt><trkpt lat="59.2945208028" lon="34.6969590895"><ele>157.31</ele><time>2026-08-16T07:50:57Z</time></trkpt><trkpt lat="59.2946227267" lon="34.6969972271"><ele>157.31</ele><time>2026-08-16T07:51:11Z</time></trkpt><trkpt lat="59.2946720123" lon="34.6970794536"><ele>156.83</ele><time>2026-08-16T07:51:22Z</time></trkpt><trkpt lat="59.2947109882" lon="34.6971451677"><ele>156.83</ele><time>2026-08-16T07:51:33Z</time></trkpt><trkpt lat="59.2947326135" lon="34.6971818805"><ele>156.83</ele><time>2026-08-16T07:51:48Z</time></trkpt><trkpt lat="59.2947290931" lon="34.6972190961"><ele>157.79</ele><time>2026-08-16T07:52:16Z</time></trkpt><trkpt lat="59.2947718408" lon="34.6971866582"><ele>157.79</ele><time>2026-08-16T07:52:27Z</time></trkpt><trkpt lat="59.2948514689" lon="34.6972242091"><ele>157.79</ele><time>2026-08-16T07:52:38Z</time></trkpt><trkpt lat="59.2948860861" lon="34.6972447447"><ele>157.79</ele><time>2026-08-16T07:52:45Z</time></trkpt><trkpt lat="59.2949694023" lon="34.6972742490"><ele>157.79</ele><time>2026-08-16T07:52:58Z</time></trkpt><trkpt lat="59.2950002477" lon="34.6973651927"><ele>157.79</ele><time>2026-08-16T07:53:08Z</time></trkpt><trkpt lat="59.2950372957" lon="34.6973952837"><ele>158.27</ele><time>2026-08-16T07:53:21Z</time></trkpt><trkpt lat="59.2951102182" lon="34.6974248718"><ele>158.27</ele><time>2026-08-16T07:53:33Z</time></trkpt><trkpt lat="59.2951548100" lon="34.6974658594"><ele>158.27</ele><time>2026-08-16T07:53:46Z</time></trkpt><trkpt lat="59.2952683009" lon="34.6974857245"><ele>156.83</ele><time>2026-08-16T07:53:59Z</time></trkpt><trkpt lat="59.2953381222" lon="34.6974762529"><ele>155.87</ele><time>2026-08-16T07:54:12Z</time></trkpt><trkpt lat="59.2953972984" lon="34.6974156518"><ele>155.87</ele><time>2026-08-16T07:54:22Z</time></trkpt><trkpt lat="59.2954845540" lon="34.6975292265"><ele>155.87</ele><time>2026-08-16T07:54:34Z</time></trkpt><trkpt lat="59.2955402937" lon="34.6976297256"><ele>155.39</ele><time>2026-08-16T07:54:46Z</time></trkpt><trkpt lat="59.2955398746" lon="34.6977174841"><ele>154.91</ele><time>2026-08-16T07:54:58Z</time></trkpt><trkpt lat="59.2955583986" lon="34.6978515107"><ele>154.43</ele><time>2026-08-16T07:55:09Z</time></trkpt><trkpt lat="59.2956079356" lon="34.6979723778"><ele>154.43</ele><time>2026-08-16T07:55:20Z</time></trkpt><trkpt lat="59.2956740689" lon="34.6980701946"><ele>154.43</ele><time>2026-08-16T07:55:32Z</time></trkpt><trkpt lat="59.2956723925" lon="34.6981137805"><ele>153.95</ele><time>2026-08-16T07:55:54Z</time></trkpt><trkpt lat="59.2956756614" lon="34.6981085837"><ele>155.39</ele><time>2026-08-16T07:56:23Z</time></trkpt><trkpt lat="59.2957053334" lon="34.6981660835"><ele>155.39</ele><time>2026-08-16T07:56:44Z</time></trkpt><trkpt lat="59.2957567144" lon="34.6983348951"><ele>155.39</ele><time>2026-08-16T07:56:55Z</time></trkpt><trkpt lat="59.2958205845" lon="34.6984690893"><ele>155.39</ele><time>2026-08-16T07:57:05Z</time></trkpt><trkpt lat="59.2958834488" lon="34.6985705104"><ele>155.39</ele><time>2026-08-16T07:57:16Z</time></trkpt><trkpt lat="59.2959007993" lon="34.6985974163"><ele>155.39</ele><time>2026-08-16T07:57:20Z</time></trkpt><trkpt lat="59.2959725484" lon="34.6986241546"><ele>155.39</ele><time>2026-08-16T07:57:32Z</time></trkpt><trkpt lat="59.2959841155" lon="34.6986037027"><ele>155.39</ele><time>2026-08-16T07:57:34Z</time></trkpt><trkpt lat="59.2959895637" lon="34.6985724382"><ele>155.39</ele><time>2026-08-16T07:57:36Z</time></trkpt><trkpt lat="59.2960913200" lon="34.6984995995"><ele>155.39</ele><time>2026-08-16T07:57:47Z</time></trkpt><trkpt lat="59.2961543519" lon="34.6985184588"><ele>155.87</ele><time>2026-08-16T07:58:02Z</time></trkpt><trkpt lat="59.2962403502" lon="34.6985595301"><ele>156.83</ele><time>2026-08-16T07:58:11Z</time></trkpt><trkpt lat="59.2963095009" lon="34.6986155212"><ele>157.79</ele><time>2026-08-16T07:58:25Z</time></trkpt><trkpt lat="59.2963674199" lon="34.6985154413"><ele>159.72</ele><time>2026-08-16T07:58:37Z</time></trkpt><trkpt lat="59.2964518256" lon="34.6985205542"><ele>160.20</ele><time>2026-08-16T07:58:48Z</time></trkpt><trkpt lat="59.2964880355" lon="34.6985893697"><ele>160.20</ele><time>2026-08-16T07:58:58Z</time></trkpt><trkpt lat="59.2965154443" lon="34.6986166947"><ele>160.68</ele><time>2026-08-16T07:59:15Z</time></trkpt><trkpt lat="59.2965565156" lon="34.6987340413"><ele>160.68</ele><time>2026-08-16T07:59:26Z</time></trkpt><trkpt lat="59.2966128420" lon="34.6988269966"><ele>160.20</ele><time>2026-08-16T07:59:38Z</time></trkpt><trkpt lat="59.2966416758" lon="34.6989259031"><ele>159.24</ele><time>2026-08-16T07:59:51Z</time></trkpt><trkpt lat="59.2966495547" lon="34.6989667229"><ele>158.27</ele><time>2026-08-16T08:00:15Z</time></trkpt><trkpt lat="59.2966525722" lon="34.6989551559"><ele>158.27</ele><time>2026-08-16T08:00:32Z</time></trkpt><trkpt lat="59.2966607027" lon="34.6990010049"><ele>157.79</ele><time>2026-08-16T08:00:53Z</time></trkpt><trkpt lat="59.2966954876" lon="34.6991477720"><ele>157.79</ele><time>2026-08-16T08:01:04Z</time></trkpt><trkpt lat="59.2967298534" lon="34.6993477643"><ele>157.79</ele><time>2026-08-16T08:01:18Z</time></trkpt><trkpt lat="59.2967684101" lon="34.6994959563"><ele>158.75</ele><time>2026-08-16T08:01:28Z</time></trkpt><trkpt lat="59.2968249042" lon="34.6996832918"><ele>158.75</ele><time>2026-08-16T08:01:40Z</time></trkpt><trkpt lat="59.2968966532" lon="34.6997454017"><ele>158.75</ele><time>2026-08-16T08:01:52Z</time></trkpt><trkpt lat="59.2969807237" lon="34.6998032369"><ele>159.72</ele><time>2026-08-16T08:02:05Z</time></trkpt><trkpt lat="59.2970875092" lon="34.6998123731"><ele>160.68</ele><time>2026-08-16T08:02:17Z</time></trkpt><trkpt lat="59.2971621919" lon="34.6998244431"><ele>161.64</ele><time>2026-08-16T08:02:30Z</time></trkpt><trkpt lat="59.2972502019" lon="34.6998336632"><ele>162.60</ele><time>2026-08-16T08:02:45Z</time></trkpt><trkpt lat="59.2973702308" lon="34.6997289732"><ele>162.60</ele><time>2026-08-16T08:02:58Z</time></trkpt><trkpt lat="59.2974061891" lon="34.6996771730"><ele>163.08</ele><time>2026-08-16T08:03:10Z</time></trkpt><trkpt lat="59.2974851467" lon="34.6996573918"><ele>163.56</ele><time>2026-08-16T08:03:20Z</time></trkpt><trkpt lat="59.2975512799" lon="34.6996519435"><ele>163.56</ele><time>2026-08-16T08:03:32Z</time></trkpt><trkpt lat="59.2975941952" lon="34.6996400412"><ele>163.56</ele><time>2026-08-16T08:03:43Z</time></trkpt><trkpt lat="59.2976291478" lon="34.6996543743"><ele>163.56</ele><time>2026-08-16T08:03:55Z</time></trkpt><trkpt lat="59.2977385316" lon="34.6996632591"><ele>163.08</ele><time>2026-08-16T08:04:08Z</time></trkpt><trkpt lat="59.2977586482" lon="34.6996858064"><ele>162.12</ele><time>2026-08-16T08:04:30Z</time></trkpt><trkpt lat="59.2977625038" lon="34.6996876504"><ele>161.64</ele><time>2026-08-16T08:04:53Z</time></trkpt><trkpt lat="59.2977689579" lon="34.6997220162"><ele>161.64</ele><time>2026-08-16T08:05:21Z</time></trkpt><trkpt lat="59.2977735680" lon="34.6997167356"><ele>161.64</ele><time>2026-08-16T08:05:51Z</time></trkpt><trkpt lat="59.2977750767" lon="34.6997081023"><ele>161.64</ele><time>2026-08-16T08:06:20Z</time></trkpt><trkpt lat="59.2977788486" lon="34.6996915061"><ele>161.64</ele><time>2026-08-16T08:06:43Z</time></trkpt><trkpt lat="59.2977828719" lon="34.6996769216"><ele>161.64</ele><time>2026-08-16T08:07:04Z</time></trkpt><trkpt lat="59.2977842130" lon="34.6996397898"><ele>161.64</ele><time>2026-08-16T08:07:41Z</time></trkpt><trkpt lat="59.2977856379" lon="34.6996200923"><ele>161.64</ele><time>2026-08-16T08:08:17Z</time></trkpt><trkpt lat="59.2978127114" lon="34.6996331681"><ele>161.64</ele><time>2026-08-16T08:08:50Z</time></trkpt><trkpt lat="59.2978176568" lon="34.6996362694"><ele>161.64</ele><time>2026-08-16T08:09:23Z</time></trkpt><trkpt lat="59.2978129629" lon="34.6996429749"><ele>161.64</ele><time>2026-08-16T08:09:49Z</time></trkpt><trkpt lat="59.2978210095" lon="34.6996345092"><ele>161.64</ele><time>2026-08-16T08:10:17Z</time></trkpt><trkpt lat="59.2978306487" lon="34.6995277237"><ele>161.64</ele><time>2026-08-16T08:10:24Z</time></trkpt><trkpt lat="59.2978622485" lon="34.6992838103"><ele>160.68</ele><time>2026-08-16T08:10:38Z</time></trkpt><trkpt lat="59.2978854664" lon="34.6991626918"><ele>160.20</ele><time>2026-08-16T08:10:50Z</time></trkpt><trkpt lat="59.2979459837" lon="34.6990480274"><ele>159.72</ele><time>2026-08-16T08:11:02Z</time></trkpt><trkpt lat="59.2979480792" lon="34.6990470216"><ele>159.72</ele><time>2026-08-16T08:11:03Z</time></trkpt><trkpt lat="59.2980075907" lon="34.6989924554"><ele>159.24</ele><time>2026-08-16T08:11:15Z</time></trkpt><trkpt lat="59.2980998755" lon="34.6989731770"><ele>159.24</ele><time>2026-08-16T08:11:28Z</time></trkpt><trkpt lat="59.2981477361" lon="34.6989582572"><ele>160.68</ele><time>2026-08-16T08:11:39Z</time></trkpt><trkpt lat="59.2982128635" lon="34.6988284215"><ele>160.68</ele><time>2026-08-16T08:11:50Z</time></trkpt><trkpt lat="59.2982605565" lon="34.6986353025"><ele>161.16</ele><time>2026-08-16T08:12:02Z</time></trkpt><trkpt lat="59.2983179726" lon="34.6984983422"><ele>160.20</ele><time>2026-08-16T08:12:17Z</time></trkpt><trkpt lat="59.2983795796" lon="34.6983940713"><ele>160.20</ele><time>2026-08-16T08:12:28Z</time></trkpt><trkpt lat="59.2984162923" lon="34.6982501540"><ele>160.20</ele><time>2026-08-16T08:12:40Z</time></trkpt><trkpt lat="59.2984881252" lon="34.6981714480"><ele>160.20</ele><time>2026-08-16T08:12:52Z</time></trkpt><trkpt lat="59.2985158693" lon="34.6981289517"><ele>159.72</ele><time>2026-08-16T08:13:04Z</time></trkpt><trkpt lat="59.2985050566" lon="34.6981355734"><ele>159.72</ele><time>2026-08-16T08:13:27Z</time></trkpt><trkpt lat="59.2985370755" lon="34.6981065720"><ele>159.72</ele><time>2026-08-16T08:13:55Z</time></trkpt><trkpt lat="59.2985840980" lon="34.6980578732"><ele>159.72</ele><time>2026-08-16T08:14:07Z</time></trkpt><trkpt lat="59.2986523267" lon="34.6980138682"><ele>159.72</ele><time>2026-08-16T08:14:20Z</time></trkpt><trkpt lat="59.2987265904" lon="34.6978943422"><ele>160.68</ele><time>2026-08-16T08:14:33Z</time></trkpt><trkpt lat="59.2987479642" lon="34.6978518460"><ele>160.68</ele><time>2026-08-16T08:14:36Z</time></trkpt><trkpt lat="59.2988242395" lon="34.6977443062"><ele>160.68</ele><time>2026-08-16T08:14:48Z</time></trkpt><trkpt lat="59.2988746148" lon="34.6976656839"><ele>161.16</ele><time>2026-08-16T08:15:00Z</time></trkpt><trkpt lat="59.2989413347" lon="34.6975394525"><ele>161.16</ele><time>2026-08-16T08:15:11Z</time></trkpt><trkpt lat="59.2989691626" lon="34.6974708047"><ele>161.64</ele><time>2026-08-16T08:15:22Z</time></trkpt><trkpt lat="59.2990412470" lon="34.6974370256"><ele>161.64</ele><time>2026-08-16T08:15:34Z</time></trkpt><trkpt lat="59.2991012614" lon="34.6973502729"><ele>161.64</ele><time>2026-08-16T08:15:47Z</time></trkpt><trkpt lat="59.2991935462" lon="34.6972878277"><ele>161.64</ele><time>2026-08-16T08:16:00Z</time></trkpt><trkpt lat="59.2992614396" lon="34.6971543878"><ele>161.16</ele><time>2026-08-16T08:16:13Z</time></trkpt><trkpt lat="59.2992655467" lon="34.6971191000"><ele>161.16</ele><time>2026-08-16T08:16:39Z</time></trkpt><trkpt lat="59.2992880940" lon="34.6971553937"><ele>161.16</ele><time>2026-08-16T08:16:56Z</time></trkpt><trkpt lat="59.2993087135" lon="34.6971575730"><ele>160.20</ele><time>2026-08-16T08:17:22Z</time></trkpt><trkpt lat="59.2993093841" lon="34.6971631050"><ele>159.72</ele><time>2026-08-16T08:17:38Z</time></trkpt><trkpt lat="59.2992445920" lon="34.6970771905"><ele>159.72</ele><time>2026-08-16T08:17:52Z</time></trkpt><trkpt lat="59.2992283311" lon="34.6970270667"><ele>159.72</ele><time>2026-08-16T08:17:58Z</time></trkpt><trkpt lat="59.2991264910" lon="34.6968147531"><ele>159.72</ele><time>2026-08-16T08:18:11Z</time></trkpt><trkpt lat="59.2991214618" lon="34.6968083829"><ele>159.72</ele><time>2026-08-16T08:18:12Z</time></trkpt><trkpt lat="59.2990352120" lon="34.6968540642"><ele>159.72</ele><time>2026-08-16T08:18:24Z</time></trkpt><trkpt lat="59.2990251537" lon="34.6968421619"><ele>161.64</ele><time>2026-08-16T08:18:26Z</time></trkpt><trkpt lat="59.2989804782" lon="34.6968437545"><ele>161.16</ele><time>2026-08-16T08:18:37Z</time></trkpt><trkpt lat="59.2989143450" lon="34.6968316846"><ele>162.12</ele><time>2026-08-16T08:18:45Z</time></trkpt><trkpt lat="59.2988730222" lon="34.6967171878"><ele>162.12</ele><time>2026-08-16T08:18:57Z</time></trkpt><trkpt lat="59.2988491338" lon="34.6967131644"><ele>162.12</ele><time>2026-08-16T08:19:09Z</time></trkpt><trkpt lat="59.2988757044" lon="34.6966531500"><ele>162.12</ele><time>2026-08-16T08:19:21Z</time></trkpt><trkpt lat="59.2988638859" lon="34.6965593565"><ele>162.12</ele><time>2026-08-16T08:19:32Z</time></trkpt><trkpt lat="59.2987812404" lon="34.6964634676"><ele>160.68</ele><time>2026-08-16T08:19:46Z</time></trkpt><trkpt lat="59.2987658177" lon="34.6964150202"><ele>159.72</ele><time>2026-08-16T08:19:51Z</time></trkpt><trkpt lat="59.2987058870" lon="34.6963148564"><ele>159.24</ele><time>2026-08-16T08:20:03Z</time></trkpt><trkpt lat="59.2986467946" lon="34.6962967515"><ele>159.24</ele><time>2026-08-16T08:20:15Z</time></trkpt><trkpt lat="59.2986177932" lon="34.6961590368"><ele>159.24</ele><time>2026-08-16T08:20:26Z</time></trkpt><trkpt lat="59.2985307891" lon="34.6960215736"><ele>159.24</ele><time>2026-08-16T08:20:40Z</time></trkpt><trkpt lat="59.2984556034" lon="34.6959104296"><ele>159.24</ele><time>2026-08-16T08:20:53Z</time></trkpt><trkpt lat="59.2984494008" lon="34.6959208231"><ele>159.24</ele><time>2026-08-16T08:21:16Z</time></trkpt><trkpt lat="59.2984476406" lon="34.6959280316"><ele>160.20</ele><time>2026-08-16T08:21:34Z</time></trkpt><trkpt lat="59.2984425277" lon="34.6959383413"><ele>159.24</ele><time>2026-08-16T08:21:43Z</time></trkpt><trkpt lat="59.2983887158" lon="34.6958735492"><ele>159.24</ele><time>2026-08-16T08:21:55Z</time></trkpt><trkpt lat="59.2982928269" lon="34.6957788337"><ele>160.68</ele><time>2026-08-16T08:22:06Z</time></trkpt><trkpt lat="59.2982854508" lon="34.6957733016"><ele>160.20</ele><time>2026-08-16T08:22:07Z</time></trkpt><trkpt lat="59.2982195690" lon="34.6956595592"><ele>160.20</ele><time>2026-08-16T08:22:18Z</time></trkpt><trkpt lat="59.2982178088" lon="34.6956142969"><ele>160.20</ele><time>2026-08-16T08:22:24Z</time></trkpt><trkpt lat="59.2981417850" lon="34.6954091918"><ele>160.20</ele><time>2026-08-16T08:22:36Z</time></trkpt><trkpt lat="59.2981143761" lon="34.6953817829"><ele>160.20</ele><time>2026-08-16T08:22:39Z</time></trkpt><trkpt lat="59.2980483267" lon="34.6954138856"><ele>160.20</ele><time>2026-08-16T08:22:49Z</time></trkpt><trkpt lat="59.2979857977" lon="34.6954071801"><ele>160.20</ele><time>2026-08-16T08:22:59Z</time></trkpt><trkpt lat="59.2979695369" lon="34.6953136381"><ele>160.20</ele><time>2026-08-16T08:23:10Z</time></trkpt><trkpt lat="59.2979267053" lon="34.6951874066"><ele>160.20</ele><time>2026-08-16T08:23:20Z</time></trkpt><trkpt lat="59.2978542857" lon="34.6950335987"><ele>160.20</ele><time>2026-08-16T08:23:31Z</time></trkpt><trkpt lat="59.2977967858" lon="34.6949611790"><ele>160.20</ele><time>2026-08-16T08:23:41Z</time></trkpt><trkpt lat="59.2977625038" lon="34.6949546412"><ele>160.20</ele><time>2026-08-16T08:23:51Z</time></trkpt><trkpt lat="59.2976905033" lon="34.6949046012"><ele>160.20</ele><time>2026-08-16T08:24:01Z</time></trkpt><trkpt lat="59.2976746615" lon="34.6948885079"><ele>160.20</ele><time>2026-08-16T08:24:06Z</time></trkpt><trkpt lat="59.2976111267" lon="34.6948756836"><ele>160.20</ele><time>2026-08-16T08:24:19Z</time></trkpt><trkpt lat="59.2975871544" lon="34.6948646195"><ele>160.20</ele><time>2026-08-16T08:24:41Z</time></trkpt><trkpt lat="59.2975925189" lon="34.6948337741"><ele>160.20</ele><time>2026-08-16T08:25:05Z</time></trkpt><trkpt lat="59.2975693010" lon="34.6947913617"><ele>160.20</ele><time>2026-08-16T08:25:21Z</time></trkpt><trkpt lat="59.2974965461" lon="34.6947683953"><ele>160.20</ele><time>2026-08-16T08:25:32Z</time></trkpt><trkpt lat="59.2974409740" lon="34.6947771125"><ele>160.20</ele><time>2026-08-16T08:25:44Z</time></trkpt><trkpt lat="59.2973955441" lon="34.6948142443"><ele>160.20</ele><time>2026-08-16T08:25:55Z</time></trkpt><trkpt lat="59.2973382119" lon="34.6948106401"><ele>160.20</ele><time>2026-08-16T08:26:09Z</time></trkpt><trkpt lat="59.2972569074" lon="34.6947841533"><ele>160.20</ele><time>2026-08-16T08:26:20Z</time></trkpt><trkpt lat="59.2972191051" lon="34.6947393101"><ele>159.24</ele><time>2026-08-16T08:26:29Z</time></trkpt><trkpt lat="59.2971441709" lon="34.6946489532"><ele>159.24</ele><time>2026-08-16T08:26:40Z</time></trkpt><trkpt lat="59.2970893532" lon="34.6945605241"><ele>159.24</ele><time>2026-08-16T08:26:50Z</time></trkpt><trkpt lat="59.2970756907" lon="34.6944448538"><ele>160.68</ele><time>2026-08-16T08:27:03Z</time></trkpt><trkpt lat="59.2969927937" lon="34.6943935566"><ele>160.68</ele><time>2026-08-16T08:27:13Z</time></trkpt><trkpt lat="59.2968937196" lon="34.6943296865"><ele>160.68</ele><time>2026-08-16T08:27:29Z</time></trkpt><trkpt lat="59.2968129180" lon="34.6943491325"><ele>160.68</ele><time>2026-08-16T08:27:43Z</time></trkpt><trkpt lat="59.2967420071" lon="34.6942645591"><ele>160.68</ele><time>2026-08-16T08:27:53Z</time></trkpt><trkpt lat="59.2966697551" lon="34.6941176243"><ele>159.72</ele><time>2026-08-16T08:28:06Z</time></trkpt><trkpt lat="59.2966493871" lon="34.6940605436"><ele>159.24</ele><time>2026-08-16T08:28:18Z</time></trkpt><trkpt lat="59.2966352217" lon="34.6940545924"><ele>159.24</ele><time>2026-08-16T08:28:46Z</time></trkpt><trkpt lat="59.2966262531" lon="34.6940364037"><ele>159.24</ele><time>2026-08-16T08:29:05Z</time></trkpt><trkpt lat="59.2966209725" lon="34.6940245852"><ele>158.75</ele><time>2026-08-16T08:29:28Z</time></trkpt><trkpt lat="59.2966172006" lon="34.6939846873"><ele>158.75</ele><time>2026-08-16T08:29:55Z</time></trkpt><trkpt lat="59.2966022808" lon="34.6938874573"><ele>158.75</ele><time>2026-08-16T08:30:08Z</time></trkpt><trkpt lat="59.2965729441" lon="34.6938604675"><ele>158.75</ele><time>2026-08-16T08:30:13Z</time></trkpt><trkpt lat="59.2965363991" lon="34.6938318852"><ele>158.75</ele><time>2026-08-16T08:30:18Z</time></trkpt><trkpt lat="59.2964389175" lon="34.6937955916"><ele>159.72</ele><time>2026-08-16T08:30:29Z</time></trkpt><trkpt lat="59.2963777296" lon="34.6937678475"><ele>160.20</ele><time>2026-08-16T08:30:40Z</time></trkpt><trkpt lat="59.2963719461" lon="34.6937183943"><ele>160.20</ele><time>2026-08-16T08:30:51Z</time></trkpt><trkpt lat="59.2962889653" lon="34.6935839485"><ele>160.68</ele><time>2026-08-16T08:31:01Z</time></trkpt><trkpt lat="59.2962898035" lon="34.6935250238"><ele>160.68</ele><time>2026-08-16T08:31:11Z</time></trkpt><trkpt lat="59.2962901387" lon="34.6934183221"><ele>160.68</ele><time>2026-08-16T08:31:21Z</time></trkpt><trkpt lat="59.2962897196" lon="34.6932775900"><ele>160.68</ele><time>2026-08-16T08:31:34Z</time></trkpt><trkpt lat="59.2962823436" lon="34.6932293940"><ele>160.68</ele><time>2026-08-16T08:31:49Z</time></trkpt><trkpt lat="59.2962806672" lon="34.6930707246"><ele>160.68</ele><time>2026-08-16T08:32:02Z</time></trkpt><trkpt lat="59.2962672561" lon="34.6929397993"><ele>160.68</ele><time>2026-08-16T08:32:14Z</time></trkpt><trkpt lat="59.2962511629" lon="34.6927248873"><ele>160.68</ele><time>2026-08-16T08:32:28Z</time></trkpt><trkpt lat="59.2962659989" lon="34.6925597638"><ele>160.68</ele><time>2026-08-16T08:32:40Z</time></trkpt><trkpt lat="59.2962773982" lon="34.6924651321"><ele>160.68</ele><time>2026-08-16T08:32:50Z</time></trkpt><trkpt lat="59.2963223252" lon="34.6923535690"><ele>160.68</ele><time>2026-08-16T08:33:00Z</time></trkpt><trkpt lat="59.2963462975" lon="34.6923284233"><ele>160.68</ele><time>2026-08-16T08:33:10Z</time></trkpt><trkpt lat="59.2963763047" lon="34.6923078876"><ele>161.16</ele><time>2026-08-16T08:33:21Z</time></trkpt><trkpt lat="59.2964677513" lon="34.6922780480"><ele>161.16</ele><time>2026-08-16T08:33:34Z</time></trkpt><trkpt lat="59.2965383269" lon="34.6922646370"><ele>161.64</ele><time>2026-08-16T08:33:46Z</time></trkpt><trkpt lat="59.2965929769" lon="34.6922268346"><ele>162.12</ele><time>2026-08-16T08:33:58Z</time></trkpt><trkpt lat="59.2966713477" lon="34.6921486314"><ele>162.12</ele><time>2026-08-16T08:34:11Z</time></trkpt><trkpt lat="59.2967294343" lon="34.6921303589"><ele>162.12</ele><time>2026-08-16T08:34:23Z</time></trkpt><trkpt lat="59.2968445178" lon="34.6921162773"><ele>161.64</ele><time>2026-08-16T08:34:37Z</time></trkpt><trkpt lat="59.2968996707" lon="34.6921688318"><ele>160.68</ele><time>2026-08-16T08:34:49Z</time></trkpt><trkpt lat="59.2969803885" lon="34.6921289340"><ele>159.24</ele><time>2026-08-16T08:35:00Z</time></trkpt><trkpt lat="59.2970617767" lon="34.6920685843"><ele>158.75</ele><time>2026-08-16T08:35:19Z</time></trkpt><trkpt lat="59.2970860004" lon="34.6920343023"><ele>158.75</ele><time>2026-08-16T08:35:46Z</time></trkpt><trkpt lat="59.2970825639" lon="34.6920260042"><ele>158.75</ele><time>2026-08-16T08:36:17Z</time></trkpt><trkpt lat="59.2970805522" lon="34.6920239087"><ele>158.75</ele><time>2026-08-16T08:36:40Z</time></trkpt><trkpt lat="59.2970787082" lon="34.6920058876"><ele>158.75</ele><time>2026-08-16T08:37:13Z</time></trkpt><trkpt lat="59.2970782891" lon="34.6920044627"><ele>158.75</ele><time>2026-08-16T08:37:36Z</time></trkpt><trkpt lat="59.2970761936" lon="34.6919996850"><ele>158.75</ele><time>2026-08-16T08:38:01Z</time></trkpt><trkpt lat="59.2970801331" lon="34.6920010261"><ele>158.75</ele><time>2026-08-16T08:38:24Z</time></trkpt><trkpt lat="59.2970816419" lon="34.6920041274"><ele>159.24</ele><time>2026-08-16T08:38:56Z</time></trkpt><trkpt lat="59.2970853299" lon="34.6919851005"><ele>159.24</ele><time>2026-08-16T08:39:14Z</time></trkpt><trkpt lat="59.2970891017" lon="34.6919906326"><ele>158.75</ele><time>2026-08-16T08:39:32Z</time></trkpt><trkpt lat="59.2970766965" lon="34.6920167003"><ele>158.75</ele><time>2026-08-16T08:39:46Z</time></trkpt><trkpt lat="59.2970880121" lon="34.6920322906"><ele>158.75</ele><time>2026-08-16T08:40:05Z</time></trkpt><trkpt lat="59.2970984057" lon="34.6920716856"><ele>158.75</ele><time>2026-08-16T08:40:24Z</time></trkpt><trkpt lat="59.2971102241" lon="34.6920855995"><ele>158.75</ele><time>2026-08-16T08:40:46Z</time></trkpt><trkpt lat="59.2971085478" lon="34.6921001002"><ele>158.75</ele><time>2026-08-16T08:41:09Z</time></trkpt><trkpt lat="59.2970981542" lon="34.6920991782"><ele>158.75</ele><time>2026-08-16T08:41:40Z</time></trkpt><trkpt lat="59.2970973160" lon="34.6920815762"><ele>158.75</ele><time>2026-08-16T08:42:06Z</time></trkpt><trkpt lat="59.2971073743" lon="34.6920699254"><ele>158.75</ele><time>2026-08-16T08:42:21Z</time></trkpt><trkpt lat="59.2971513793" lon="34.6919487230"><ele>158.75</ele><time>2026-08-16T08:42:34Z</time></trkpt><trkpt lat="59.2971155047" lon="34.6917859465"><ele>158.75</ele><time>2026-08-16T08:42:46Z</time></trkpt><trkpt lat="59.2971248087" lon="34.6916616429"><ele>158.75</ele><time>2026-08-16T08:42:56Z</time></trkpt><trkpt lat="59.2971787043" lon="34.6915539354"><ele>158.75</ele><time>2026-08-16T08:43:08Z</time></trkpt><trkpt lat="59.2971795425" lon="34.6913935058"><ele>158.27</ele><time>2026-08-16T08:43:23Z</time></trkpt><trkpt lat="59.2972583324" lon="34.6913685277"><ele>158.27</ele><time>2026-08-16T08:43:36Z</time></trkpt><trkpt lat="59.2973636929" lon="34.6912863851"><ele>158.27</ele><time>2026-08-16T08:43:49Z</time></trkpt><trkpt lat="59.2974997312" lon="34.6913464833"><ele>158.27</ele><time>2026-08-16T08:44:03Z</time></trkpt><trkpt lat="59.2975718156" lon="34.6912281308"><ele>158.27</ele><time>2026-08-16T08:44:16Z</time></trkpt><trkpt lat="59.2975993082" lon="34.6911171544"><ele>158.27</ele><time>2026-08-16T08:44:27Z</time></trkpt><trkpt lat="59.2976963706" lon="34.6910156496"><ele>158.27</ele><time>2026-08-16T08:44:40Z</time></trkpt><trkpt lat="59.2977527808" lon="34.6909106243"><ele>158.27</ele><time>2026-08-16T08:44:53Z</time></trkpt><trkpt lat="59.2978253681" lon="34.6908560582"><ele>159.24</ele><time>2026-08-16T08:45:06Z</time></trkpt><trkpt lat="59.2978855502" lon="34.6908169147"><ele>159.24</ele><time>2026-08-16T08:45:18Z</time></trkpt><trkpt lat="59.2979344167" lon="34.6907912660"><ele>160.20</ele><time>2026-08-16T08:45:32Z</time></trkpt><trkpt lat="59.2979902402" lon="34.6907203551"><ele>160.20</ele><time>2026-08-16T08:45:45Z</time></trkpt><trkpt lat="59.2980417050" lon="34.6905751806"><ele>161.16</ele><time>2026-08-16T08:45:57Z</time></trkpt><trkpt lat="59.2980907392" lon="34.6905151661"><ele>162.12</ele><time>2026-08-16T08:46:18Z</time></trkpt><trkpt lat="59.2981266975" lon="34.6905166749"><ele>161.64</ele><time>2026-08-16T08:46:47Z</time></trkpt><trkpt lat="59.2981374264" lon="34.6904662158"><ele>162.60</ele><time>2026-08-16T08:47:01Z</time></trkpt><trkpt lat="59.2981789168" lon="34.6903379727"><ele>163.08</ele><time>2026-08-16T08:47:14Z</time></trkpt><trkpt lat="59.2982735485" lon="34.6900845878"><ele>162.60</ele><time>2026-08-16T08:47:30Z</time></trkpt><trkpt lat="59.2983257677" lon="34.6899307799"><ele>163.56</ele><time>2026-08-16T08:47:44Z</time></trkpt><trkpt lat="59.2983736284" lon="34.6897812467"><ele>163.56</ele><time>2026-08-16T08:47:57Z</time></trkpt><trkpt lat="59.2984390073" lon="34.6896938235"><ele>163.56</ele><time>2026-08-16T08:48:09Z</time></trkpt><trkpt lat="59.2984742951" lon="34.6896580327"><ele>163.08</ele><time>2026-08-16T08:48:21Z</time></trkpt><trkpt lat="59.2985436972" lon="34.6896280255"><ele>163.08</ele><time>2026-08-16T08:48:34Z</time></trkpt><trkpt lat="59.2985941563" lon="34.6896101721"><ele>163.08</ele><time>2026-08-16T08:48:47Z</time></trkpt><trkpt lat="59.2987451144" lon="34.6894572861"><ele>163.08</ele><time>2026-08-16T08:49:00Z</time></trkpt><trkpt lat="59.2988637183" lon="34.6892607305"><ele>163.08</ele><time>2026-08-16T08:49:14Z</time></trkpt><trkpt lat="59.2988795601" lon="34.6892108582"><ele>163.08</ele><time>2026-08-16T08:49:32Z</time></trkpt><trkpt lat="59.2988827452" lon="34.6891982853"><ele>163.08</ele><time>2026-08-16T08:49:48Z</time></trkpt><trkpt lat="59.2988829128" lon="34.6892061643"><ele>163.08</ele><time>2026-08-16T08:50:16Z</time></trkpt><trkpt lat="59.2988886964" lon="34.6891982853"><ele>163.08</ele><time>2026-08-16T08:50:44Z</time></trkpt><trkpt lat="59.2988892831" lon="34.6891961060"><ele>162.60</ele><time>2026-08-16T08:51:09Z</time></trkpt><trkpt lat="59.2988901213" lon="34.6891887300"><ele>162.60</ele><time>2026-08-16T08:51:37Z</time></trkpt><trkpt lat="59.2988932226" lon="34.6891846228"><ele>162.60</ele><time>2026-08-16T08:51:47Z</time></trkpt><trkpt lat="59.2988974974" lon="34.6890748199"><ele>162.60</ele><time>2026-08-16T08:52:00Z</time></trkpt><trkpt lat="59.2989191227" lon="34.6889516897"><ele>162.60</ele><time>2026-08-16T08:52:14Z</time></trkpt><trkpt lat="59.2989855073" lon="34.6888656914"><ele>162.60</ele><time>2026-08-16T08:52:26Z</time></trkpt><trkpt lat="59.2990528140" lon="34.6888609137"><ele>162.60</ele><time>2026-08-16T08:52:52Z</time></trkpt><trkpt lat="59.2990466114" lon="34.6888147295"><ele>162.60</ele><time>2026-08-16T08:53:13Z</time></trkpt><trkpt lat="59.2990514729" lon="34.6886063553"><ele>162.60</ele><time>2026-08-16T08:53:23Z</time></trkpt><trkpt lat="59.2991330288" lon="34.6886714827"><ele>162.60</ele><time>2026-08-16T08:53:35Z</time></trkpt><trkpt lat="59.2991911154" lon="34.6886532102"><ele>162.12</ele><time>2026-08-16T08:53:46Z</time></trkpt><trkpt lat="59.2992313486" lon="34.6886221133"><ele>162.12</ele><time>2026-08-16T08:53:55Z</time></trkpt><trkpt lat="59.2992711626" lon="34.6885718219"><ele>161.16</ele><time>2026-08-16T08:54:06Z</time></trkpt><trkpt lat="59.2993505392" lon="34.6885438263"><ele>161.16</ele><time>2026-08-16T08:54:20Z</time></trkpt><trkpt lat="59.2994517088" lon="34.6884917747"><ele>160.20</ele><time>2026-08-16T08:54:33Z</time></trkpt><trkpt lat="59.2995566502" lon="34.6884320118"><ele>159.72</ele><time>2026-08-16T08:54:46Z</time></trkpt><trkpt lat="59.2996159941" lon="34.6882393956"><ele>158.75</ele><time>2026-08-16T08:54:59Z</time></trkpt><trkpt lat="59.2996733263" lon="34.6880881861"><ele>158.75</ele><time>2026-08-16T08:55:14Z</time></trkpt><trkpt lat="59.2997547146" lon="34.6880363859"><ele>158.75</ele><time>2026-08-16T08:55:26Z</time></trkpt><trkpt lat="59.2997874878" lon="34.6880159341"><ele>158.75</ele><time>2026-08-16T08:55:46Z</time></trkpt><trkpt lat="59.2998172436" lon="34.6879845858"><ele>158.75</ele><time>2026-08-16T08:56:12Z</time></trkpt><trkpt lat="59.2998391204" lon="34.6879559197"><ele>158.75</ele><time>2026-08-16T08:56:37Z</time></trkpt><trkpt lat="59.2998529505" lon="34.6879070532"><ele>158.75</ele><time>2026-08-16T08:56:52Z</time></trkpt><trkpt lat="59.2999169044" lon="34.6878342144"><ele>158.75</ele><time>2026-08-16T08:57:03Z</time></trkpt><trkpt lat="59.2999617476" lon="34.6877431031"><ele>158.75</ele><time>2026-08-16T08:57:16Z</time></trkpt><trkpt lat="59.3000467401" lon="34.6876014490"><ele>158.75</ele><time>2026-08-16T08:57:28Z</time></trkpt><trkpt lat="59.3001475744" lon="34.6875038836"><ele>158.75</ele><time>2026-08-16T08:57:40Z</time></trkpt><trkpt lat="59.3001660146" lon="34.6874809172"><ele>158.75</ele><time>2026-08-16T08:57:42Z</time></trkpt><trkpt lat="59.3002240174" lon="34.6873432864"><ele>158.75</ele><time>2026-08-16T08:57:54Z</time></trkpt><trkpt lat="59.3002609815" lon="34.6872101817"><ele>158.75</ele><time>2026-08-16T08:58:04Z</time></trkpt><trkpt lat="59.3002758175" lon="34.6871188190"><ele>158.75</ele><time>2026-08-16T08:58:22Z</time></trkpt><trkpt lat="59.3003178947" lon="34.6869893186"><ele>158.27</ele><time>2026-08-16T08:58:30Z</time></trkpt><trkpt lat="59.3003060762" lon="34.6868547890"><ele>158.27</ele><time>2026-08-16T08:58:42Z</time></trkpt><trkpt lat="59.3003238458" lon="34.6867860574"><ele>158.27</ele><time>2026-08-16T08:58:56Z</time></trkpt><trkpt lat="59.3003294617" lon="34.6867149789"><ele>158.27</ele><time>2026-08-16T08:59:07Z</time></trkpt><trkpt lat="59.3003339041" lon="34.6867078543"><ele>158.27</ele><time>2026-08-16T08:59:10Z</time></trkpt><trkpt lat="59.3003772385" lon="34.6866524499"><ele>158.27</ele><time>2026-08-16T08:59:19Z</time></trkpt><trkpt lat="59.3003940023" lon="34.6866123844"><ele>158.27</ele><time>2026-08-16T08:59:29Z</time></trkpt><trkpt lat="59.3004033901" lon="34.6865472570"><ele>158.27</ele><time>2026-08-16T08:59:39Z</time></trkpt><trkpt lat="59.3004090060" lon="34.6865413059"><ele>157.79</ele><time>2026-08-16T09:00:03Z</time></trkpt><trkpt lat="59.3003599718" lon="34.6864901762"><ele>157.79</ele><time>2026-08-16T09:00:24Z</time></trkpt><trkpt lat="59.3003058247" lon="34.6864165831"><ele>157.79</ele><time>2026-08-16T09:00:36Z</time></trkpt><trkpt lat="59.3003045674" lon="34.6864150744"><ele>157.79</ele><time>2026-08-16T09:00:39Z</time></trkpt><trkpt lat="59.3002846185" lon="34.6863191854"><ele>157.79</ele><time>2026-08-16T09:00:50Z</time></trkpt><trkpt lat="59.3002677709" lon="34.6862724144"><ele>157.79</ele><time>2026-08-16T09:01:02Z</time></trkpt><trkpt lat="59.3002422899" lon="34.6862450056"><ele>157.79</ele><time>2026-08-16T09:01:11Z</time></trkpt><trkpt lat="59.3001759052" lon="34.6861673892"><ele>157.79</ele><time>2026-08-16T09:01:22Z</time></trkpt><trkpt lat="59.3001841195" lon="34.6861792915"><ele>157.79</ele><time>2026-08-16T09:01:35Z</time></trkpt><trkpt lat="59.3001319002" lon="34.6861230489"><ele>157.79</ele><time>2026-08-16T09:01:52Z</time></trkpt><trkpt lat="59.3000843748" lon="34.6860705782"><ele>157.79</ele><time>2026-08-16T09:02:00Z</time></trkpt><trkpt lat="59.3000263721" lon="34.6860184427"><ele>157.79</ele><time>2026-08-16T09:02:12Z</time></trkpt><trkpt lat="59.2999993823" lon="34.6859885193"><ele>157.79</ele><time>2026-08-16T09:02:30Z</time></trkpt><trkpt lat="59.2999205086" lon="34.6859223023"><ele>157.79</ele><time>2026-08-16T09:02:45Z</time></trkpt><trkpt lat="59.2998271342" lon="34.6858420037"><ele>157.79</ele><time>2026-08-16T09:02:58Z</time></trkpt><trkpt lat="59.2997339275" lon="34.6857779659"><ele>157.79</ele><time>2026-08-16T09:03:11Z</time></trkpt><trkpt lat="59.2996998131" lon="34.6856886987"><ele>157.79</ele><time>2026-08-16T09:03:24Z</time></trkpt><trkpt lat="59.2996748351" lon="34.6856323723"><ele>157.79</ele><time>2026-08-16T09:03:36Z</time></trkpt><trkpt lat="59.2996693030" lon="34.6856268402"><ele>157.79</ele><time>2026-08-16T09:04:00Z</time></trkpt><trkpt lat="59.2996658664" lon="34.6856262535"><ele>157.79</ele><time>2026-08-16T09:04:14Z</time></trkpt><trkpt lat="59.2996665370" lon="34.6856280975"><ele>157.79</ele><time>2026-08-16T09:04:39Z</time></trkpt><trkpt lat="59.2996503599" lon="34.6856063884"><ele>157.79</ele><time>2026-08-16T09:04:54Z</time></trkpt><trkpt lat="59.2996253818" lon="34.6855749562"><ele>157.79</ele><time>2026-08-16T09:05:06Z</time></trkpt><trkpt lat="59.2996305786" lon="34.6855742019"><ele>157.79</ele><time>2026-08-16T09:05:09Z</time></trkpt><trkpt lat="59.2995659541" lon="34.6854597889"><ele>157.79</ele><time>2026-08-16T09:05:21Z</time></trkpt><trkpt lat="59.2995257210" lon="34.6853976790"><ele>157.79</ele><time>2026-08-16T09:05:30Z</time></trkpt><trkpt lat="59.2994486913" lon="34.6853154525"><ele>157.79</ele><time>2026-08-16T09:05:41Z</time></trkpt><trkpt lat="59.2993870843" lon="34.6852356568"><ele>157.79</ele><time>2026-08-16T09:05:51Z</time></trkpt><trkpt lat="59.2992994096" lon="34.6851560287"><ele>157.79</ele><time>2026-08-16T09:06:02Z</time></trkpt><trkpt lat="59.2992728390" lon="34.6850981098"><ele>157.79</ele><time>2026-08-16T09:06:09Z</time></trkpt><trkpt lat="59.2992531415" lon="34.6850642469"><ele>157.79</ele><time>2026-08-16T09:06:12Z</time></trkpt><trkpt lat="59.2992347851" lon="34.6850317251"><ele>157.79</ele><time>2026-08-16T09:06:15Z</time></trkpt><trkpt lat="59.2992234696" lon="34.6850041486"><ele>157.79</ele><time>2026-08-16T09:06:17Z</time></trkpt><trkpt lat="59.2991590127" lon="34.6849531028"><ele>157.79</ele><time>2026-08-16T09:06:25Z</time></trkpt><trkpt lat="59.2990201246" lon="34.6848597284"><ele>157.79</ele><time>2026-08-16T09:06:40Z</time></trkpt><trkpt lat="59.2989678215" lon="34.6847885661"><ele>157.79</ele><time>2026-08-16T09:06:50Z</time></trkpt><trkpt lat="59.2988974135" lon="34.6846880671"><ele>157.79</ele><time>2026-08-16T09:07:01Z</time></trkpt><trkpt lat="59.2988706753" lon="34.6846500132"><ele>157.79</ele><time>2026-08-16T09:07:16Z</time></trkpt><trkpt lat="59.2988712620" lon="34.6846507676"><ele>157.79</ele><time>2026-08-16T09:07:31Z</time></trkpt><trkpt lat="59.2988643888" lon="34.6846365184"><ele>157.79</ele><time>2026-08-16T09:07:50Z</time></trkpt><trkpt lat="59.2988679931" lon="34.6846455708"><ele>157.79</ele><time>2026-08-16T09:08:13Z</time></trkpt><trkpt lat="59.2988689151" lon="34.6846442297"><ele>157.79</ele><time>2026-08-16T09:08:39Z</time></trkpt><trkpt lat="59.2988680769" lon="34.6846524440"><ele>157.79</ele><time>2026-08-16T09:08:56Z</time></trkpt><trkpt lat="59.2988679931" lon="34.6846529469"><ele>157.79</ele><time>2026-08-16T09:09:30Z</time></trkpt><trkpt lat="59.2988736089" lon="34.6846455708"><ele>157.79</ele><time>2026-08-16T09:09:54Z</time></trkpt><trkpt lat="59.2988731060" lon="34.6845669486"><ele>157.79</ele><time>2026-08-16T09:10:01Z</time></trkpt><trkpt lat="59.2988706753" lon="34.6845419705"><ele>157.79</ele><time>2026-08-16T09:10:16Z</time></trkpt><trkpt lat="59.2988732737" lon="34.6845294815"><ele>157.79</ele><time>2026-08-16T09:10:34Z</time></trkpt><trkpt lat="59.2988788895" lon="34.6845315769"><ele>157.79</ele><time>2026-08-16T09:10:56Z</time></trkpt><trkpt lat="59.2988800630" lon="34.6845270507"><ele>157.79</ele><time>2026-08-16T09:11:09Z</time></trkpt><trkpt lat="59.2988734413" lon="34.6845203452"><ele>157.79</ele><time>2026-08-16T09:11:31Z</time></trkpt><trkpt lat="59.2988715135" lon="34.6845307387"><ele>157.79</ele><time>2026-08-16T09:11:52Z</time></trkpt><trkpt lat="59.2988695018" lon="34.6845440660"><ele>157.79</ele><time>2026-08-16T09:12:22Z</time></trkpt><trkpt lat="59.2988679092" lon="34.6845498495"><ele>157.79</ele><time>2026-08-16T09:12:52Z</time></trkpt><trkpt lat="59.2988671549" lon="34.6845638473"><ele>157.79</ele><time>2026-08-16T09:13:20Z</time></trkpt><trkpt lat="59.2988519836" lon="34.6845749952"><ele>157.79</ele><time>2026-08-16T09:13:50Z</time></trkpt><trkpt lat="59.2988484632" lon="34.6846011467"><ele>158.27</ele><time>2026-08-16T09:14:22Z</time></trkpt><trkpt lat="59.2988534085" lon="34.6845943574"><ele>158.27</ele><time>2026-08-16T09:14:40Z</time></trkpt><trkpt lat="59.2988524027" lon="34.6845847182"><ele>158.27</ele><time>2026-08-16T09:14:58Z</time></trkpt><trkpt lat="59.2988507263" lon="34.6845824551"><ele>158.27</ele><time>2026-08-16T09:15:23Z</time></trkpt><trkpt lat="59.2988550849" lon="34.6845646016"><ele>158.27</ele><time>2026-08-16T09:15:45Z</time></trkpt><trkpt lat="59.2988763750" lon="34.6845320798"><ele>158.27</ele><time>2026-08-16T09:16:23Z</time></trkpt><trkpt lat="59.2988762073" lon="34.6845215186"><ele>158.27</ele><time>2026-08-16T09:16:58Z</time></trkpt><trkpt lat="59.2988831643" lon="34.6845189203"><ele>158.27</ele><time>2026-08-16T09:17:32Z</time></trkpt><trkpt lat="59.2988787219" lon="34.6845146455"><ele>158.27</ele><time>2026-08-16T09:18:12Z</time></trkpt><trkpt lat="59.2988716811" lon="34.6845231112"><ele>158.27</ele><time>2026-08-16T09:18:46Z</time></trkpt><trkpt lat="59.2988774646" lon="34.6845210157"><ele>158.27</ele><time>2026-08-16T09:19:21Z</time></trkpt><trkpt lat="59.2988891993" lon="34.6845180821"><ele>158.27</ele><time>2026-08-16T09:19:51Z</time></trkpt><trkpt lat="59.2988710944" lon="34.6845717262"><ele>158.27</ele><time>2026-08-16T09:20:00Z</time></trkpt><trkpt lat="59.2988415901" lon="34.6846520249"><ele>158.27</ele><time>2026-08-16T09:20:13Z</time></trkpt><trkpt lat="59.2988286819" lon="34.6846734826"><ele>158.27</ele><time>2026-08-16T09:20:18Z</time></trkpt><trkpt lat="59.2987180408" lon="34.6847878117"><ele>158.27</ele><time>2026-08-16T09:20:31Z</time></trkpt><trkpt lat="59.2986680008" lon="34.6848753188"><ele>158.27</ele><time>2026-08-16T09:20:42Z</time></trkpt><trkpt lat="59.2985952459" lon="34.6850147936"><ele>158.27</ele><time>2026-08-16T09:20:54Z</time></trkpt><trkpt lat="59.2985656578" lon="34.6851223335"><ele>158.27</ele><time>2026-08-16T09:21:06Z</time></trkpt><trkpt lat="59.2984860297" lon="34.6852194797"><ele>158.27</ele><time>2026-08-16T09:21:17Z</time></trkpt><trkpt lat="59.2984362412" lon="34.6852747165"><ele>158.27</ele><time>2026-08-16T09:21:26Z</time></trkpt><trkpt lat="59.2983587086" lon="34.6853261814"><ele>158.27</ele><time>2026-08-16T09:21:37Z</time></trkpt><trkpt lat="59.2982797511" lon="34.6853965893"><ele>159.24</ele><time>2026-08-16T09:21:48Z</time></trkpt><trkpt lat="59.2982419487" lon="34.6854545083"><ele>159.24</ele><time>2026-08-16T09:21:54Z</time></trkpt><trkpt lat="59.2982037272" lon="34.6855203900"><ele>159.24</ele><time>2026-08-16T09:22:02Z</time></trkpt><trkpt lat="59.2981340736" lon="34.6856690012"><ele>159.24</ele><time>2026-08-16T09:22:15Z</time></trkpt><trkpt lat="59.2980912421" lon="34.6856714319"><ele>159.24</ele><time>2026-08-16T09:22:35Z</time></trkpt><trkpt lat="59.2980779987" lon="34.6856601164"><ele>159.24</ele><time>2026-08-16T09:23:01Z</time></trkpt><trkpt lat="59.2980588041" lon="34.6856999304"><ele>159.24</ele><time>2026-08-16T09:23:25Z</time></trkpt><trkpt lat="59.2979620770" lon="34.6857225616"><ele>159.24</ele><time>2026-08-16T09:23:36Z</time></trkpt><trkpt lat="59.2978825327" lon="34.6857083961"><ele>159.24</ele><time>2026-08-16T09:23:47Z</time></trkpt><trkpt lat="59.2978632543" lon="34.6856939793"><ele>159.24</ele><time>2026-08-16T09:23:50Z</time></trkpt><trkpt lat="59.2977828719" lon="34.6856533270"><ele>159.24</ele><time>2026-08-16T09:24:04Z</time></trkpt><trkpt lat="59.2977482546" lon="34.6856964100"><ele>159.24</ele><time>2026-08-16T09:24:16Z</time></trkpt><trkpt lat="59.2977197561" lon="34.6857338771"><ele>159.24</ele><time>2026-08-16T09:24:27Z</time></trkpt><trkpt lat="59.2976431455" lon="34.6858707536"><ele>158.27</ele><time>2026-08-16T09:24:38Z</time></trkpt><trkpt lat="59.2975918483" lon="34.6860071272"><ele>157.79</ele><time>2026-08-16T09:24:49Z</time></trkpt><trkpt lat="59.2975797784" lon="34.6860597655"><ele>157.79</ele><time>2026-08-16T09:24:54Z</time></trkpt><trkpt lat="59.2975431494" lon="34.6861784533"><ele>157.31</ele><time>2026-08-16T09:25:04Z</time></trkpt><trkpt lat="59.2975408025" lon="34.6862531360"><ele>157.31</ele><time>2026-08-16T09:25:09Z</time></trkpt><trkpt lat="59.2974919360" lon="34.6864249650"><ele>156.83</ele><time>2026-08-16T09:25:21Z</time></trkpt><trkpt lat="59.2974315025" lon="34.6864993125"><ele>156.35</ele><time>2026-08-16T09:25:32Z</time></trkpt><trkpt lat="59.2973911017" lon="34.6865926869"><ele>156.35</ele><time>2026-08-16T09:25:41Z</time></trkpt><trkpt lat="59.2973668780" lon="34.6866394579"><ele>156.35</ele><time>2026-08-16T09:25:53Z</time></trkpt><trkpt lat="59.2972820532" lon="34.6867439803"><ele>156.35</ele><time>2026-08-16T09:26:03Z</time></trkpt><trkpt lat="59.2971718311" lon="34.6868701279"><ele>156.35</ele><time>2026-08-16T09:26:16Z</time></trkpt><trkpt lat="59.2971012555" lon="34.6869208384"><ele>156.35</ele><time>2026-08-16T09:26:29Z</time></trkpt><trkpt lat="59.2970922031" lon="34.6869381890"><ele>156.35</ele><time>2026-08-16T09:26:49Z</time></trkpt><trkpt lat="59.2970779538" lon="34.6869354229"><ele>156.83</ele><time>2026-08-16T09:27:04Z</time></trkpt><trkpt lat="59.2970558256" lon="34.6869514324"><ele>156.83</ele><time>2026-08-16T09:27:25Z</time></trkpt><trkpt lat="59.2970365472" lon="34.6869524382"><ele>156.83</ele><time>2026-08-16T09:27:33Z</time></trkpt><trkpt lat="59.2969947215" lon="34.6870614868"><ele>156.83</ele><time>2026-08-16T09:27:44Z</time></trkpt><trkpt lat="59.2969862558" lon="34.6870886441"><ele>156.83</ele><time>2026-08-16T09:27:47Z</time></trkpt><trkpt lat="59.2969255708" lon="34.6872955095"><ele>156.35</ele><time>2026-08-16T09:27:59Z</time></trkpt><trkpt lat="59.2968911212" lon="34.6874487307"><ele>155.87</ele><time>2026-08-16T09:28:09Z</time></trkpt><trkpt lat="59.2968420871" lon="34.6875639819"><ele>155.87</ele><time>2026-08-16T09:28:20Z</time></trkpt><trkpt lat="59.2967709247" lon="34.6877212264"><ele>155.87</ele><time>2026-08-16T09:28:31Z</time></trkpt><trkpt lat="59.2966706771" lon="34.6879166923"><ele>155.87</ele><time>2026-08-16T09:28:43Z</time></trkpt><trkpt lat="59.2966071423" lon="34.6879999246"><ele>155.87</ele><time>2026-08-16T09:28:53Z</time></trkpt><trkpt lat="59.2965225689" lon="34.6880920418"><ele>155.87</ele><time>2026-08-16T09:29:04Z</time></trkpt><trkpt lat="59.2964793183" lon="34.6881349571"><ele>155.87</ele><time>2026-08-16T09:29:09Z</time></trkpt><trkpt lat="59.2963996064" lon="34.6882279962"><ele>155.87</ele><time>2026-08-16T09:29:20Z</time></trkpt><trkpt lat="59.2962995265" lon="34.6882849094"><ele>156.35</ele><time>2026-08-16T09:29:33Z</time></trkpt><trkpt lat="59.2962622270" lon="34.6882763598"><ele>156.35</ele><time>2026-08-16T09:29:43Z</time></trkpt><trkpt lat="59.2962416913" lon="34.6882844064"><ele>156.35</ele><time>2026-08-16T09:29:50Z</time></trkpt><trkpt lat="59.2962050624" lon="34.6882656310"><ele>156.35</ele><time>2026-08-16T09:29:57Z</time></trkpt><trkpt lat="59.2961255182" lon="34.6882961411"><ele>155.87</ele><time>2026-08-16T09:30:09Z</time></trkpt><trkpt lat="59.2960674316" lon="34.6882620268"><ele>154.91</ele><time>2026-08-16T09:30:21Z</time></trkpt><trkpt lat="59.2960312217" lon="34.6882666368"><ele>154.91</ele><time>2026-08-16T09:30:30Z</time></trkpt><trkpt lat="59.2959831934" lon="34.6883827262"><ele>154.91</ele><time>2026-08-16T09:30:42Z</time></trkpt><trkpt lat="59.2959557846" lon="34.6884678863"><ele>154.91</ele><time>2026-08-16T09:30:57Z</time></trkpt><trkpt lat="59.2959380988" lon="34.6884954628"><ele>154.91</ele><time>2026-08-16T09:31:20Z</time></trkpt><trkpt lat="59.2959323991" lon="34.6885134839"><ele>154.91</ele><time>2026-08-16T09:31:43Z</time></trkpt><trkpt lat="59.2959312256" lon="34.6885206085"><ele>158.27</ele><time>2026-08-16T09:31:50Z</time></trkpt><trkpt lat="59.2959306389" lon="34.6885238774"><ele>159.24</ele><time>2026-08-16T09:31:53Z</time></trkpt><trkpt lat="59.2959365901" lon="34.6885450836"><ele>155.87</ele><time>2026-08-16T09:31:58Z</time></trkpt><trkpt lat="59.2959336564" lon="34.6885584947"><ele>152.51</ele><time>2026-08-16T09:32:04Z</time></trkpt><trkpt lat="59.2959318962" lon="34.6885638591"><ele>155.39</ele><time>2026-08-16T09:32:09Z</time></trkpt><trkpt lat="59.2958755698" lon="34.6886822954"><ele>156.83</ele><time>2026-08-16T09:32:21Z</time></trkpt><trkpt lat="59.2958126217" lon="34.6887882426"><ele>155.87</ele><time>2026-08-16T09:32:32Z</time></trkpt><trkpt lat="59.2957536131" lon="34.6889129654"><ele>155.87</ele><time>2026-08-16T09:32:42Z</time></trkpt><trkpt lat="59.2957241926" lon="34.6890044957"><ele>155.87</ele><time>2026-08-16T09:32:54Z</time></trkpt><trkpt lat="59.2956578918" lon="34.6891212557"><ele>155.87</ele><time>2026-08-16T09:33:07Z</time></trkpt><trkpt lat="59.2956295609" lon="34.6892207488"><ele>155.87</ele><time>2026-08-16T09:33:18Z</time></trkpt><trkpt lat="59.2955612484" lon="34.6893836930"><ele>155.87</ele><time>2026-08-16T09:33:29Z</time></trkpt><trkpt lat="59.2955140583" lon="34.6895522531"><ele>155.87</ele><time>2026-08-16T09:33:42Z</time></trkpt><trkpt lat="59.2954774294" lon="34.6895995270"><ele>155.87</ele><time>2026-08-16T09:33:51Z</time></trkpt><trkpt lat="59.2953797802" lon="34.6897228248"><ele>155.87</ele><time>2026-08-16T09:34:02Z</time></trkpt><trkpt lat="59.2953134794" lon="34.6898784768"><ele>155.87</ele><time>2026-08-16T09:34:16Z</time></trkpt><trkpt lat="59.2953051813" lon="34.6898768842"><ele>156.35</ele><time>2026-08-16T09:34:41Z</time></trkpt><trkpt lat="59.2952873278" lon="34.6898990124"><ele>156.35</ele><time>2026-08-16T09:35:07Z</time></trkpt><trkpt lat="59.2952833045" lon="34.6898793988"><ele>156.35</ele><time>2026-08-16T09:35:23Z</time></trkpt><trkpt lat="59.2952541355" lon="34.6897850186"><ele>156.35</ele><time>2026-08-16T09:35:37Z</time></trkpt><trkpt lat="59.2952335998" lon="34.6897351462"><ele>156.35</ele><time>2026-08-16T09:35:41Z</time></trkpt><trkpt lat="59.2951253895" lon="34.6894613933"><ele>156.35</ele><time>2026-08-16T09:35:54Z</time></trkpt><trkpt lat="59.2950688954" lon="34.6894442942"><ele>155.39</ele><time>2026-08-16T09:35:59Z</time></trkpt><trkpt lat="59.2949686479" lon="34.6894165501"><ele>155.39</ele><time>2026-08-16T09:36:12Z</time></trkpt><trkpt lat="59.2949535605" lon="34.6893132851"><ele>155.39</ele><time>2026-08-16T09:36:26Z</time></trkpt><trkpt lat="59.2949172668" lon="34.6891750675"><ele>155.39</ele><time>2026-08-16T09:36:37Z</time></trkpt><trkpt lat="59.2948492058" lon="34.6891478263"><ele>155.39</ele><time>2026-08-16T09:36:48Z</time></trkpt><trkpt lat="59.2947414145" lon="34.6891192440"><ele>155.39</ele><time>2026-08-16T09:37:01Z</time></trkpt><trkpt lat="59.2946557514" lon="34.6890174877"><ele>155.39</ele><time>2026-08-16T09:37:12Z</time></trkpt><trkpt lat="59.2945736088" lon="34.6888895798"><ele>156.35</ele><time>2026-08-16T09:37:24Z</time></trkpt><trkpt lat="59.2945600301" lon="34.6887615882"><ele>156.83</ele><time>2026-08-16T09:37:40Z</time></trkpt><trkpt lat="59.2944922205" lon="34.6886426490"><ele>157.31</ele><time>2026-08-16T09:37:52Z</time></trkpt><trkpt lat="59.2944612913" lon="34.6885229554"><ele>157.31</ele><time>2026-08-16T09:38:05Z</time></trkpt><trkpt lat="59.2944628000" lon="34.6884535532"><ele>157.31</ele><time>2026-08-16T09:38:30Z</time></trkpt><trkpt lat="59.2944603693" lon="34.6884155832"><ele>157.79</ele><time>2026-08-16T09:38:48Z</time></trkpt><trkpt lat="59.2944481317" lon="34.6883988194"><ele>157.79</ele><time>2026-08-16T09:39:08Z</time></trkpt><trkpt lat="59.2944292724" lon="34.6883172635"><ele>157.79</ele><time>2026-08-16T09:39:19Z</time></trkpt><trkpt lat="59.2944063060" lon="34.6882266551"><ele>157.79</ele><time>2026-08-16T09:39:31Z</time></trkpt><trkpt lat="59.2943444476" lon="34.6881286707"><ele>157.79</ele><time>2026-08-16T09:39:43Z</time></trkpt><trkpt lat="59.2942878697" lon="34.6880036127"><ele>157.79</ele><time>2026-08-16T09:39:54Z</time></trkpt><trkpt lat="59.2942530010" lon="34.6878563426"><ele>157.79</ele><time>2026-08-16T09:40:06Z</time></trkpt><trkpt lat="59.2942068167" lon="34.6876524109"><ele>157.79</ele><time>2026-08-16T09:40:18Z</time></trkpt><trkpt lat="59.2942136899" lon="34.6874945797"><ele>157.79</ele><time>2026-08-16T09:40:30Z</time></trkpt><trkpt lat="59.2941997759" lon="34.6873072442"><ele>157.79</ele><time>2026-08-16T09:40:44Z</time></trkpt><trkpt lat="59.2942156177" lon="34.6870961040"><ele>157.79</ele><time>2026-08-16T09:40:59Z</time></trkpt><trkpt lat="59.2941942438" lon="34.6869554557"><ele>157.79</ele><time>2026-08-16T09:41:10Z</time></trkpt><trkpt lat="59.2941534240" lon="34.6869277116"><ele>156.83</ele><time>2026-08-16T09:41:22Z</time></trkpt><trkpt lat="59.2941582017" lon="34.6869114507"><ele>156.35</ele><time>2026-08-16T09:41:42Z</time></trkpt><trkpt lat="59.2941452935" lon="34.6869129594"><ele>156.35</ele><time>2026-08-16T09:42:09Z</time></trkpt><trkpt lat="59.2941490654" lon="34.6868951060"><ele>156.35</ele><time>2026-08-16T09:42:32Z</time></trkpt><trkpt lat="59.2941400129" lon="34.6868312359"><ele>156.35</ele><time>2026-08-16T09:42:46Z</time></trkpt><trkpt lat="59.2941077426" lon="34.6867641807"><ele>156.35</ele><time>2026-08-16T09:42:56Z</time></trkpt><trkpt lat="59.2941136938" lon="34.6866086125"><ele>156.35</ele><time>2026-08-16T09:43:09Z</time></trkpt><trkpt lat="59.2941408511" lon="34.6864897572"><ele>156.35</ele><time>2026-08-16T09:43:21Z</time></trkpt><trkpt lat="59.2941762228" lon="34.6863251366"><ele>156.35</ele><time>2026-08-16T09:43:33Z</time></trkpt><trkpt lat="59.2942047212" lon="34.6862712409"><ele>156.35</ele><time>2026-08-16T09:43:45Z</time></trkpt><trkpt lat="59.2942115944" lon="34.6861723345"><ele>156.35</ele><time>2026-08-16T09:43:56Z</time></trkpt><trkpt lat="59.2941852752" lon="34.6859569196"><ele>156.35</ele><time>2026-08-16T09:44:09Z</time></trkpt><trkpt lat="59.2942153662" lon="34.6857625432"><ele>155.87</ele><time>2026-08-16T09:44:20Z</time></trkpt><trkpt lat="59.2942431103" lon="34.6857019421"><ele>155.87</ele><time>2026-08-16T09:44:32Z</time></trkpt><trkpt lat="59.2943033762" lon="34.6855881158"><ele>155.39</ele><time>2026-08-16T09:44:44Z</time></trkpt><trkpt lat="59.2943638936" lon="34.6854610462"><ele>154.91</ele><time>2026-08-16T09:44:57Z</time></trkpt><trkpt lat="59.2944167834" lon="34.6852882113"><ele>154.91</ele><time>2026-08-16T09:45:08Z</time></trkpt><trkpt lat="59.2944508977" lon="34.6852468885"><ele>154.91</ele><time>2026-08-16T09:45:20Z</time></trkpt><trkpt lat="59.2944684159" lon="34.6851764806"><ele>154.43</ele><time>2026-08-16T09:45:33Z</time></trkpt><trkpt lat="59.2945042904" lon="34.6851480659"><ele>153.95</ele><time>2026-08-16T09:45:47Z</time></trkpt><trkpt lat="59.2945498880" lon="34.6851023007"><ele>153.95</ele><time>2026-08-16T09:45:58Z</time></trkpt><trkpt lat="59.2945554201" lon="34.6851002891"><ele>153.95</ele><time>2026-08-16T09:45:59Z</time></trkpt><trkpt lat="59.2946259119" lon="34.6850468125"><ele>153.95</ele><time>2026-08-16T09:46:11Z</time></trkpt><trkpt lat="59.2946872674" lon="34.6849548630"><ele>153.95</ele><time>2026-08-16T09:46:21Z</time></trkpt><trkpt lat="59.2947639618" lon="34.6848590579"><ele>154.91</ele><time>2026-08-16T09:46:34Z</time></trkpt><trkpt lat="59.2948119063" lon="34.6847971994"><ele>154.91</ele><time>2026-08-16T09:46:50Z</time></trkpt><trkpt lat="59.2948310170" lon="34.6848024800"><ele>154.43</ele><time>2026-08-16T09:47:14Z</time></trkpt><trkpt lat="59.2948627844" lon="34.6847576369"><ele>154.43</ele><time>2026-08-16T09:47:32Z</time></trkpt><trkpt lat="59.2948758602" lon="34.6846784279"><ele>154.91</ele><time>2026-08-16T09:47:44Z</time></trkpt><trkpt lat="59.2949488666" lon="34.6845146455"><ele>154.91</ele><time>2026-08-16T09:47:55Z</time></trkpt><trkpt lat="59.2949940450" lon="34.6844202653"><ele>154.91</ele><time>2026-08-16T09:48:06Z</time></trkpt><trkpt lat="59.2950779479" lon="34.6842258051"><ele>154.91</ele><time>2026-08-16T09:48:17Z</time></trkpt><trkpt lat="59.2950974777" lon="34.6841100510"><ele>155.39</ele><time>2026-08-16T09:48:29Z</time></trkpt><trkpt lat="59.2951246351" lon="34.6840883419"><ele>154.91</ele><time>2026-08-16T09:48:41Z</time></trkpt><trkpt lat="59.2951751780" lon="34.6841018368"><ele>156.35</ele><time>2026-08-16T09:48:52Z</time></trkpt><trkpt lat="59.2952144053" lon="34.6840669680"><ele>156.35</ele><time>2026-08-16T09:49:05Z</time></trkpt><trkpt lat="59.2952698935" lon="34.6839849930"><ele>156.35</ele><time>2026-08-16T09:49:18Z</time></trkpt><trkpt lat="59.2953502759" lon="34.6839021798"><ele>156.83</ele><time>2026-08-16T09:49:34Z</time></trkpt><trkpt lat="59.2954429798" lon="34.6838020999"><ele>156.35</ele><time>2026-08-16T09:49:47Z</time></trkpt><trkpt lat="59.2954625934" lon="34.6838162653"><ele>156.35</ele><time>2026-08-16T09:50:11Z</time></trkpt><trkpt lat="59.2954721488" lon="34.6838528942"><ele>156.35</ele><time>2026-08-16T09:50:35Z</time></trkpt><trkpt lat="59.2954781838" lon="34.6838595159"><ele>155.87</ele><time>2026-08-16T09:51:10Z</time></trkpt><trkpt lat="59.2954843864" lon="34.6838134155"><ele>155.87</ele><time>2026-08-16T09:51:27Z</time></trkpt><trkpt lat="59.2954915948" lon="34.6837885212"><ele>155.87</ele><time>2026-08-16T09:51:50Z</time></trkpt><trkpt lat="59.2955253739" lon="34.6837770380"><ele>155.87</ele><time>2026-08-16T09:52:00Z</time></trkpt><trkpt lat="59.2956192512" lon="34.6836402453"><ele>155.87</ele><time>2026-08-16T09:52:13Z</time></trkpt><trkpt lat="59.2956619151" lon="34.6836091485"><ele>155.87</ele><time>2026-08-16T09:52:25Z</time></trkpt><trkpt lat="59.2957523558" lon="34.6835846733"><ele>155.87</ele><time>2026-08-16T09:52:38Z</time></trkpt><trkpt lat="59.2957922537" lon="34.6835227311"><ele>155.39</ele><time>2026-08-16T09:52:50Z</time></trkpt><trkpt lat="59.2959432118" lon="34.6834098268"><ele>155.39</ele><time>2026-08-16T09:53:03Z</time></trkpt><trkpt lat="59.2960845307" lon="34.6832474694"><ele>155.39</ele><time>2026-08-16T09:53:14Z</time></trkpt><trkpt lat="59.2961956747" lon="34.6830758918"><ele>155.39</ele><time>2026-08-16T09:53:28Z</time></trkpt><trkpt lat="59.2962867022" lon="34.6830862854"><ele>155.39</ele><time>2026-08-16T09:53:42Z</time></trkpt><trkpt lat="59.2963334732" lon="34.6831386723"><ele>155.39</ele><time>2026-08-16T09:53:54Z</time></trkpt><trkpt lat="59.2963582836" lon="34.6831467189"><ele>155.39</ele><time>2026-08-16T09:54:17Z</time></trkpt><trkpt lat="59.2963702697" lon="34.6831301227"><ele>155.39</ele><time>2026-08-16T09:54:39Z</time></trkpt><trkpt lat="59.2963615526" lon="34.6830976009"><ele>155.39</ele><time>2026-08-16T09:55:03Z</time></trkpt><trkpt lat="59.2964040488" lon="34.6830731258"><ele>155.39</ele><time>2026-08-16T09:55:14Z</time></trkpt><trkpt lat="59.2964597885" lon="34.6830274444"><ele>155.39</ele><time>2026-08-16T09:55:29Z</time></trkpt><trkpt lat="59.2965398356" lon="34.6830059867"><ele>155.39</ele><time>2026-08-16T09:55:43Z</time></trkpt><trkpt lat="59.2966011073" lon="34.6828694455"><ele>155.39</ele><time>2026-08-16T09:55:57Z</time></trkpt><trkpt lat="59.2966213915" lon="34.6826678608"><ele>155.39</ele><time>2026-08-16T09:56:10Z</time></trkpt><trkpt lat="59.2966462020" lon="34.6825277153"><ele>155.39</ele><time>2026-08-16T09:56:23Z</time></trkpt><trkpt lat="59.2966552544" lon="34.6824349277"><ele>155.39</ele><time>2026-08-16T09:56:37Z</time></trkpt><trkpt lat="59.2966926377" lon="34.6823146474"><ele>155.87</ele><time>2026-08-16T09:56:52Z</time></trkpt><trkpt lat="59.2967134248" lon="34.6821353585"><ele>155.87</ele><time>2026-08-16T09:57:04Z</time></trkpt><trkpt lat="59.2967584357" lon="34.6820753440"><ele>155.87</ele><time>2026-08-16T09:57:16Z</time></trkpt><trkpt lat="59.2967598606" lon="34.6820301656"><ele>155.87</ele><time>2026-08-16T09:57:24Z</time></trkpt><trkpt lat="59.2968078889" lon="34.6819804609"><ele>155.87</ele><time>2026-08-16T09:57:37Z</time></trkpt><trkpt lat="59.2968323641" lon="34.6819249727"><ele>155.87</ele><time>2026-08-16T09:57:49Z</time></trkpt><trkpt lat="59.2968482058" lon="34.6818839014"><ele>155.87</ele><time>2026-08-16T09:58:02Z</time></trkpt><trkpt lat="59.2968674004" lon="34.6819303371"><ele>155.39</ele><time>2026-08-16T09:58:15Z</time></trkpt><trkpt lat="59.2969282530" lon="34.6819004137"><ele>155.39</ele><time>2026-08-16T09:58:29Z</time></trkpt><trkpt lat="59.2970455159" lon="34.6817959752"><ele>155.39</ele><time>2026-08-16T09:58:41Z</time></trkpt><trkpt lat="59.2971327715" lon="34.6818223782"><ele>155.39</ele><time>2026-08-16T09:58:52Z</time></trkpt><trkpt lat="59.2971957196" lon="34.6818431653"><ele>155.39</ele><time>2026-08-16T09:59:03Z</time></trkpt><trkpt lat="59.2972476035" lon="34.6818689816"><ele>155.39</ele><time>2026-08-16T09:59:14Z</time></trkpt><trkpt lat="59.2972916923" lon="34.6819212846"><ele>155.39</ele><time>2026-08-16T09:59:28Z</time></trkpt><trkpt lat="59.2973025050" lon="34.6819133218"><ele>154.91</ele><time>2026-08-16T09:59:49Z</time></trkpt><trkpt lat="59.2973122280" lon="34.6819326002"><ele>154.91</ele><time>2026-08-16T10:00:10Z</time></trkpt><trkpt lat="59.2973277345" lon="34.6819346119"><ele>154.91</ele><time>2026-08-16T10:00:25Z</time></trkpt><trkpt lat="59.2973398883" lon="34.6819150820"><ele>154.91</ele><time>2026-08-16T10:00:49Z</time></trkpt><trkpt lat="59.2973403074" lon="34.6819177642"><ele>155.39</ele><time>2026-08-16T10:01:12Z</time></trkpt><trkpt lat="59.2973483540" lon="34.6819190215"><ele>155.39</ele><time>2026-08-16T10:01:39Z</time></trkpt><trkpt lat="59.2973526288" lon="34.6819203626"><ele>154.43</ele><time>2026-08-16T10:02:02Z</time></trkpt><trkpt lat="59.2973538861" lon="34.6819180995"><ele>154.43</ele><time>2026-08-16T10:02:27Z</time></trkpt><trkpt lat="59.2973502818" lon="34.6819347795"><ele>154.43</ele><time>2026-08-16T10:02:47Z</time></trkpt><trkpt lat="59.2973621842" lon="34.6819443349"><ele>154.43</ele><time>2026-08-16T10:03:12Z</time></trkpt><trkpt lat="59.2973717395" lon="34.6819450054"><ele>154.91</ele><time>2026-08-16T10:03:31Z</time></trkpt><trkpt lat="59.2974004894" lon="34.6818119846"><ele>154.91</ele><time>2026-08-16T10:03:49Z</time></trkpt><trkpt lat="59.2973493598" lon="34.6816487052"><ele>154.91</ele><time>2026-08-16T10:04:00Z</time></trkpt><trkpt lat="59.2973342724" lon="34.6814890299"><ele>154.91</ele><time>2026-08-16T10:04:12Z</time></trkpt><trkpt lat="59.2973352782" lon="34.6813725214"><ele>154.91</ele><time>2026-08-16T10:04:26Z</time></trkpt><trkpt lat="59.2973564006" lon="34.6813156083"><ele>154.91</ele><time>2026-08-16T10:04:36Z</time></trkpt><trkpt lat="59.2973766848" lon="34.6812455356"><ele>154.91</ele><time>2026-08-16T10:04:50Z</time></trkpt><trkpt lat="59.2973780259" lon="34.6811876167"><ele>154.91</ele><time>2026-08-16T10:05:02Z</time></trkpt><trkpt lat="59.2974110506" lon="34.6810864471"><ele>154.91</ele><time>2026-08-16T10:05:16Z</time></trkpt><trkpt lat="59.2974147387" lon="34.6809769794"><ele>154.91</ele><time>2026-08-16T10:05:28Z</time></trkpt><trkpt lat="59.2974196002" lon="34.6809002012"><ele>155.39</ele><time>2026-08-16T10:05:40Z</time></trkpt><trkpt lat="59.2974069435" lon="34.6808640752"><ele>155.39</ele><time>2026-08-16T10:05:52Z</time></trkpt><trkpt lat="59.2973707337" lon="34.6807611454"><ele>155.39</ele><time>2026-08-16T10:06:05Z</time></trkpt><trkpt lat="59.2973219510" lon="34.6806415357"><ele>155.39</ele><time>2026-08-16T10:06:17Z</time></trkpt><trkpt lat="59.2972776107" lon="34.6805569623"><ele>155.39</ele><time>2026-08-16T10:06:33Z</time></trkpt><trkpt lat="59.2972489446" lon="34.6805552021"><ele>155.39</ele><time>2026-08-16T10:06:45Z</time></trkpt><trkpt lat="59.2971969768" lon="34.6805464011"><ele>155.39</ele><time>2026-08-16T10:06:56Z</time></trkpt><trkpt lat="59.2971778661" lon="34.6805225126"><ele>155.39</ele><time>2026-08-16T10:07:09Z</time></trkpt><trkpt lat="59.2970993277" lon="34.6805302240"><ele>155.39</ele><time>2026-08-16T10:07:23Z</time></trkpt><trkpt lat="59.2970164306" lon="34.6805715468"><ele>155.39</ele><time>2026-08-16T10:07:31Z</time></trkpt><trkpt lat="59.2969166860" lon="34.6807075012"><ele>155.39</ele><time>2026-08-16T10:07:43Z</time></trkpt><trkpt lat="59.2968369741" lon="34.6807905659"><ele>155.39</ele><time>2026-08-16T10:07:55Z</time></trkpt><trkpt lat="59.2967777140" lon="34.6808235068"><ele>155.39</ele><time>2026-08-16T10:08:08Z</time></trkpt><trkpt lat="59.2967438512" lon="34.6807984449"><ele>155.39</ele><time>2026-08-16T10:08:20Z</time></trkpt><trkpt lat="59.2967036180" lon="34.6807874646"><ele>155.39</ele><time>2026-08-16T10:08:41Z</time></trkpt><trkpt lat="59.2966902908" lon="34.6807758976"><ele>155.39</ele><time>2026-08-16T10:09:00Z</time></trkpt><trkpt lat="59.2966938112" lon="34.6807739697"><ele>155.39</ele><time>2026-08-16T10:09:20Z</time></trkpt><trkpt lat="59.2966692522" lon="34.6807339881"><ele>155.39</ele><time>2026-08-16T10:09:30Z</time></trkpt><trkpt lat="59.2966312822" lon="34.6807054058"><ele>155.39</ele><time>2026-08-16T10:09:43Z</time></trkpt><trkpt lat="59.2965696752" lon="34.6806702018"><ele>155.87</ele><time>2026-08-16T10:09:53Z</time></trkpt><trkpt lat="59.2965139356" lon="34.6806439664"><ele>155.87</ele><time>2026-08-16T10:10:06Z</time></trkpt><trkpt lat="59.2964048870" lon="34.6805051621"><ele>156.83</ele><time>2026-08-16T10:10:21Z</time></trkpt><trkpt lat="59.2963331379" lon="34.6804548707"><ele>156.83</ele><time>2026-08-16T10:10:33Z</time></trkpt><trkpt lat="59.2962820921" lon="34.6804595646"><ele>156.83</ele><time>2026-08-16T10:10:43Z</time></trkpt><trkpt lat="59.2962311301" lon="34.6804309823"><ele>156.83</ele><time>2026-08-16T10:10:53Z</time></trkpt><trkpt lat="59.2961790785" lon="34.6803451516"><ele>156.83</ele><time>2026-08-16T10:11:04Z</time></trkpt><trkpt lat="59.2961450480" lon="34.6802617516"><ele>156.83</ele><time>2026-08-16T10:11:16Z</time></trkpt><trkpt lat="59.2961434554" lon="34.6801292337"><ele>156.83</ele><time>2026-08-16T10:11:27Z</time></trkpt><trkpt lat="59.2961370014" lon="34.6800139826"><ele>155.87</ele><time>2026-08-16T10:11:37Z</time></trkpt><trkpt lat="59.2961382587" lon="34.6799955424"><ele>155.87</ele><time>2026-08-16T10:11:38Z</time></trkpt><trkpt lat="59.2961460538" lon="34.6798817161"><ele>155.87</ele><time>2026-08-16T10:11:45Z</time></trkpt><trkpt lat="59.2961409409" lon="34.6796250623"><ele>155.87</ele><time>2026-08-16T10:11:57Z</time></trkpt><trkpt lat="59.2961330619" lon="34.6794645488"><ele>155.87</ele><time>2026-08-16T10:12:10Z</time></trkpt><trkpt lat="59.2960925773" lon="34.6794030257"><ele>155.87</ele><time>2026-08-16T10:12:25Z</time></trkpt><trkpt lat="59.2960765678" lon="34.6793829929"><ele>155.87</ele><time>2026-08-16T10:12:41Z</time></trkpt><trkpt lat="59.2960722931" lon="34.6793752816"><ele>155.87</ele><time>2026-08-16T10:12:58Z</time></trkpt><trkpt lat="59.2960375082" lon="34.6793150157"><ele>155.87</ele><time>2026-08-16T10:13:28Z</time></trkpt><trkpt lat="59.2960339040" lon="34.6793204639"><ele>155.87</ele><time>2026-08-16T10:13:45Z</time></trkpt><trkpt lat="59.2959966045" lon="34.6793560032"><ele>155.87</ele><time>2026-08-16T10:13:56Z</time></trkpt><trkpt lat="59.2959374283" lon="34.6794508863"><ele>155.87</ele><time>2026-08-16T10:14:07Z</time></trkpt><trkpt lat="59.2959063314" lon="34.6795210429"><ele>156.35</ele><time>2026-08-16T10:14:20Z</time></trkpt><trkpt lat="59.2958992068" lon="34.6795051172"><ele>156.35</ele><time>2026-08-16T10:14:24Z</time></trkpt><trkpt lat="59.2958513461" lon="34.6794830728"><ele>156.35</ele><time>2026-08-16T10:14:34Z</time></trkpt><trkpt lat="59.2958438862" lon="34.6794868447"><ele>156.35</ele><time>2026-08-16T10:14:35Z</time></trkpt><trkpt lat="59.2957529426" lon="34.6795461047"><ele>156.35</ele><time>2026-08-16T10:14:47Z</time></trkpt><trkpt lat="59.2957112007" lon="34.6796340309"><ele>156.35</ele><time>2026-08-16T10:14:58Z</time></trkpt><trkpt lat="59.2956837919" lon="34.6796760242"><ele>156.35</ele><time>2026-08-16T10:15:03Z</time></trkpt><trkpt lat="59.2956260405" lon="34.6797891799"><ele>156.35</ele><time>2026-08-16T10:15:14Z</time></trkpt><trkpt lat="59.2955860589" lon="34.6798354480"><ele>156.35</ele><time>2026-08-16T10:15:26Z</time></trkpt><trkpt lat="59.2955529504" lon="34.6798622701"><ele>156.35</ele><time>2026-08-16T10:15:35Z</time></trkpt><trkpt lat="59.2955040839" lon="34.6799156629"><ele>156.35</ele><time>2026-08-16T10:15:42Z</time></trkpt><trkpt lat="59.2954219412" lon="34.6799421497"><ele>156.35</ele><time>2026-08-16T10:15:54Z</time></trkpt><trkpt lat="59.2953513656" lon="34.6799641941"><ele>156.35</ele><time>2026-08-16T10:16:06Z</time></trkpt><trkpt lat="59.2952760961" lon="34.6800076962"><ele>156.35</ele><time>2026-08-16T10:16:17Z</time></trkpt><trkpt lat="59.2951871641" lon="34.6800695546"><ele>156.35</ele><time>2026-08-16T10:16:28Z</time></trkpt><trkpt lat="59.2951077037" lon="34.6801009867"><ele>156.35</ele><time>2026-08-16T10:16:38Z</time></trkpt><trkpt lat="59.2950378824" lon="34.6801560558"><ele>156.35</ele><time>2026-08-16T10:16:50Z</time></trkpt><trkpt lat="59.2950326856" lon="34.6801179182"><ele>156.35</ele><time>2026-08-16T10:17:09Z</time></trkpt><trkpt lat="59.2950416543" lon="34.6801031660"><ele>156.35</ele><time>2026-08-16T10:17:36Z</time></trkpt><trkpt lat="59.2950253934" lon="34.6801260486"><ele>156.35</ele><time>2026-08-16T10:18:00Z</time></trkpt><trkpt lat="59.2949801311" lon="34.6801946126"><ele>156.35</ele><time>2026-08-16T10:18:11Z</time></trkpt><trkpt lat="59.2949665524" lon="34.6803584788"><ele>156.35</ele><time>2026-08-16T10:18:19Z</time></trkpt><trkpt lat="59.2949069571" lon="34.6805257816"><ele>156.35</ele><time>2026-08-16T10:18:30Z</time></trkpt><trkpt lat="59.2948834877" lon="34.6805773303"><ele>156.35</ele><time>2026-08-16T10:18:42Z</time></trkpt><trkpt lat="59.2948000040" lon="34.6807710361"><ele>155.39</ele><time>2026-08-16T10:18:55Z</time></trkpt><trkpt lat="59.2947580945" lon="34.6808839403"><ele>155.39</ele><time>2026-08-16T10:19:06Z</time></trkpt><trkpt lat="59.2946886085" lon="34.6810014546"><ele>154.91</ele><time>2026-08-16T10:19:18Z</time></trkpt><trkpt lat="59.2946109921" lon="34.6810858604"><ele>154.91</ele><time>2026-08-16T10:19:28Z</time></trkpt><trkpt lat="59.2944751214" lon="34.6812529117"><ele>154.43</ele><time>2026-08-16T10:19:40Z</time></trkpt><trkpt lat="59.2944095749" lon="34.6813905425"><ele>154.43</ele><time>2026-08-16T10:19:50Z</time></trkpt><trkpt lat="59.2943836749" lon="34.6814518142"><ele>154.43</ele><time>2026-08-16T10:19:56Z</time></trkpt><trkpt lat="59.2943503987" lon="34.6815352142"><ele>153.95</ele><time>2026-08-16T10:20:08Z</time></trkpt><trkpt lat="59.2942794040" lon="34.6816744376"><ele>153.95</ele><time>2026-08-16T10:20:19Z</time></trkpt><trkpt lat="59.2942804936" lon="34.6816982422"><ele>152.51</ele><time>2026-08-16T10:20:47Z</time></trkpt><trkpt lat="59.2942922283" lon="34.6817477793"><ele>152.51</ele><time>2026-08-16T10:21:11Z</time></trkpt><trkpt lat="59.2942546774" lon="34.6817376371"><ele>152.51</ele><time>2026-08-16T10:21:26Z</time></trkpt><trkpt lat="59.2941571120" lon="34.6816668939"><ele>151.54</ele><time>2026-08-16T10:21:38Z</time></trkpt><trkpt lat="59.2941141967" lon="34.6816169377"><ele>151.54</ele><time>2026-08-16T10:21:47Z</time></trkpt><trkpt lat="59.2940349039" lon="34.6815391537"><ele>151.54</ele><time>2026-08-16T10:21:59Z</time></trkpt><trkpt lat="59.2940019630" lon="34.6815401595"><ele>151.54</ele><time>2026-08-16T10:22:02Z</time></trkpt><trkpt lat="59.2939169705" lon="34.6815168578"><ele>151.06</ele><time>2026-08-16T10:22:15Z</time></trkpt><trkpt lat="59.2938541900" lon="34.6815524809"><ele>151.06</ele><time>2026-08-16T10:22:26Z</time></trkpt><trkpt lat="59.2937733885" lon="34.6816527285"><ele>151.06</ele><time>2026-08-16T10:22:37Z</time></trkpt><trkpt lat="59.2937134579" lon="34.6816582605"><ele>151.06</ele><time>2026-08-16T10:22:50Z</time></trkpt><trkpt lat="59.2936481629" lon="34.6817262378"><ele>150.58</ele><time>2026-08-16T10:23:04Z</time></trkpt><trkpt lat="59.2936117016" lon="34.6817601006"><ele>150.58</ele><time>2026-08-16T10:23:09Z</time></trkpt><trkpt lat="59.2935659364" lon="34.6818155050"><ele>150.58</ele><time>2026-08-16T10:23:13Z</time></trkpt><trkpt lat="59.2934755795" lon="34.6818961389"><ele>150.58</ele><time>2026-08-16T10:23:23Z</time></trkpt><trkpt lat="59.2934173252" lon="34.6819325164"><ele>150.58</ele><time>2026-08-16T10:23:29Z</time></trkpt><trkpt lat="59.2933300696" lon="34.6820655372"><ele>150.58</ele><time>2026-08-16T10:23:41Z</time></trkpt><trkpt lat="59.2932658643" lon="34.6821022499"><ele>150.58</ele><time>2026-08-16T10:23:50Z</time></trkpt><trkpt lat="59.2931496073" lon="34.6821939480"><ele>150.58</ele><time>2026-08-16T10:24:04Z</time></trkpt><trkpt lat="59.2930724099" lon="34.6822234523"><ele>150.58</ele><time>2026-08-16T10:24:16Z</time></trkpt><trkpt lat="59.2930444982" lon="34.6822600812"><ele>150.58</ele><time>2026-08-16T10:24:36Z</time></trkpt><trkpt lat="59.2930302490" lon="34.6822404675"><ele>150.58</ele><time>2026-08-16T10:25:00Z</time></trkpt><trkpt lat="59.2930175085" lon="34.6822225302"><ele>150.58</ele><time>2026-08-16T10:25:24Z</time></trkpt><trkpt lat="59.2929974757" lon="34.6823258791"><ele>150.58</ele><time>2026-08-16T10:25:36Z</time></trkpt><trkpt lat="59.2929885071" lon="34.6823671181"><ele>150.58</ele><time>2026-08-16T10:25:39Z</time></trkpt><trkpt lat="59.2929643672" lon="34.6825650148"><ele>150.58</ele><time>2026-08-16T10:25:51Z</time></trkpt><trkpt lat="59.2928953841" lon="34.6827408671"><ele>150.58</ele><time>2026-08-16T10:26:03Z</time></trkpt><trkpt lat="59.2928376328" lon="34.6828601416"><ele>151.54</ele><time>2026-08-16T10:26:14Z</time></trkpt><trkpt lat="59.2927916162" lon="34.6829453856"><ele>151.54</ele><time>2026-08-16T10:26:26Z</time></trkpt><trkpt lat="59.2927339487" lon="34.6829963475"><ele>151.54</ele><time>2026-08-16T10:26:33Z</time></trkpt><trkpt lat="59.2926840764" lon="34.6830486506"><ele>151.54</ele><time>2026-08-16T10:26:47Z</time></trkpt><trkpt lat="59.2926253192" lon="34.6831574477"><ele>151.54</ele><time>2026-08-16T10:27:00Z</time></trkpt><trkpt lat="59.2925656401" lon="34.6832733694"><ele>151.54</ele><time>2026-08-16T10:27:12Z</time></trkpt><trkpt lat="59.2925218865" lon="34.6833274327"><ele>151.54</ele><time>2026-08-16T10:27:19Z</time></trkpt><trkpt lat="59.2924403306" lon="34.6834845934"><ele>152.03</ele><time>2026-08-16T10:27:30Z</time></trkpt><trkpt lat="59.2924067192" lon="34.6835556719"><ele>152.03</ele><time>2026-08-16T10:27:37Z</time></trkpt><trkpt lat="59.2923632171" lon="34.6836164407"><ele>152.03</ele><time>2026-08-16T10:27:49Z</time></trkpt><trkpt lat="59.2923106626" lon="34.6837144252"><ele>152.03</ele><time>2026-08-16T10:28:01Z</time></trkpt><trkpt lat="59.2922762129" lon="34.6837596036"><ele>152.03</ele><time>2026-08-16T10:28:07Z</time></trkpt><trkpt lat="59.2922010273" lon="34.6838166006"><ele>152.03</ele><time>2026-08-16T10:28:16Z</time></trkpt><trkpt lat="59.2921652365" lon="34.6838074643"><ele>152.03</ele><time>2026-08-16T10:28:28Z</time></trkpt><trkpt lat="59.2921154480" lon="34.6838462725"><ele>152.03</ele><time>2026-08-16T10:28:34Z</time></trkpt><trkpt lat="59.2920898832" lon="34.6838905290"><ele>152.03</ele><time>2026-08-16T10:28:48Z</time></trkpt><trkpt lat="59.2920675036" lon="34.6839038562"><ele>152.03</ele><time>2026-08-16T10:29:08Z</time></trkpt><trkpt lat="59.2920580320" lon="34.6839129087"><ele>152.03</ele><time>2026-08-16T10:29:23Z</time></trkpt><trkpt lat="59.2920665815" lon="34.6839049459"><ele>152.03</ele><time>2026-08-16T10:29:42Z</time></trkpt><trkpt lat="59.2920837644" lon="34.6838952228"><ele>152.03</ele><time>2026-08-16T10:30:06Z</time></trkpt><trkpt lat="59.2920845188" lon="34.6839048620"><ele>152.03</ele><time>2026-08-16T10:30:29Z</time></trkpt><trkpt lat="59.2920867819" lon="34.6839049459"><ele>152.03</ele><time>2026-08-16T10:30:42Z</time></trkpt><trkpt lat="59.2920773942" lon="34.6839075442"><ele>152.51</ele><time>2026-08-16T10:31:04Z</time></trkpt><trkpt lat="59.2920757178" lon="34.6839160938"><ele>152.51</ele><time>2026-08-16T10:31:28Z</time></trkpt><trkpt lat="59.2920763046" lon="34.6839327738"><ele>152.51</ele><time>2026-08-16T10:31:59Z</time></trkpt><trkpt lat="59.2920736223" lon="34.6839362103"><ele>152.51</ele><time>2026-08-16T10:32:26Z</time></trkpt><trkpt lat="59.2920754664" lon="34.6839010064"><ele>152.51</ele><time>2026-08-16T10:32:46Z</time></trkpt><trkpt lat="59.2920784838" lon="34.6838723402"><ele>152.99</ele><time>2026-08-16T10:33:15Z</time></trkpt><trkpt lat="59.2920753825" lon="34.6838422492"><ele>152.99</ele><time>2026-08-16T10:33:39Z</time></trkpt><trkpt lat="59.2920804955" lon="34.6838328615"><ele>152.99</ele><time>2026-08-16T10:33:58Z</time></trkpt><trkpt lat="59.2920872010" lon="34.6838234738"><ele>152.99</ele><time>2026-08-16T10:34:22Z</time></trkpt><trkpt lat="59.2920769751" lon="34.6838046145"><ele>152.99</ele><time>2026-08-16T10:34:45Z</time></trkpt><trkpt lat="59.2920262646" lon="34.6837892756"><ele>152.99</ele><time>2026-08-16T10:34:56Z</time></trkpt><trkpt lat="59.2919725366" lon="34.6837414987"><ele>152.99</ele><time>2026-08-16T10:35:08Z</time></trkpt><trkpt lat="59.2919551861" lon="34.6837197058"><ele>152.99</ele><time>2026-08-16T10:35:11Z</time></trkpt><trkpt lat="59.2918984406" lon="34.6836143453"><ele>152.99</ele><time>2026-08-16T10:35:22Z</time></trkpt><trkpt lat="59.2918195669" lon="34.6835167799"><ele>153.95</ele><time>2026-08-16T10:35:33Z</time></trkpt><trkpt lat="59.2917929962" lon="34.6834417619"><ele>153.47</ele><time>2026-08-16T10:35:45Z</time></trkpt><trkpt lat="59.2916771583" lon="34.6833008621"><ele>153.95</ele><time>2026-08-16T10:35:59Z</time></trkpt><trkpt lat="59.2916810140" lon="34.6830889676"><ele>153.95</ele><time>2026-08-16T10:36:12Z</time></trkpt><trkpt lat="59.2916926648" lon="34.6829396021"><ele>153.95</ele><time>2026-08-16T10:36:24Z</time></trkpt><trkpt lat="59.2916535214" lon="34.6827558707"><ele>153.95</ele><time>2026-08-16T10:36:35Z</time></trkpt><trkpt lat="59.2915731389" lon="34.6825589798"><ele>153.95</ele><time>2026-08-16T10:36:45Z</time></trkpt><trkpt lat="59.2915094364" lon="34.6824353468"><ele>154.43</ele><time>2026-08-16T10:36:59Z</time></trkpt><trkpt lat="59.2915087659" lon="34.6823499352"><ele>154.91</ele><time>2026-08-16T10:37:11Z</time></trkpt><trkpt lat="59.2915263679" lon="34.6823392063"><ele>154.91</ele><time>2026-08-16T10:37:30Z</time></trkpt><trkpt lat="59.2915220931" lon="34.6823199280"><ele>154.91</ele><time>2026-08-16T10:37:52Z</time></trkpt><trkpt lat="59.2915261164" lon="34.6823069360"><ele>154.91</ele><time>2026-08-16T10:38:12Z</time></trkpt><trkpt lat="59.2914768308" lon="34.6822687145"><ele>154.91</ele><time>2026-08-16T10:38:23Z</time></trkpt><trkpt lat="59.2914095242" lon="34.6821982227"><ele>154.91</ele><time>2026-08-16T10:38:35Z</time></trkpt><trkpt lat="59.2913195863" lon="34.6821989771"><ele>154.91</ele><time>2026-08-16T10:38:47Z</time></trkpt><trkpt lat="59.2912171595" lon="34.6822647750"><ele>154.91</ele><time>2026-08-16T10:38:58Z</time></trkpt><trkpt lat="59.2911394592" lon="34.6821522899"><ele>154.91</ele><time>2026-08-16T10:39:10Z</time></trkpt><trkpt lat="59.2911286466" lon="34.6821305808"><ele>154.91</ele><time>2026-08-16T10:39:12Z</time></trkpt><trkpt lat="59.2910414748" lon="34.6820154134"><ele>154.91</ele><time>2026-08-16T10:39:24Z</time></trkpt><trkpt lat="59.2909954581" lon="34.6818844881"><ele>154.91</ele><time>2026-08-16T10:39:35Z</time></trkpt><trkpt lat="59.2909766827" lon="34.6817202028"><ele>154.91</ele><time>2026-08-16T10:39:49Z</time></trkpt><trkpt lat="59.2909982242" lon="34.6816270798"><ele>154.43</ele><time>2026-08-16T10:40:01Z</time></trkpt><trkpt lat="59.2910015769" lon="34.6814970765"><ele>154.43</ele><time>2026-08-16T10:40:12Z</time></trkpt><trkpt lat="59.2910061870" lon="34.6813139319"><ele>154.43</ele><time>2026-08-16T10:40:23Z</time></trkpt><trkpt lat="59.2909738328" lon="34.6811387502"><ele>154.43</ele><time>2026-08-16T10:40:34Z</time></trkpt><trkpt lat="59.2909190152" lon="34.6810431965"><ele>154.43</ele><time>2026-08-16T10:40:44Z</time></trkpt><trkpt lat="59.2909200210" lon="34.6809999458"><ele>154.43</ele><time>2026-08-16T10:41:05Z</time></trkpt><trkpt lat="59.2909140699" lon="34.6809938271"><ele>154.43</ele><time>2026-08-16T10:41:27Z</time></trkpt><trkpt lat="59.2909051850" lon="34.6809878759"><ele>154.43</ele><time>2026-08-16T10:41:51Z</time></trkpt><trkpt lat="59.2909210268" lon="34.6809097566"><ele>154.43</ele><time>2026-08-16T10:42:08Z</time></trkpt><trkpt lat="59.2909515370" lon="34.6807194036"><ele>154.43</ele><time>2026-08-16T10:42:22Z</time></trkpt><trkpt lat="59.2909979727" lon="34.6806536056"><ele>153.95</ele><time>2026-08-16T10:42:34Z</time></trkpt><trkpt lat="59.2910890002" lon="34.6805852931"><ele>153.95</ele><time>2026-08-16T10:42:48Z</time></trkpt><trkpt lat="59.2911467515" lon="34.6805559564"><ele>153.95</ele><time>2026-08-16T10:42:58Z</time></trkpt><trkpt lat="59.2912148964" lon="34.6803957783"><ele>153.95</ele><time>2026-08-16T10:43:11Z</time></trkpt><trkpt lat="59.2912840471" lon="34.6803081874"><ele>153.95</ele><time>2026-08-16T10:43:22Z</time></trkpt><trkpt lat="59.2913574725" lon="34.6802935190"><ele>154.43</ele><time>2026-08-16T10:43:34Z</time></trkpt><trkpt lat="59.2914160620" lon="34.6802252904"><ele>154.43</ele><time>2026-08-16T10:43:43Z</time></trkpt><trkpt lat="59.2914719693" lon="34.6802260447"><ele>154.43</ele><time>2026-08-16T10:43:52Z</time></trkpt><trkpt lat="59.2915122025" lon="34.6802069340"><ele>154.43</ele><time>2026-08-16T10:44:05Z</time></trkpt><trkpt lat="59.2916224245" lon="34.6801016573"><ele>153.95</ele><time>2026-08-16T10:44:18Z</time></trkpt><trkpt lat="59.2917229235" lon="34.6799130645"><ele>153.95</ele><time>2026-08-16T10:44:30Z</time></trkpt><trkpt lat="59.2918231711" lon="34.6798002440"><ele>152.51</ele><time>2026-08-16T10:44:42Z</time></trkpt><trkpt lat="59.2918688525" lon="34.6797816362"><ele>152.51</ele><time>2026-08-16T10:45:02Z</time></trkpt><trkpt lat="59.2919289507" lon="34.6797826421"><ele>152.51</ele><time>2026-08-16T10:45:31Z</time></trkpt><trkpt lat="59.2919375002" lon="34.6797137428"><ele>152.51</ele><time>2026-08-16T10:45:46Z</time></trkpt><trkpt lat="59.2919618078" lon="34.6795845777"><ele>152.03</ele><time>2026-08-16T10:45:56Z</time></trkpt><trkpt lat="59.2919950001" lon="34.6793600265"><ele>151.54</ele><time>2026-08-16T10:46:09Z</time></trkpt><trkpt lat="59.2920429446" lon="34.6792674065"><ele>151.54</ele><time>2026-08-16T10:46:22Z</time></trkpt><trkpt lat="59.2920886260" lon="34.6791901253"><ele>151.06</ele><time>2026-08-16T10:46:32Z</time></trkpt><trkpt lat="59.2921806592" lon="34.6791225672"><ele>150.10</ele><time>2026-08-16T10:46:47Z</time></trkpt><trkpt lat="59.2922481336" lon="34.6789983474"><ele>149.62</ele><time>2026-08-16T10:46:59Z</time></trkpt><trkpt lat="59.2923260015" lon="34.6789129358"><ele>149.14</ele><time>2026-08-16T10:47:10Z</time></trkpt><trkpt lat="59.2923770472" lon="34.6788536757"><ele>149.14</ele><time>2026-08-16T10:47:21Z</time></trkpt><trkpt lat="59.2924588546" lon="34.6788478084"><ele>149.14</ele><time>2026-08-16T10:47:31Z</time></trkpt><trkpt lat="59.2925154325" lon="34.6788616385"><ele>148.18</ele><time>2026-08-16T10:47:42Z</time></trkpt><trkpt lat="59.2925907858" lon="34.6788144484"><ele>148.18</ele><time>2026-08-16T10:47:52Z</time></trkpt><trkpt lat="59.2927045282" lon="34.6787334792"><ele>148.18</ele><time>2026-08-16T10:48:03Z</time></trkpt><trkpt lat="59.2927363794" lon="34.6786931623"><ele>147.70</ele><time>2026-08-16T10:48:14Z</time></trkpt><trkpt lat="59.2927356251" lon="34.6786801703"><ele>147.70</ele><time>2026-08-16T10:48:39Z</time></trkpt><trkpt lat="59.2927821446" lon="34.6786794160"><ele>147.22</ele><time>2026-08-16T10:49:08Z</time></trkpt><trkpt lat="59.2927811388" lon="34.6786548570"><ele>147.22</ele><time>2026-08-16T10:49:34Z</time></trkpt><trkpt lat="59.2928196955" lon="34.6785867959"><ele>147.22</ele><time>2026-08-16T10:49:47Z</time></trkpt><trkpt lat="59.2928668018" lon="34.6785738040"><ele>147.22</ele><time>2026-08-16T10:49:55Z</time></trkpt><trkpt lat="59.2929129023" lon="34.6784966905"><ele>147.22</ele><time>2026-08-16T10:50:06Z</time></trkpt><trkpt lat="59.2929707374" lon="34.6783869714"><ele>147.22</ele><time>2026-08-16T10:50:18Z</time></trkpt><trkpt lat="59.2929982301" lon="34.6782852989"><ele>146.74</ele><time>2026-08-16T10:50:29Z</time></trkpt><trkpt lat="59.2930553108" lon="34.6782136336"><ele>146.74</ele><time>2026-08-16T10:50:40Z</time></trkpt><trkpt lat="59.2930887546" lon="34.6781847160"><ele>146.74</ele><time>2026-08-16T10:50:43Z</time></trkpt><trkpt lat="59.2931510322" lon="34.6781150624"><ele>146.74</ele><time>2026-08-16T10:50:53Z</time></trkpt><trkpt lat="59.2932157405" lon="34.6780754160"><ele>146.74</ele><time>2026-08-16T10:51:04Z</time></trkpt><trkpt lat="59.2932802811" lon="34.6780069359"><ele>146.26</ele><time>2026-08-16T10:51:15Z</time></trkpt><trkpt lat="59.2933687940" lon="34.6779599134"><ele>146.26</ele><time>2026-08-16T10:51:26Z</time></trkpt><trkpt lat="59.2934322450" lon="34.6778752562"><ele>146.26</ele><time>2026-08-16T10:51:37Z</time></trkpt><trkpt lat="59.2934742384" lon="34.6777595021"><ele>146.26</ele><time>2026-08-16T10:51:50Z</time></trkpt><trkpt lat="59.2934955284" lon="34.6777150780"><ele>146.26</ele><time>2026-08-16T10:51:54Z</time></trkpt><trkpt lat="59.2935640924" lon="34.6775561571"><ele>145.78</ele><time>2026-08-16T10:52:08Z</time></trkpt><trkpt lat="59.2936176527" lon="34.6775579173"><ele>145.78</ele><time>2026-08-16T10:52:34Z</time></trkpt><trkpt lat="59.2936119530" lon="34.6775456797"><ele>145.78</ele><time>2026-08-16T10:52:50Z</time></trkpt><trkpt lat="59.2936279625" lon="34.6774482820"><ele>145.78</ele><time>2026-08-16T10:53:05Z</time></trkpt><trkpt lat="59.2936890665" lon="34.6773204580"><ele>145.78</ele><time>2026-08-16T10:53:16Z</time></trkpt><trkpt lat="59.2937049083" lon="34.6773205418"><ele>145.78</ele><time>2026-08-16T10:53:18Z</time></trkpt><trkpt lat="59.2937192414" lon="34.6773214638"><ele>145.78</ele><time>2026-08-16T10:53:19Z</time></trkpt><trkpt lat="59.2937471531" lon="34.6772971563"><ele>145.78</ele><time>2026-08-16T10:53:22Z</time></trkpt><trkpt lat="59.2938434612" lon="34.6772721782"><ele>145.78</ele><time>2026-08-16T10:53:34Z</time></trkpt><trkpt lat="59.2939209100" lon="34.6772326156"><ele>145.78</ele><time>2026-08-16T10:53:47Z</time></trkpt><trkpt lat="59.2940155417" lon="34.6772231441"><ele>145.78</ele><time>2026-08-16T10:54:00Z</time></trkpt><trkpt lat="59.2940696049" lon="34.6771863475"><ele>145.78</ele><time>2026-08-16T10:54:11Z</time></trkpt><trkpt lat="59.2941150349" lon="34.6770695876"><ele>145.78</ele><time>2026-08-16T10:54:24Z</time></trkpt><trkpt lat="59.2941190582" lon="34.6769809071"><ele>145.78</ele><time>2026-08-16T10:54:35Z</time></trkpt><trkpt lat="59.2941059824" lon="34.6769726090"><ele>145.78</ele><time>2026-08-16T10:55:00Z</time></trkpt><trkpt lat="59.2941156216" lon="34.6769705974"><ele>145.78</ele><time>2026-08-16T10:55:28Z</time></trkpt><trkpt lat="59.2941144481" lon="34.6768926457"><ele>145.78</ele><time>2026-08-16T10:55:47Z</time></trkpt><trkpt lat="59.2940338142" lon="34.6767374128"><ele>145.78</ele><time>2026-08-16T10:56:00Z</time></trkpt><trkpt lat="59.2940199003" lon="34.6766514145"><ele>145.78</ele><time>2026-08-16T10:56:07Z</time></trkpt><trkpt lat="59.2940214090" lon="34.6765354928"><ele>145.78</ele><time>2026-08-16T10:56:17Z</time></trkpt><trkpt lat="59.2939389311" lon="34.6763080079"><ele>145.78</ele><time>2026-08-16T10:56:29Z</time></trkpt><trkpt lat="59.2939094268" lon="34.6761933435"><ele>145.78</ele><time>2026-08-16T10:56:41Z</time></trkpt><trkpt lat="59.2938882206" lon="34.6761096921"><ele>145.78</ele><time>2026-08-16T10:56:51Z</time></trkpt><trkpt lat="59.2938093469" lon="34.6760888211"><ele>145.78</ele><time>2026-08-16T10:57:03Z</time></trkpt><trkpt lat="59.2938111909" lon="34.6760341711"><ele>145.78</ele><time>2026-08-16T10:57:15Z</time></trkpt><trkpt lat="59.2938209977" lon="34.6759130526"><ele>145.30</ele><time>2026-08-16T10:57:26Z</time></trkpt><trkpt lat="59.2938118614" lon="34.6757731587"><ele>145.30</ele><time>2026-08-16T10:57:37Z</time></trkpt><trkpt lat="59.2938106880" lon="34.6757500246"><ele>145.30</ele><time>2026-08-16T10:57:40Z</time></trkpt><trkpt lat="59.2937526852" lon="34.6755841468"><ele>145.30</ele><time>2026-08-16T10:57:53Z</time></trkpt><trkpt lat="59.2937194929" lon="34.6754570771"><ele>145.30</ele><time>2026-08-16T10:58:03Z</time></trkpt><trkpt lat="59.2937315628" lon="34.6754394751"><ele>145.30</ele><time>2026-08-16T10:58:23Z</time></trkpt><trkpt lat="59.2937162239" lon="34.6754203644"><ele>145.30</ele><time>2026-08-16T10:58:37Z</time></trkpt><trkpt lat="59.2937184032" lon="34.6754217893"><ele>145.30</ele><time>2026-08-16T10:59:01Z</time></trkpt><trkpt lat="59.2937136255" lon="34.6753690671"><ele>145.30</ele><time>2026-08-16T10:59:15Z</time></trkpt><trkpt lat="59.2936899886" lon="34.6753035206"><ele>145.30</ele><time>2026-08-16T10:59:23Z</time></trkpt><trkpt lat="59.2936307285" lon="34.6751233935"><ele>145.30</ele><time>2026-08-16T10:59:35Z</time></trkpt><trkpt lat="59.2936220951" lon="34.6750479564"><ele>145.30</ele><time>2026-08-16T10:59:46Z</time></trkpt><trkpt lat="59.2935987934" lon="34.6749290172"><ele>145.30</ele><time>2026-08-16T10:59:58Z</time></trkpt><trkpt lat="59.2935997155" lon="34.6748933103"><ele>145.30</ele><time>2026-08-16T11:00:01Z</time></trkpt><trkpt lat="59.2935560457" lon="34.6746630594"><ele>145.30</ele><time>2026-08-16T11:00:16Z</time></trkpt><trkpt lat="59.2935614940" lon="34.6745576989"><ele>144.82</ele><time>2026-08-16T11:00:26Z</time></trkpt><trkpt lat="59.2935655173" lon="34.6743867919"><ele>144.82</ele><time>2026-08-16T11:00:36Z</time></trkpt><trkpt lat="59.2935759109" lon="34.6742994525"><ele>144.82</ele><time>2026-08-16T11:00:48Z</time></trkpt><trkpt lat="59.2935702112" lon="34.6742835268"><ele>144.82</ele><time>2026-08-16T11:01:00Z</time></trkpt><trkpt lat="59.2935500108" lon="34.6742515080"><ele>144.82</ele><time>2026-08-16T11:01:12Z</time></trkpt><trkpt lat="59.2935513519" lon="34.6742434613"><ele>144.82</ele><time>2026-08-16T11:01:25Z</time></trkpt><trkpt lat="59.2935510166" lon="34.6742427908"><ele>144.82</ele><time>2026-08-16T11:01:27Z</time></trkpt><trkpt lat="59.2935372703" lon="34.6742272004"><ele>144.82</ele><time>2026-08-16T11:01:39Z</time></trkpt><trkpt lat="59.2934921756" lon="34.6742527653"><ele>144.82</ele><time>2026-08-16T11:01:52Z</time></trkpt><trkpt lat="59.2934271321" lon="34.6742116939"><ele>144.82</ele><time>2026-08-16T11:02:02Z</time></trkpt><trkpt lat="59.2933044210" lon="34.6741703711"><ele>144.82</ele><time>2026-08-16T11:02:15Z</time></trkpt><trkpt lat="59.2932646070" lon="34.6741056629"><ele>144.82</ele><time>2026-08-16T11:02:26Z</time></trkpt><trkpt lat="59.2932210211" lon="34.6740632504"><ele>144.82</ele><time>2026-08-16T11:02:35Z</time></trkpt><trkpt lat="59.2931708135" lon="34.6739906631"><ele>144.82</ele><time>2026-08-16T11:02:44Z</time></trkpt><trkpt lat="59.2931682151" lon="34.6739386115"><ele>144.82</ele><time>2026-08-16T11:02:50Z</time></trkpt><trkpt lat="59.2931715678" lon="34.6739030723"><ele>144.82</ele><time>2026-08-16T11:02:52Z</time></trkpt><trkpt lat="59.2931221984" lon="34.6737755835"><ele>144.82</ele><time>2026-08-16T11:03:05Z</time></trkpt><trkpt lat="59.2931491882" lon="34.6738225222"><ele>144.82</ele><time>2026-08-16T11:03:34Z</time></trkpt><trkpt lat="59.2931434885" lon="34.6738402918"><ele>144.82</ele><time>2026-08-16T11:03:46Z</time></trkpt><trkpt lat="59.2931231204" lon="34.6738443989"><ele>144.82</ele><time>2026-08-16T11:04:10Z</time></trkpt><trkpt lat="59.2931425665" lon="34.6738669463"><ele>144.82</ele><time>2026-08-16T11:04:34Z</time></trkpt><trkpt lat="59.2931423150" lon="34.6738551278"><ele>144.82</ele><time>2026-08-16T11:04:54Z</time></trkpt><trkpt lat="59.2931419797" lon="34.6738591511"><ele>144.82</ele><time>2026-08-16T11:05:21Z</time></trkpt><trkpt lat="59.2931384593" lon="34.6738660242"><ele>144.82</ele><time>2026-08-16T11:05:38Z</time></trkpt><trkpt lat="59.2930854857" lon="34.6739267092"><ele>145.30</ele><time>2026-08-16T11:05:53Z</time></trkpt><trkpt lat="59.2930390500" lon="34.6739805210"><ele>145.30</ele><time>2026-08-16T11:06:03Z</time></trkpt><trkpt lat="59.2929537222" lon="34.6740115341"><ele>145.30</ele><time>2026-08-16T11:06:16Z</time></trkpt><trkpt lat="59.2928812187" lon="34.6740187425"><ele>145.30</ele><time>2026-08-16T11:06:27Z</time></trkpt><trkpt lat="59.2928050272" lon="34.6740163118"><ele>145.30</ele><time>2026-08-16T11:06:40Z</time></trkpt><trkpt lat="59.2927575856" lon="34.6740737278"><ele>145.30</ele><time>2026-08-16T11:06:51Z</time></trkpt><trkpt lat="59.2927067075" lon="34.6740718000"><ele>145.30</ele><time>2026-08-16T11:07:03Z</time></trkpt><trkpt lat="59.2926386464" lon="34.6740567125"><ele>145.30</ele><time>2026-08-16T11:07:15Z</time></trkpt><trkpt lat="59.2925605271" lon="34.6740821935"><ele>145.30</ele><time>2026-08-16T11:07:26Z</time></trkpt><trkpt lat="59.2924833298" lon="34.6741201635"><ele>145.30</ele><time>2026-08-16T11:07:38Z</time></trkpt><trkpt lat="59.2923767120" lon="34.6741610672"><ele>145.30</ele><time>2026-08-16T11:07:50Z</time></trkpt><trkpt lat="59.2923627980" lon="34.6741707902"><ele>145.30</ele><time>2026-08-16T11:08:02Z</time></trkpt><trkpt lat="59.2922969162" lon="34.6741831955"><ele>145.30</ele><time>2026-08-16T11:08:12Z</time></trkpt><trkpt lat="59.2922184616" lon="34.6740301419"><ele>145.30</ele><time>2026-08-16T11:08:23Z</time></trkpt><trkpt lat="59.2921896279" lon="34.6739485860"><ele>145.30</ele><time>2026-08-16T11:08:33Z</time></trkpt><trkpt lat="59.2921633925" lon="34.6738278866"><ele>145.30</ele><time>2026-08-16T11:08:43Z</time></trkpt><trkpt lat="59.2921206448" lon="34.6737263817"><ele>145.30</ele><time>2026-08-16T11:08:54Z</time></trkpt><trkpt lat="59.2921206448" lon="34.6737202629"><ele>146.26</ele><time>2026-08-16T11:09:11Z</time></trkpt><trkpt lat="59.2921043839" lon="34.6737044211"><ele>146.26</ele><time>2026-08-16T11:09:23Z</time></trkpt><trkpt lat="59.2920430284" lon="34.6737378649"><ele>146.26</ele><time>2026-08-16T11:09:31Z</time></trkpt><trkpt lat="59.2919962574" lon="34.6737814508"><ele>146.26</ele><time>2026-08-16T11:09:42Z</time></trkpt><trkpt lat="59.2919274420" lon="34.6738816984"><ele>146.26</ele><time>2026-08-16T11:09:55Z</time></trkpt><trkpt lat="59.2919189762" lon="34.6738887392"><ele>146.26</ele><time>2026-08-16T11:09:56Z</time></trkpt><trkpt lat="59.2918487359" lon="34.6740604006"><ele>146.26</ele><time>2026-08-16T11:10:08Z</time></trkpt><trkpt lat="59.2917522602" lon="34.6742610633"><ele>146.26</ele><time>2026-08-16T11:10:24Z</time></trkpt><trkpt lat="59.2916877195" lon="34.6743560303"><ele>146.26</ele><time>2026-08-16T11:10:37Z</time></trkpt><trkpt lat="59.2916741408" lon="34.6743689384"><ele>146.74</ele><time>2026-08-16T11:10:57Z</time></trkpt><trkpt lat="59.2916884739" lon="34.6744003706"><ele>146.74</ele><time>2026-08-16T11:11:19Z</time></trkpt><trkpt lat="59.2916687764" lon="34.6744382568"><ele>146.74</ele><time>2026-08-16T11:11:43Z</time></trkpt><trkpt lat="59.2916165572" lon="34.6745747980"><ele>146.74</ele><time>2026-08-16T11:11:56Z</time></trkpt><trkpt lat="59.2916054092" lon="34.6746553481"><ele>146.74</ele><time>2026-08-16T11:12:03Z</time></trkpt><trkpt lat="59.2915421259" lon="34.6748088207"><ele>146.74</ele><time>2026-08-16T11:12:15Z</time></trkpt><trkpt lat="59.2914764117" lon="34.6749544982"><ele>146.74</ele><time>2026-08-16T11:12:27Z</time></trkpt><trkpt lat="59.2914547026" lon="34.6751140058"><ele>146.74</ele><time>2026-08-16T11:12:38Z</time></trkpt><trkpt lat="59.2913802713" lon="34.6752581745"><ele>146.74</ele><time>2026-08-16T11:12:52Z</time></trkpt><trkpt lat="59.2913352605" lon="34.6753655467"><ele>146.74</ele><time>2026-08-16T11:13:03Z</time></trkpt><trkpt lat="59.2912899982" lon="34.6754577477"><ele>147.22</ele><time>2026-08-16T11:13:17Z</time></trkpt><trkpt lat="59.2912361026" lon="34.6755800396"><ele>147.22</ele><time>2026-08-16T11:13:28Z</time></trkpt><trkpt lat="59.2911434826" lon="34.6756834723"><ele>147.70</ele><time>2026-08-16T11:13:40Z</time></trkpt><trkpt lat="59.2910788581" lon="34.6757984720"><ele>148.66</ele><time>2026-08-16T11:13:51Z</time></trkpt><trkpt lat="59.2910439894" lon="34.6758635156"><ele>148.66</ele><time>2026-08-16T11:14:04Z</time></trkpt><trkpt lat="59.2909879144" lon="34.6759649366"><ele>148.66</ele><time>2026-08-16T11:14:17Z</time></trkpt><trkpt lat="59.2909437418" lon="34.6759883221"><ele>148.66</ele><time>2026-08-16T11:14:45Z</time></trkpt><trkpt lat="59.2909388803" lon="34.6760138869"><ele>148.66</ele><time>2026-08-16T11:15:15Z</time></trkpt><trkpt lat="59.2909240443" lon="34.6759953629"><ele>148.66</ele><time>2026-08-16T11:15:31Z</time></trkpt><trkpt lat="59.2908656225" lon="34.6759706363"><ele>149.14</ele><time>2026-08-16T11:15:43Z</time></trkpt><trkpt lat="59.2907997407" lon="34.6759417187"><ele>149.14</ele><time>2026-08-16T11:15:55Z</time></trkpt><trkpt lat="59.2907398101" lon="34.6759936865"><ele>149.14</ele><time>2026-08-16T11:16:05Z</time></trkpt><trkpt lat="59.2906432506" lon="34.6760686208"><ele>147.70</ele><time>2026-08-16T11:16:17Z</time></trkpt><trkpt lat="59.2905975692" lon="34.6760865580"><ele>147.70</ele><time>2026-08-16T11:16:30Z</time></trkpt><trkpt lat="59.2905331962" lon="34.6761109494"><ele>147.70</ele><time>2026-08-16T11:16:41Z</time></trkpt><trkpt lat="59.2904219683" lon="34.6760301478"><ele>147.70</ele><time>2026-08-16T11:16:54Z</time></trkpt><trkpt lat="59.2903460283" lon="34.6759990510"><ele>147.70</ele><time>2026-08-16T11:17:06Z</time></trkpt><trkpt lat="59.2902230658" lon="34.6760822833"><ele>147.70</ele><time>2026-08-16T11:17:21Z</time></trkpt><trkpt lat="59.2901431862" lon="34.6762717143"><ele>147.70</ele><time>2026-08-16T11:17:35Z</time></trkpt><trkpt lat="59.2901095748" lon="34.6763386857"><ele>147.70</ele><time>2026-08-16T11:17:49Z</time></trkpt><trkpt lat="59.2900865246" lon="34.6763701178"><ele>147.70</ele><time>2026-08-16T11:18:13Z</time></trkpt><trkpt lat="59.2900467105" lon="34.6763299685"><ele>148.18</ele><time>2026-08-16T11:18:26Z</time></trkpt><trkpt lat="59.2899847683" lon="34.6761494223"><ele>148.18</ele><time>2026-08-16T11:18:42Z</time></trkpt><trkpt lat="59.2899693456" lon="34.6761314012"><ele>148.18</ele><time>2026-08-16T11:19:10Z</time></trkpt><trkpt lat="59.2899614666" lon="34.6761486679"><ele>148.18</ele><time>2026-08-16T11:19:39Z</time></trkpt><trkpt lat="59.2899612151" lon="34.6761397831"><ele>148.18</ele><time>2026-08-16T11:20:05Z</time></trkpt><trkpt lat="59.2899594549" lon="34.6761375200"><ele>148.18</ele><time>2026-08-16T11:20:31Z</time></trkpt><trkpt lat="59.2899638135" lon="34.6761613246"><ele>148.18</ele><time>2026-08-16T11:21:07Z</time></trkpt><trkpt lat="59.2899659928" lon="34.6761677787"><ele>148.18</ele><time>2026-08-16T11:21:40Z</time></trkpt><trkpt lat="59.2899666633" lon="34.6761790104"><ele>148.18</ele><time>2026-08-16T11:22:10Z</time></trkpt><trkpt lat="59.2899724469" lon="34.6761790942"><ele>148.66</ele><time>2026-08-16T11:22:39Z</time></trkpt><trkpt lat="59.2899626400" lon="34.6761773340"><ele>148.66</ele><time>2026-08-16T11:23:05Z</time></trkpt><trkpt lat="59.2899618857" lon="34.6761898231"><ele>148.66</ele><time>2026-08-16T11:23:40Z</time></trkpt><trkpt lat="59.2899650708" lon="34.6761909127"><ele>148.66</ele><time>2026-08-16T11:24:13Z</time></trkpt><trkpt lat="59.2899581138" lon="34.6761932597"><ele>149.14</ele><time>2026-08-16T11:24:51Z</time></trkpt><trkpt lat="59.2899550963" lon="34.6761969477"><ele>150.10</ele><time>2026-08-16T11:25:20Z</time></trkpt><trkpt lat="59.2899455409" lon="34.6762092691"><ele>150.10</ele><time>2026-08-16T11:25:54Z</time></trkpt><trkpt lat="59.2899366561" lon="34.6762362588"><ele>150.10</ele><time>2026-08-16T11:26:34Z</time></trkpt><trkpt lat="59.2899436131" lon="34.6762189083"><ele>150.10</ele><time>2026-08-16T11:27:04Z</time></trkpt><trkpt lat="59.2899464630" lon="34.6762211714"><ele>150.58</ele><time>2026-08-16T11:27:32Z</time></trkpt><trkpt lat="59.2899436131" lon="34.6762180701"><ele>150.58</ele><time>2026-08-16T11:27:59Z</time></trkpt><trkpt lat="59.2899419367" lon="34.6762145497"><ele>150.58</ele><time>2026-08-16T11:28:31Z</time></trkpt><trkpt lat="59.2899425235" lon="34.6762109455"><ele>150.58</ele><time>2026-08-16T11:28:56Z</time></trkpt><trkpt lat="59.2899433617" lon="34.6761896554"><ele>151.06</ele><time>2026-08-16T11:29:33Z</time></trkpt><trkpt lat="59.2899418529" lon="34.6761758253"><ele>151.06</ele><time>2026-08-16T11:29:56Z</time></trkpt><trkpt lat="59.2899441998" lon="34.6761597320"><ele>151.06</ele><time>2026-08-16T11:30:17Z</time></trkpt><trkpt lat="59.2899454571" lon="34.6761554573"><ele>151.06</ele><time>2026-08-16T11:30:41Z</time></trkpt><trkpt lat="59.2899464630" lon="34.6761686169"><ele>151.06</ele><time>2026-08-16T11:31:00Z</time></trkpt><trkpt lat="59.2899030447" lon="34.6762043238"><ele>151.54</ele><time>2026-08-16T11:31:14Z</time></trkpt><trkpt lat="59.2898384202" lon="34.6762790903"><ele>151.54</ele><time>2026-08-16T11:31:25Z</time></trkpt><trkpt lat="59.2897403520" lon="34.6764495783"><ele>151.54</ele><time>2026-08-16T11:31:39Z</time></trkpt><trkpt lat="59.2896770686" lon="34.6765602194"><ele>151.54</ele><time>2026-08-16T11:31:53Z</time></trkpt><trkpt lat="59.2895289604" lon="34.6766823437"><ele>151.54</ele><time>2026-08-16T11:32:07Z</time></trkpt><trkpt lat="59.2894455604" lon="34.6767147817"><ele>152.03</ele><time>2026-08-16T11:32:17Z</time></trkpt><trkpt lat="59.2893940117" lon="34.6768245008"><ele>152.03</ele><time>2026-08-16T11:32:29Z</time></trkpt><trkpt lat="59.2893334944" lon="34.6769565996"><ele>152.03</ele><time>2026-08-16T11:32:40Z</time></trkpt><trkpt lat="59.2893032357" lon="34.6770657320"><ele>152.03</ele><time>2026-08-16T11:32:52Z</time></trkpt><trkpt lat="59.2892319895" lon="34.6771946456"><ele>152.99</ele><time>2026-08-16T11:33:06Z</time></trkpt><trkpt lat="59.2891785130" lon="34.6773483697"><ele>152.99</ele><time>2026-08-16T11:33:18Z</time></trkpt><trkpt lat="59.2891018186" lon="34.6775181871"><ele>153.47</ele><time>2026-08-16T11:33:33Z</time></trkpt><trkpt lat="59.2890399601" lon="34.6776383836"><ele>154.43</ele><time>2026-08-16T11:33:47Z</time></trkpt><trkpt lat="59.2890397087" lon="34.6776393056"><ele>154.43</ele><time>2026-08-16T11:34:10Z</time></trkpt><trkpt lat="59.2890473362" lon="34.6776122320"><ele>155.39</ele><time>2026-08-16T11:34:43Z</time></trkpt><trkpt lat="59.2890480906" lon="34.6776060294"><ele>155.39</ele><time>2026-08-16T11:35:09Z</time></trkpt><trkpt lat="59.2890156526" lon="34.6776675526"><ele>155.39</ele><time>2026-08-16T11:35:22Z</time></trkpt><trkpt lat="59.2889603321" lon="34.6777724102"><ele>155.87</ele><time>2026-08-16T11:35:36Z</time></trkpt><trkpt lat="59.2888766807" lon="34.6778449975"><ele>155.87</ele><time>2026-08-16T11:35:49Z</time></trkpt><trkpt lat="59.2888223659" lon="34.6779594943"><ele>156.35</ele><time>2026-08-16T11:36:02Z</time></trkpt><trkpt lat="59.2887684703" lon="34.6780547965"><ele>156.83</ele><time>2026-08-16T11:36:12Z</time></trkpt><trkpt lat="59.2887313385" lon="34.6781034116"><ele>156.83</ele><time>2026-08-16T11:36:16Z</time></trkpt><trkpt lat="59.2886169255" lon="34.6782521065"><ele>157.31</ele><time>2026-08-16T11:36:28Z</time></trkpt><trkpt lat="59.2885446735" lon="34.6783523541"><ele>157.31</ele><time>2026-08-16T11:36:39Z</time></trkpt><trkpt lat="59.2884991597" lon="34.6784820221"><ele>157.79</ele><time>2026-08-16T11:36:50Z</time></trkpt><trkpt lat="59.2884497065" lon="34.6785609797"><ele>157.79</ele><time>2026-08-16T11:37:02Z</time></trkpt><trkpt lat="59.2883177754" lon="34.6786520910"><ele>157.79</ele><time>2026-08-16T11:37:13Z</time></trkpt><trkpt lat="59.2882577609" lon="34.6786887199"><ele>157.79</ele><time>2026-08-16T11:37:25Z</time></trkpt><trkpt lat="59.2882326152" lon="34.6788010374"><ele>157.79</ele><time>2026-08-16T11:37:37Z</time></trkpt><trkpt lat="59.2881472874" lon="34.6789165400"><ele>157.79</ele><time>2026-08-16T11:37:49Z</time></trkpt><trkpt lat="59.2880997621" lon="34.6791564301"><ele>157.79</ele><time>2026-08-16T11:38:04Z</time></trkpt><trkpt lat="59.2880695872" lon="34.6792969108"><ele>157.31</ele><time>2026-08-16T11:38:17Z</time></trkpt><trkpt lat="59.2880795617" lon="34.6793154348"><ele>157.79</ele><time>2026-08-16T11:38:43Z</time></trkpt><trkpt lat="59.2880664021" lon="34.6793166921"><ele>157.79</ele><time>2026-08-16T11:39:10Z</time></trkpt><trkpt lat="59.2880515661" lon="34.6793211345"><ele>157.79</ele><time>2026-08-16T11:39:18Z</time></trkpt><trkpt lat="59.2879615445" lon="34.6793549135"><ele>157.79</ele><time>2026-08-16T11:39:30Z</time></trkpt><trkpt lat="59.2879499774" lon="34.6793671511"><ele>157.79</ele><time>2026-08-16T11:39:32Z</time></trkpt><trkpt lat="59.2878801562" lon="34.6794850007"><ele>157.79</ele><time>2026-08-16T11:39:44Z</time></trkpt><trkpt lat="59.2878274340" lon="34.6794733498"><ele>158.27</ele><time>2026-08-16T11:39:58Z</time></trkpt><trkpt lat="59.2877172120" lon="34.6795041952"><ele>158.75</ele><time>2026-08-16T11:40:11Z</time></trkpt><trkpt lat="59.2875966802" lon="34.6795081347"><ele>158.75</ele><time>2026-08-16T11:40:22Z</time></trkpt><trkpt lat="59.2875225842" lon="34.6796368808"><ele>159.24</ele><time>2026-08-16T11:40:34Z</time></trkpt><trkpt lat="59.2874260247" lon="34.6797736734"><ele>159.24</ele><time>2026-08-16T11:40:47Z</time></trkpt><trkpt lat="59.2873293813" lon="34.6799163334"><ele>159.24</ele><time>2026-08-16T11:40:59Z</time></trkpt><trkpt lat="59.2872236017" lon="34.6800860669"><ele>159.24</ele><time>2026-08-16T11:41:10Z</time></trkpt><trkpt lat="59.2872096039" lon="34.6801690478"><ele>159.24</ele><time>2026-08-16T11:41:15Z</time></trkpt><trkpt lat="59.2871549539" lon="34.6802783478"><ele>159.24</ele><time>2026-08-16T11:41:27Z</time></trkpt><trkpt lat="59.2870675307" lon="34.6802946087"><ele>159.24</ele><time>2026-08-16T11:41:36Z</time></trkpt><trkpt lat="59.2870407924" lon="34.6803191677"><ele>159.72</ele><time>2026-08-16T11:41:53Z</time></trkpt><trkpt lat="59.2870386131" lon="34.6803389490"><ele>159.72</ele><time>2026-08-16T11:42:16Z</time></trkpt><trkpt lat="59.2870124616" lon="34.6803549584"><ele>159.72</ele><time>2026-08-16T11:42:41Z</time></trkpt><trkpt lat="59.2869278882" lon="34.6803306509"><ele>159.72</ele><time>2026-08-16T11:42:54Z</time></trkpt><trkpt lat="59.2868549656" lon="34.6803192515"><ele>159.72</ele><time>2026-08-16T11:43:05Z</time></trkpt><trkpt lat="59.2867344338" lon="34.6803614963"><ele>158.75</ele><time>2026-08-16T11:43:18Z</time></trkpt><trkpt lat="59.2866510339" lon="34.6804017294"><ele>158.75</ele><time>2026-08-16T11:43:32Z</time></trkpt><trkpt lat="59.2865956295" lon="34.6804417949"><ele>158.27</ele><time>2026-08-16T11:43:43Z</time></trkpt><trkpt lat="59.2865550611" lon="34.6805510111"><ele>158.27</ele><time>2026-08-16T11:43:55Z</time></trkpt><trkpt lat="59.2865092959" lon="34.6807163022"><ele>157.79</ele><time>2026-08-16T11:44:07Z</time></trkpt><trkpt lat="59.2864358705" lon="34.6807780769"><ele>155.87</ele><time>2026-08-16T11:44:19Z</time></trkpt><trkpt lat="59.2863678932" lon="34.6808484010"><ele>154.91</ele><time>2026-08-16T11:44:31Z</time></trkpt><trkpt lat="59.2863214575" lon="34.6808937471"><ele>154.91</ele><time>2026-08-16T11:44:40Z</time></trkpt><trkpt lat="59.2862491217" lon="34.6809898037"><ele>154.91</ele><time>2026-08-16T11:44:53Z</time></trkpt><trkpt lat="59.2861966509" lon="34.6811348945"><ele>154.43</ele><time>2026-08-16T11:45:05Z</time></trkpt><trkpt lat="59.2861508857" lon="34.6812373213"><ele>154.43</ele><time>2026-08-16T11:45:25Z</time></trkpt><trkpt lat="59.2861438449" lon="34.6812510677"><ele>154.43</ele><time>2026-08-16T11:45:40Z</time></trkpt><trkpt lat="59.2861132510" lon="34.6812670771"><ele>154.43</ele><time>2026-08-16T11:46:03Z</time></trkpt><trkpt lat="59.2861010972" lon="34.6812882833"><ele>154.43</ele><time>2026-08-16T11:46:20Z</time></trkpt><trkpt lat="59.2860861775" lon="34.6813011914"><ele>154.43</ele><time>2026-08-16T11:46:48Z</time></trkpt><trkpt lat="59.2860898655" lon="34.6812935639"><ele>154.43</ele><time>2026-08-16T11:47:07Z</time></trkpt><trkpt lat="59.2860879377" lon="34.6813135967"><ele>154.43</ele><time>2026-08-16T11:47:24Z</time></trkpt><trkpt lat="59.2860773765" lon="34.6813229844"><ele>154.43</ele><time>2026-08-16T11:47:40Z</time></trkpt><trkpt lat="59.2860355508" lon="34.6813488845"><ele>154.43</ele><time>2026-08-16T11:47:53Z</time></trkpt><trkpt lat="59.2859931383" lon="34.6813731082"><ele>154.43</ele><time>2026-08-16T11:48:06Z</time></trkpt><trkpt lat="59.2859366443" lon="34.6813887823"><ele>155.87</ele><time>2026-08-16T11:48:21Z</time></trkpt><trkpt lat="59.2858847603" lon="34.6814788040"><ele>155.87</ele><time>2026-08-16T11:48:33Z</time></trkpt><trkpt lat="59.2858300265" lon="34.6815565880"><ele>155.87</ele><time>2026-08-16T11:48:43Z</time></trkpt><trkpt lat="59.2857686710" lon="34.6816237271"><ele>155.87</ele><time>2026-08-16T11:48:55Z</time></trkpt><trkpt lat="59.2857501470" lon="34.6816613618"><ele>155.87</ele><time>2026-08-16T11:49:02Z</time></trkpt><trkpt lat="59.2856989335" lon="34.6817539819"><ele>154.43</ele><time>2026-08-16T11:49:14Z</time></trkpt><trkpt lat="59.2856333870" lon="34.6819731686"><ele>154.43</ele><time>2026-08-16T11:49:28Z</time></trkpt><trkpt lat="59.2855853587" lon="34.6821173374"><ele>153.95</ele><time>2026-08-16T11:49:41Z</time></trkpt><trkpt lat="59.2855298705" lon="34.6822554711"><ele>153.95</ele><time>2026-08-16T11:49:53Z</time></trkpt><trkpt lat="59.2854879610" lon="34.6823560540"><ele>153.95</ele><time>2026-08-16T11:50:05Z</time></trkpt><trkpt lat="59.2853799183" lon="34.6825107839"><ele>153.95</ele><time>2026-08-16T11:50:18Z</time></trkpt><trkpt lat="59.2853314709" lon="34.6826225985"><ele>153.95</ele><time>2026-08-16T11:50:29Z</time></trkpt><trkpt lat="59.2853056546" lon="34.6828368399"><ele>153.47</ele><time>2026-08-16T11:50:43Z</time></trkpt><trkpt lat="59.2852954287" lon="34.6829089243"><ele>153.47</ele><time>2026-08-16T11:51:09Z</time></trkpt><trkpt lat="59.2852919083" lon="34.6829336509"><ele>152.99</ele><time>2026-08-16T11:51:42Z</time></trkpt><trkpt lat="59.2853187304" lon="34.6829978563"><ele>152.51</ele><time>2026-08-16T11:52:00Z</time></trkpt><trkpt lat="59.2853478994" lon="34.6830674261"><ele>152.51</ele><time>2026-08-16T11:52:15Z</time></trkpt><trkpt lat="59.2853688542" lon="34.6831071563"><ele>153.47</ele><time>2026-08-16T11:52:19Z</time></trkpt><trkpt lat="59.2854305450" lon="34.6831107605"><ele>153.95</ele><time>2026-08-16T11:52:31Z</time></trkpt><trkpt lat="59.2854424473" lon="34.6832190547"><ele>153.47</ele><time>2026-08-16T11:52:43Z</time></trkpt><trkpt lat="59.2854865361" lon="34.6834160294"><ele>153.47</ele><time>2026-08-16T11:52:55Z</time></trkpt><trkpt lat="59.2855296191" lon="34.6835617069"><ele>153.95</ele><time>2026-08-16T11:53:08Z</time></trkpt><trkpt lat="59.2855715286" lon="34.6837379783"><ele>153.95</ele><time>2026-08-16T11:53:20Z</time></trkpt><trkpt lat="59.2856136896" lon="34.6839399822"><ele>153.95</ele><time>2026-08-16T11:53:35Z</time></trkpt><trkpt lat="59.2856233288" lon="34.6839966439"><ele>153.95</ele><time>2026-08-16T11:53:39Z</time></trkpt><trkpt lat="59.2856369913" lon="34.6842094604"><ele>153.95</ele><time>2026-08-16T11:53:53Z</time></trkpt><trkpt lat="59.2856306210" lon="34.6843565628"><ele>154.43</ele><time>2026-08-16T11:54:07Z</time></trkpt><trkpt lat="59.2855505738" lon="34.6844654437"><ele>154.43</ele><time>2026-08-16T11:54:18Z</time></trkpt><trkpt lat="59.2855473887" lon="34.6844766755"><ele>154.43</ele><time>2026-08-16T11:54:19Z</time></trkpt><trkpt lat="59.2854706105" lon="34.6846653521"><ele>154.43</ele><time>2026-08-16T11:54:32Z</time></trkpt><trkpt lat="59.2854533438" lon="34.6847619954"><ele>154.43</ele><time>2026-08-16T11:54:42Z</time></trkpt><trkpt lat="59.2854685988" lon="34.6848516818"><ele>154.91</ele><time>2026-08-16T11:54:55Z</time></trkpt><trkpt lat="59.2854849435" lon="34.6848686133"><ele>155.39</ele><time>2026-08-16T11:55:14Z</time></trkpt><trkpt lat="59.2854935769" lon="34.6848781686"><ele>155.39</ele><time>2026-08-16T11:55:29Z</time></trkpt><trkpt lat="59.2854937445" lon="34.6848877240"><ele>155.39</ele><time>2026-08-16T11:55:45Z</time></trkpt><trkpt lat="59.2855131067" lon="34.6849957667"><ele>154.91</ele><time>2026-08-16T11:55:56Z</time></trkpt><trkpt lat="59.2855629791" lon="34.6852554381"><ele>155.39</ele><time>2026-08-16T11:56:11Z</time></trkpt><trkpt lat="59.2856222391" lon="34.6854020376"><ele>155.39</ele><time>2026-08-16T11:56:24Z</time></trkpt><trkpt lat="59.2857472133" lon="34.6854034625"><ele>156.83</ele><time>2026-08-16T11:56:39Z</time></trkpt><trkpt lat="59.2858026177" lon="34.6854046360"><ele>157.31</ele><time>2026-08-16T11:56:48Z</time></trkpt><trkpt lat="59.2858766299" lon="34.6855550073"><ele>157.31</ele><time>2026-08-16T11:57:02Z</time></trkpt><trkpt lat="59.2858773004" lon="34.6855835896"><ele>157.31</ele><time>2026-08-16T11:57:04Z</time></trkpt><trkpt lat="59.2858630512" lon="34.6857520659"><ele>156.83</ele><time>2026-08-16T11:57:17Z</time></trkpt><trkpt lat="59.2858481314" lon="34.6859175246"><ele>156.83</ele><time>2026-08-16T11:57:28Z</time></trkpt><trkpt lat="59.2858323734" lon="34.6859332826"><ele>156.83</ele><time>2026-08-16T11:57:55Z</time></trkpt><trkpt lat="59.2858300265" lon="34.6859351266"><ele>155.87</ele><time>2026-08-16T11:58:12Z</time></trkpt><trkpt lat="59.2858306970" lon="34.6859483700"><ele>155.87</ele><time>2026-08-16T11:58:36Z</time></trkpt><trkpt lat="59.2858302779" lon="34.6859610267"><ele>155.87</ele><time>2026-08-16T11:58:48Z</time></trkpt><trkpt lat="59.2858535796" lon="34.6859760303"><ele>155.87</ele><time>2026-08-16T11:58:55Z</time></trkpt><trkpt lat="59.2859081458" lon="34.6861813031"><ele>155.87</ele><time>2026-08-16T11:59:10Z</time></trkpt><trkpt lat="59.2859629635" lon="34.6862500347"><ele>155.87</ele><time>2026-08-16T11:59:22Z</time></trkpt><trkpt lat="59.2860618699" lon="34.6863612626"><ele>155.39</ele><time>2026-08-16T11:59:34Z</time></trkpt><trkpt lat="59.2861505505" lon="34.6864109673"><ele>154.91</ele><time>2026-08-16T11:59:45Z</time></trkpt><trkpt lat="59.2862258200" lon="34.6864735801"><ele>154.91</ele><time>2026-08-16T11:59:58Z</time></trkpt><trkpt lat="59.2863094714" lon="34.6865230333"><ele>154.43</ele><time>2026-08-16T12:00:10Z</time></trkpt><trkpt lat="59.2863492016" lon="34.6866718959"><ele>154.43</ele><time>2026-08-16T12:00:22Z</time></trkpt><trkpt lat="59.2863663845" lon="34.6867294796"><ele>153.95</ele><time>2026-08-16T12:00:27Z</time></trkpt><trkpt lat="59.2864585016" lon="34.6869217604"><ele>153.95</ele><time>2026-08-16T12:00:39Z</time></trkpt><trkpt lat="59.2864878383" lon="34.6869909111"><ele>153.95</ele><time>2026-08-16T12:00:44Z</time></trkpt><trkpt lat="59.2865143251" lon="34.6871316433"><ele>153.47</ele><time>2026-08-16T12:01:01Z</time></trkpt><trkpt lat="59.2865873314" lon="34.6871499158"><ele>153.47</ele><time>2026-08-16T12:01:12Z</time></trkpt><trkpt lat="59.2866237927" lon="34.6871507540"><ele>152.99</ele><time>2026-08-16T12:01:32Z</time></trkpt><trkpt lat="59.2866960447" lon="34.6871690266"><ele>152.99</ele><time>2026-08-16T12:02:00Z</time></trkpt><trkpt lat="59.2867259681" lon="34.6872321423"><ele>152.99</ele><time>2026-08-16T12:02:19Z</time></trkpt><trkpt lat="59.2867750023" lon="34.6873060707"><ele>152.99</ele><time>2026-08-16T12:02:31Z</time></trkpt><trkpt lat="59.2868133076" lon="34.6875282750"><ele>152.51</ele><time>2026-08-16T12:02:45Z</time></trkpt><trkpt lat="59.2868812010" lon="34.6876484714"><ele>152.51</ele><time>2026-08-16T12:02:58Z</time></trkpt><trkpt lat="59.2869444005" lon="34.6877861861"><ele>152.03</ele><time>2026-08-16T12:03:09Z</time></trkpt><trkpt lat="59.2869672831" lon="34.6878291853"><ele>152.03</ele><time>2026-08-16T12:03:12Z</time></trkpt><trkpt lat="59.2870274652" lon="34.6879667323"><ele>152.03</ele><time>2026-08-16T12:03:23Z</time></trkpt><trkpt lat="59.2870785948" lon="34.6881191153"><ele>151.54</ele><time>2026-08-16T12:03:35Z</time></trkpt><trkpt lat="59.2871141341" lon="34.6881853323"><ele>151.54</ele><time>2026-08-16T12:03:48Z</time></trkpt><trkpt lat="59.2871624138" lon="34.6882953867"><ele>151.06</ele><time>2026-08-16T12:03:58Z</time></trkpt><trkpt lat="59.2872079276" lon="34.6884541400"><ele>151.06</ele><time>2026-08-16T12:04:10Z</time></trkpt><trkpt lat="59.2872684449" lon="34.6885890886"><ele>150.58</ele><time>2026-08-16T12:04:21Z</time></trkpt><trkpt lat="59.2873044033" lon="34.6886320040"><ele>150.58</ele><time>2026-08-16T12:04:31Z</time></trkpt><trkpt lat="59.2873243522" lon="34.6886519529"><ele>150.10</ele><time>2026-08-16T12:04:43Z</time></trkpt><trkpt lat="59.2873435467" lon="34.6886545513"><ele>150.10</ele><time>2026-08-16T12:05:00Z</time></trkpt><trkpt lat="59.2873908207" lon="34.6886735782"><ele>150.10</ele><time>2026-08-16T12:05:19Z</time></trkpt><trkpt lat="59.2874011304" lon="34.6886710636"><ele>150.10</ele><time>2026-08-16T12:05:36Z</time></trkpt><trkpt lat="59.2874119431" lon="34.6886698902"><ele>150.10</ele><time>2026-08-16T12:05:58Z</time></trkpt><trkpt lat="59.2874164693" lon="34.6886979695"><ele>150.10</ele><time>2026-08-16T12:06:11Z</time></trkpt><trkpt lat="59.2874385975" lon="34.6887229476"><ele>150.10</ele><time>2026-08-16T12:06:23Z</time></trkpt><trkpt lat="59.2875053175" lon="34.6888221055"><ele>149.62</ele><time>2026-08-16T12:06:34Z</time></trkpt><trkpt lat="59.2875374202" lon="34.6888415515"><ele>149.14</ele><time>2026-08-16T12:06:52Z</time></trkpt><trkpt lat="59.2875758093" lon="34.6888333373"><ele>149.14</ele><time>2026-08-16T12:07:08Z</time></trkpt><trkpt lat="59.2875795811" lon="34.6888280567"><ele>149.14</ele><time>2026-08-16T12:07:18Z</time></trkpt><trkpt lat="59.2875812575" lon="34.6888675354"><ele>149.14</ele><time>2026-08-16T12:07:28Z</time></trkpt><trkpt lat="59.2875777371" lon="34.6888788510"><ele>149.14</ele><time>2026-08-16T12:07:43Z</time></trkpt><trkpt lat="59.2875957582" lon="34.6889232751"><ele>149.14</ele><time>2026-08-16T12:07:57Z</time></trkpt><trkpt lat="59.2876281124" lon="34.6890210081"><ele>149.14</ele><time>2026-08-16T12:08:10Z</time></trkpt><trkpt lat="59.2876439542" lon="34.6890728921"><ele>150.10</ele><time>2026-08-16T12:08:24Z</time></trkpt><trkpt lat="59.2876737099" lon="34.6892151330"><ele>150.58</ele><time>2026-08-16T12:08:36Z</time></trkpt><trkpt lat="59.2876783200" lon="34.6892368421"><ele>150.58</ele><time>2026-08-16T12:08:37Z</time></trkpt><trkpt lat="59.2877794057" lon="34.6892364230"><ele>151.06</ele><time>2026-08-16T12:08:51Z</time></trkpt><trkpt lat="59.2878879514" lon="34.6892338246"><ele>151.06</ele><time>2026-08-16T12:09:05Z</time></trkpt><trkpt lat="59.2879865225" lon="34.6891769953"><ele>150.58</ele><time>2026-08-16T12:09:17Z</time></trkpt><trkpt lat="59.2880844232" lon="34.6891679429"><ele>150.58</ele><time>2026-08-16T12:09:29Z</time></trkpt><trkpt lat="59.2881278414" lon="34.6891775820"><ele>150.58</ele><time>2026-08-16T12:09:50Z</time></trkpt><trkpt lat="59.2882074695" lon="34.6891687810"><ele>150.58</ele><time>2026-08-16T12:10:11Z</time></trkpt><trkpt lat="59.2882961500" lon="34.6892145462"><ele>150.58</ele><time>2026-08-16T12:10:25Z</time></trkpt><trkpt lat="59.2884100601" lon="34.6893129498"><ele>150.58</ele><time>2026-08-16T12:10:35Z</time></trkpt><trkpt lat="59.2884473596" lon="34.6893738024"><ele>150.58</ele><time>2026-08-16T12:10:41Z</time></trkpt><trkpt lat="59.2884770315" lon="34.6895458829"><ele>150.58</ele><time>2026-08-16T12:10:54Z</time></trkpt><trkpt lat="59.2884835694" lon="34.6896434482"><ele>150.58</ele><time>2026-08-16T12:11:05Z</time></trkpt><trkpt lat="59.2885344476" lon="34.6897566039"><ele>150.58</ele><time>2026-08-16T12:11:17Z</time></trkpt><trkpt lat="59.2886098847" lon="34.6899339650"><ele>149.14</ele><time>2026-08-16T12:11:29Z</time></trkpt><trkpt lat="59.2886155844" lon="34.6900730208"><ele>148.66</ele><time>2026-08-16T12:11:42Z</time></trkpt><trkpt lat="59.2886367068" lon="34.6902098134"><ele>147.22</ele><time>2026-08-16T12:11:54Z</time></trkpt><trkpt lat="59.2886610981" lon="34.6903439239"><ele>146.74</ele><time>2026-08-16T12:12:05Z</time></trkpt><trkpt lat="59.2886740062" lon="34.6904340293"><ele>146.26</ele><time>2026-08-16T12:12:18Z</time></trkpt><trkpt lat="59.2886910215" lon="34.6904750168"><ele>146.26</ele><time>2026-08-16T12:12:34Z</time></trkpt><trkpt lat="59.2887213640" lon="34.6904062014"><ele>146.26</ele><time>2026-08-16T12:12:47Z</time></trkpt><trkpt lat="59.2887295783" lon="34.6903298423"><ele>146.26</ele><time>2026-08-16T12:13:01Z</time></trkpt><trkpt lat="59.2887679674" lon="34.6902132500"><ele>146.26</ele><time>2026-08-16T12:13:13Z</time></trkpt><trkpt lat="59.2887923587" lon="34.6901430935"><ele>146.26</ele><time>2026-08-16T12:13:24Z</time></trkpt><trkpt lat="59.2888499424" lon="34.6901279222"><ele>146.26</ele><time>2026-08-16T12:13:36Z</time></trkpt><trkpt lat="59.2889164109" lon="34.6900293510"><ele>146.26</ele><time>2026-08-16T12:13:52Z</time></trkpt><trkpt lat="59.2889341805" lon="34.6900469530"><ele>147.22</ele><time>2026-08-16T12:14:14Z</time></trkpt><trkpt lat="59.2889410537" lon="34.6900645550"><ele>147.22</ele><time>2026-08-16T12:14:16Z</time></trkpt><trkpt lat="59.2889703903" lon="34.6901575942"><ele>147.22</ele><time>2026-08-16T12:14:27Z</time></trkpt><trkpt lat="59.2889960390" lon="34.6902835742"><ele>147.22</ele><time>2026-08-16T12:14:37Z</time></trkpt><trkpt lat="59.2890353501" lon="34.6903942153"><ele>147.22</ele><time>2026-08-16T12:14:50Z</time></trkpt><trkpt lat="59.2890449893" lon="34.6905278228"><ele>146.74</ele><time>2026-08-16T12:15:03Z</time></trkpt><trkpt lat="59.2890675366" lon="34.6906167548"><ele>146.74</ele><time>2026-08-16T12:15:16Z</time></trkpt><trkpt lat="59.2890769243" lon="34.6906218678"><ele>146.74</ele><time>2026-08-16T12:15:35Z</time></trkpt><trkpt lat="59.2890654411" lon="34.6906496957"><ele>146.74</ele><time>2026-08-16T12:15:57Z</time></trkpt><trkpt lat="59.2890843004" lon="34.6906524617"><ele>146.74</ele><time>2026-08-16T12:16:11Z</time></trkpt><trkpt lat="59.2891357653" lon="34.6906795353"><ele>146.74</ele><time>2026-08-16T12:16:23Z</time></trkpt><trkpt lat="59.2891984619" lon="34.6907227859"><ele>146.74</ele><time>2026-08-16T12:16:36Z</time></trkpt><trkpt lat="59.2892311513" lon="34.6908465866"><ele>146.74</ele><time>2026-08-16T12:16:46Z</time></trkpt><trkpt lat="59.2893128749" lon="34.6910423040"><ele>146.74</ele><time>2026-08-16T12:16:57Z</time></trkpt><trkpt lat="59.2893302254" lon="34.6911894064"><ele>146.74</ele><time>2026-08-16T12:17:09Z</time></trkpt><trkpt lat="59.2893306445" lon="34.6912764106"><ele>146.74</ele><time>2026-08-16T12:17:17Z</time></trkpt><trkpt lat="59.2893420439" lon="34.6913490817"><ele>146.74</ele><time>2026-08-16T12:17:29Z</time></trkpt><trkpt lat="59.2893680278" lon="34.6915103495"><ele>146.74</ele><time>2026-08-16T12:17:42Z</time></trkpt><trkpt lat="59.2893994600" lon="34.6916202363"><ele>146.74</ele><time>2026-08-16T12:17:52Z</time></trkpt><trkpt lat="59.2894238513" lon="34.6917051449"><ele>146.74</ele><time>2026-08-16T12:18:03Z</time></trkpt><trkpt lat="59.2894310597" lon="34.6918170433"><ele>146.74</ele><time>2026-08-16T12:18:16Z</time></trkpt><trkpt lat="59.2894479912" lon="34.6919287741"><ele>146.74</ele><time>2026-08-16T12:18:26Z</time></trkpt><trkpt lat="59.2894634139" lon="34.6921023633"><ele>146.74</ele><time>2026-08-16T12:18:38Z</time></trkpt><trkpt lat="59.2894990370" lon="34.6921259165"><ele>146.26</ele><time>2026-08-16T12:18:50Z</time></trkpt><trkpt lat="59.2895038147" lon="34.6921400819"><ele>146.26</ele><time>2026-08-16T12:18:52Z</time></trkpt><trkpt lat="59.2896082532" lon="34.6923005953"><ele>146.26</ele><time>2026-08-16T12:19:05Z</time></trkpt><trkpt lat="59.2896307167" lon="34.6923347097"><ele>146.26</ele><time>2026-08-16T12:19:16Z</time></trkpt><trkpt lat="59.2897183914" lon="34.6924030222"><ele>146.26</ele><time>2026-08-16T12:19:30Z</time></trkpt><trkpt lat="59.2897938285" lon="34.6924806386"><ele>146.26</ele><time>2026-08-16T12:19:43Z</time></trkpt><trkpt lat="59.2898216564" lon="34.6925743483"><ele>146.26</ele><time>2026-08-16T12:19:55Z</time></trkpt><trkpt lat="59.2898167111" lon="34.6926080436"><ele>146.26</ele><time>2026-08-16T12:20:22Z</time></trkpt><trkpt lat="59.2898215726" lon="34.6926024277"><ele>146.26</ele><time>2026-08-16T12:20:36Z</time></trkpt><trkpt lat="59.2898143642" lon="34.6927237138"><ele>146.26</ele><time>2026-08-16T12:20:47Z</time></trkpt><trkpt lat="59.2897951696" lon="34.6928407252"><ele>146.26</ele><time>2026-08-16T12:20:57Z</time></trkpt><trkpt lat="59.2897418607" lon="34.6929142345"><ele>146.26</ele><time>2026-08-16T12:21:07Z</time></trkpt><trkpt lat="59.2897521704" lon="34.6930438187"><ele>146.26</ele><time>2026-08-16T12:21:20Z</time></trkpt><trkpt lat="59.2897809204" lon="34.6931680385"><ele>146.26</ele><time>2026-08-16T12:21:32Z</time></trkpt><trkpt lat="59.2897779029" lon="34.6931907535"><ele>146.26</ele><time>2026-08-16T12:21:51Z</time></trkpt><trkpt lat="59.2897596303" lon="34.6932052542"><ele>146.26</ele><time>2026-08-16T12:22:18Z</time></trkpt><trkpt lat="59.2897657491" lon="34.6932191681"><ele>146.26</ele><time>2026-08-16T12:22:41Z</time></trkpt><trkpt lat="59.2897459678" lon="34.6932202578"><ele>146.26</ele><time>2026-08-16T12:23:01Z</time></trkpt><trkpt lat="59.2896908149" lon="34.6932408772"><ele>146.26</ele><time>2026-08-16T12:23:12Z</time></trkpt><trkpt lat="59.2896676809" lon="34.6932815295"><ele>146.26</ele><time>2026-08-16T12:23:22Z</time></trkpt><trkpt lat="59.2896299623" lon="34.6933446452"><ele>146.26</ele><time>2026-08-16T12:23:34Z</time></trkpt><trkpt lat="59.2895685229" lon="34.6934114490"><ele>146.26</ele><time>2026-08-16T12:23:44Z</time></trkpt><trkpt lat="59.2895225901" lon="34.6934137959"><ele>146.26</ele><time>2026-08-16T12:23:55Z</time></trkpt><trkpt lat="59.2895179801" lon="34.6934210882"><ele>146.26</ele><time>2026-08-16T12:24:04Z</time></trkpt><trkpt lat="59.2894859612" lon="34.6934401989"><ele>146.26</ele><time>2026-08-16T12:24:16Z</time></trkpt><trkpt lat="59.2894494999" lon="34.6935183182"><ele>146.26</ele><time>2026-08-16T12:24:28Z</time></trkpt><trkpt lat="59.2894180678" lon="34.6936738864"><ele>146.26</ele><time>2026-08-16T12:24:40Z</time></trkpt><trkpt lat="59.2893994600" lon="34.6937784925"><ele>146.26</ele><time>2026-08-16T12:24:48Z</time></trkpt><trkpt lat="59.2893747333" lon="34.6937971003"><ele>146.26</ele><time>2026-08-16T12:25:02Z</time></trkpt><trkpt lat="59.2893445585" lon="34.6938018780"><ele>146.26</ele><time>2026-08-16T12:25:12Z</time></trkpt><trkpt lat="59.2893101089" lon="34.6938338131"><ele>146.26</ele><time>2026-08-16T12:25:26Z</time></trkpt><trkpt lat="59.2892974522" lon="34.6938602161"><ele>146.26</ele><time>2026-08-16T12:25:42Z</time></trkpt><trkpt lat="59.2892969493" lon="34.6938614734"><ele>146.26</ele><time>2026-08-16T12:25:43Z</time></trkpt><trkpt lat="59.2892974522" lon="34.6938495710"><ele>146.26</ele><time>2026-08-16T12:25:53Z</time></trkpt><trkpt lat="59.2892987095" lon="34.6938375011"><ele>146.26</ele><time>2026-08-16T12:26:06Z</time></trkpt><trkpt lat="59.2893098574" lon="34.6938117687"><ele>146.26</ele><time>2026-08-16T12:26:16Z</time></trkpt><trkpt lat="59.2893324886" lon="34.6937405225"><ele>145.30</ele><time>2026-08-16T12:26:26Z</time></trkpt><trkpt lat="59.2894137092" lon="34.6937458869"><ele>145.30</ele><time>2026-08-16T12:26:39Z</time></trkpt><trkpt lat="59.2894596420" lon="34.6937410254"><ele>145.30</ele><time>2026-08-16T12:26:51Z</time></trkpt><trkpt lat="59.2894980311" lon="34.6937379241"><ele>144.82</ele><time>2026-08-16T12:27:02Z</time></trkpt><trkpt lat="59.2895262782" lon="34.6937260218"><ele>144.82</ele><time>2026-08-16T12:27:17Z</time></trkpt><trkpt lat="59.2895787489" lon="34.6937437076"><ele>144.82</ele><time>2026-08-16T12:27:35Z</time></trkpt><trkpt lat="59.2895909026" lon="34.6937021334"><ele>144.82</ele><time>2026-08-16T12:27:49Z</time></trkpt><trkpt lat="59.2896188982" lon="34.6936424542"><ele>144.82</ele><time>2026-08-16T12:28:01Z</time></trkpt><trkpt lat="59.2896473128" lon="34.6936061606"><ele>144.82</ele><time>2026-08-16T12:28:12Z</time></trkpt><trkpt lat="59.2896720394" lon="34.6936548594"><ele>144.82</ele><time>2026-08-16T12:28:23Z</time></trkpt><trkpt lat="59.2896982748" lon="34.6936735511"><ele>144.82</ele><time>2026-08-16T12:28:37Z</time></trkpt><trkpt lat="59.2897561099" lon="34.6936750598"><ele>144.82</ele><time>2026-08-16T12:28:50Z</time></trkpt><trkpt lat="59.2897385079" lon="34.6936067473"><ele>144.34</ele><time>2026-08-16T12:29:01Z</time></trkpt><trkpt lat="59.2897393461" lon="34.6935007162"><ele>144.34</ele><time>2026-08-16T12:29:12Z</time></trkpt><trkpt lat="59.2897912301" lon="34.6933646780"><ele>144.34</ele><time>2026-08-16T12:29:25Z</time></trkpt><trkpt lat="59.2898064014" lon="34.6933056694"><ele>144.34</ele><time>2026-08-16T12:29:40Z</time></trkpt><trkpt lat="59.2898120172" lon="34.6932487562"><ele>144.34</ele><time>2026-08-16T12:29:51Z</time></trkpt><trkpt lat="59.2897965945" lon="34.6931960341"><ele>144.34</ele><time>2026-08-16T12:30:02Z</time></trkpt><trkpt lat="59.2898132745" lon="34.6930827945"><ele>144.34</ele><time>2026-08-16T12:30:15Z</time></trkpt><trkpt lat="59.2898495682" lon="34.6930047590"><ele>145.30</ele><time>2026-08-16T12:30:26Z</time></trkpt><trkpt lat="59.2899048049" lon="34.6930096205"><ele>145.30</ele><time>2026-08-16T12:30:40Z</time></trkpt><trkpt lat="59.2899509054" lon="34.6930843033"><ele>145.30</ele><time>2026-08-16T12:30:51Z</time></trkpt><trkpt lat="59.2900215648" lon="34.6931263804"><ele>146.26</ele><time>2026-08-16T12:31:06Z</time></trkpt><trkpt lat="59.2900548410" lon="34.6931450721"><ele>146.74</ele><time>2026-08-16T12:31:14Z</time></trkpt><trkpt lat="59.2900827527" lon="34.6931853052"><ele>146.74</ele><time>2026-08-16T12:31:18Z</time></trkpt><trkpt lat="59.2900986783" lon="34.6933834534"><ele>146.74</ele><time>2026-08-16T12:31:29Z</time></trkpt><trkpt lat="59.2901254166" lon="34.6935818531"><ele>146.74</ele><time>2026-08-16T12:31:40Z</time></trkpt><trkpt lat="59.2901394144" lon="34.6938394289"><ele>147.22</ele><time>2026-08-16T12:31:52Z</time></trkpt><trkpt lat="59.2901557591" lon="34.6940665785"><ele>147.70</ele><time>2026-08-16T12:32:04Z</time></trkpt><trkpt lat="59.2901475448" lon="34.6942928061"><ele>148.18</ele><time>2026-08-16T12:32:17Z</time></trkpt><trkpt lat="59.2901481315" lon="34.6943280101"><ele>148.18</ele><time>2026-08-16T12:32:21Z</time></trkpt><trkpt lat="59.2901819944" lon="34.6943278424"><ele>148.66</ele><time>2026-08-16T12:32:36Z</time></trkpt><trkpt lat="59.2901871912" lon="34.6943383198"><ele>148.66</ele><time>2026-08-16T12:32:56Z</time></trkpt><trkpt lat="59.2902091518" lon="34.6943972446"><ele>149.14</ele><time>2026-08-16T12:33:06Z</time></trkpt><trkpt lat="59.2902165279" lon="34.6944362205"><ele>149.14</ele><time>2026-08-16T12:33:08Z</time></trkpt><trkpt lat="59.2902612872" lon="34.6946085524"><ele>149.14</ele><time>2026-08-16T12:33:19Z</time></trkpt><trkpt lat="59.2902896181" lon="34.6947678924"><ele>149.14</ele><time>2026-08-16T12:33:31Z</time></trkpt><trkpt lat="59.2902930547" lon="34.6949004941"><ele>149.14</ele><time>2026-08-16T12:33:41Z</time></trkpt><trkpt lat="59.2903436814" lon="34.6950638574"><ele>149.14</ele><time>2026-08-16T12:33:53Z</time></trkpt><trkpt lat="59.2903700843" lon="34.6951470897"><ele>149.14</ele><time>2026-08-16T12:33:59Z</time></trkpt><trkpt lat="59.2903818190" lon="34.6952905040"><ele>149.14</ele><time>2026-08-16T12:34:08Z</time></trkpt><trkpt lat="59.2903893627" lon="34.6954818629"><ele>149.62</ele><time>2026-08-16T12:34:20Z</time></trkpt><trkpt lat="59.2904213816" lon="34.6955354232"><ele>149.62</ele><time>2026-08-16T12:34:25Z</time></trkpt><trkpt lat="59.2904440966" lon="34.6956705395"><ele>150.10</ele><time>2026-08-16T12:34:32Z</time></trkpt><trkpt lat="59.2904337030" lon="34.6957577113"><ele>150.10</ele><time>2026-08-16T12:34:36Z</time></trkpt><trkpt lat="59.2904311046" lon="34.6958153788"><ele>150.10</ele><time>2026-08-16T12:34:39Z</time></trkpt><trkpt lat="59.2904149275" lon="34.6958586294"><ele>149.62</ele><time>2026-08-16T12:34:54Z</time></trkpt><trkpt lat="59.2904232256" lon="34.6958602220"><ele>149.62</ele><time>2026-08-16T12:35:18Z</time></trkpt><trkpt lat="59.2904326133" lon="34.6959136147"><ele>149.62</ele><time>2026-08-16T12:35:37Z</time></trkpt><trkpt lat="59.2903918773" lon="34.6960834321"><ele>149.62</ele><time>2026-08-16T12:35:49Z</time></trkpt><trkpt lat="59.2903161049" lon="34.6962155309"><ele>149.62</ele><time>2026-08-16T12:36:01Z</time></trkpt><trkpt lat="59.2902461998" lon="34.6963039599"><ele>149.62</ele><time>2026-08-16T12:36:12Z</time></trkpt><trkpt lat="59.2901733611" lon="34.6963420976"><ele>149.62</ele><time>2026-08-16T12:36:21Z</time></trkpt><trkpt lat="59.2900770530" lon="34.6964180376"><ele>149.62</ele><time>2026-08-16T12:36:34Z</time></trkpt><trkpt lat="59.2900669947" lon="34.6964232344"><ele>149.62</ele><time>2026-08-16T12:36:35Z</time></trkpt><trkpt lat="59.2900033761" lon="34.6964959055"><ele>149.62</ele><time>2026-08-16T12:36:44Z</time></trkpt><trkpt lat="59.2899255920" lon="34.6966041997"><ele>149.62</ele><time>2026-08-16T12:36:55Z</time></trkpt><trkpt lat="59.2898756359" lon="34.6966451034"><ele>149.62</ele><time>2026-08-16T12:37:01Z</time></trkpt><trkpt lat="59.2898294516" lon="34.6966995858"><ele>149.62</ele><time>2026-08-16T12:37:08Z</time></trkpt><trkpt lat="59.2897079978" lon="34.6967295930"><ele>150.10</ele><time>2026-08-16T12:37:23Z</time></trkpt><trkpt lat="59.2896400206" lon="34.6968645416"><ele>150.10</ele><time>2026-08-16T12:37:34Z</time></trkpt><trkpt lat="59.2895674333" lon="34.6969389729"><ele>150.58</ele><time>2026-08-16T12:37:47Z</time></trkpt><trkpt lat="59.2895418685" lon="34.6969365422"><ele>150.58</ele><time>2026-08-16T12:38:04Z</time></trkpt><trkpt lat="59.2895485740" lon="34.6969305072"><ele>150.58</ele><time>2026-08-16T12:38:22Z</time></trkpt><trkpt lat="59.2895468976" lon="34.6969411522"><ele>150.58</ele><time>2026-08-16T12:38:43Z</time></trkpt><trkpt lat="59.2894976120" lon="34.6969789546"><ele>150.58</ele><time>2026-08-16T12:39:05Z</time></trkpt><trkpt lat="59.2894847039" lon="34.6970185172"><ele>150.58</ele><time>2026-08-16T12:39:08Z</time></trkpt><trkpt lat="59.2894008011" lon="34.6971912682"><ele>151.06</ele><time>2026-08-16T12:39:21Z</time></trkpt><trkpt lat="59.2893697880" lon="34.6972748358"><ele>151.06</ele><time>2026-08-16T12:39:32Z</time></trkpt><trkpt lat="59.2892926745" lon="34.6973352693"><ele>151.06</ele><time>2026-08-16T12:39:45Z</time></trkpt><trkpt lat="59.2892826162" lon="34.6973831300"><ele>151.06</ele><time>2026-08-16T12:39:48Z</time></trkpt><trkpt lat="59.2892497592" lon="34.6975449845"><ele>151.06</ele><time>2026-08-16T12:40:00Z</time></trkpt><trkpt lat="59.2892205901" lon="34.6977421269"><ele>151.06</ele><time>2026-08-16T12:40:13Z</time></trkpt><trkpt lat="59.2892023176" lon="34.6978969406"><ele>151.06</ele><time>2026-08-16T12:40:26Z</time></trkpt><trkpt lat="59.2891684547" lon="34.6980219148"><ele>151.06</ele><time>2026-08-16T12:40:39Z</time></trkpt><trkpt lat="59.2891300656" lon="34.6980441269"><ele>151.06</ele><time>2026-08-16T12:40:50Z</time></trkpt><trkpt lat="59.2890801933" lon="34.6980309673"><ele>151.06</ele><time>2026-08-16T12:41:03Z</time></trkpt><trkpt lat="59.2890343443" lon="34.6982013714"><ele>151.06</ele><time>2026-08-16T12:41:15Z</time></trkpt><trkpt lat="59.2890000623" lon="34.6983232442"><ele>151.06</ele><time>2026-08-16T12:41:26Z</time></trkpt><trkpt lat="59.2889708094" lon="34.6984834224"><ele>151.06</ele><time>2026-08-16T12:41:38Z</time></trkpt><trkpt lat="59.2889655288" lon="34.6987373102"><ele>151.06</ele><time>2026-08-16T12:41:50Z</time></trkpt><trkpt lat="59.2889498547" lon="34.6988977399"><ele>151.06</ele><time>2026-08-16T12:42:04Z</time></trkpt><trkpt lat="59.2889540456" lon="34.6989332791"><ele>151.06</ele><time>2026-08-16T12:42:25Z</time></trkpt><trkpt lat="59.2889485974" lon="34.6989506297"><ele>151.06</ele><time>2026-08-16T12:42:52Z</time></trkpt><trkpt lat="59.2889639363" lon="34.6991011687"><ele>151.06</ele><time>2026-08-16T12:43:03Z</time></trkpt><trkpt lat="59.2889750842" lon="34.6993294917"><ele>151.06</ele><time>2026-08-16T12:43:15Z</time></trkpt><trkpt lat="59.2889568117" lon="34.6993906796"><ele>150.10</ele><time>2026-08-16T12:43:26Z</time></trkpt><trkpt lat="59.2889117170" lon="34.6995592397"><ele>149.62</ele><time>2026-08-16T12:43:39Z</time></trkpt><trkpt lat="59.2888951208" lon="34.6997293085"><ele>149.62</ele><time>2026-08-16T12:43:52Z</time></trkpt><trkpt lat="59.2888832185" lon="34.6999232657"><ele>148.66</ele><time>2026-08-16T12:44:03Z</time></trkpt><trkpt lat="59.2888695560" lon="34.7000569571"><ele>148.66</ele><time>2026-08-16T12:44:13Z</time></trkpt><trkpt lat="59.2888344359" lon="34.7001099307"><ele>148.18</ele><time>2026-08-16T12:44:24Z</time></trkpt><trkpt lat="59.2888314184" lon="34.7001245990"><ele>148.18</ele><time>2026-08-16T12:44:25Z</time></trkpt><trkpt lat="59.2888134811" lon="34.7003266029"><ele>148.18</ele><time>2026-08-16T12:44:37Z</time></trkpt><trkpt lat="59.2888262216" lon="34.7004376631"><ele>148.18</ele><time>2026-08-16T12:44:48Z</time></trkpt><trkpt lat="59.2887617648" lon="34.7003974300"><ele>147.70</ele><time>2026-08-16T12:44:59Z</time></trkpt><trkpt lat="59.2886984814" lon="34.7003923170"><ele>147.70</ele><time>2026-08-16T12:45:07Z</time></trkpt><trkpt lat="59.2885880917" lon="34.7004347295"><ele>147.70</ele><time>2026-08-16T12:45:19Z</time></trkpt><trkpt lat="59.2885170970" lon="34.7005094960"><ele>147.22</ele><time>2026-08-16T12:45:30Z</time></trkpt><trkpt lat="59.2884911131" lon="34.7005659062"><ele>147.22</ele><time>2026-08-16T12:45:36Z</time></trkpt><trkpt lat="59.2884598486" lon="34.7006959934"><ele>147.22</ele><time>2026-08-16T12:45:46Z</time></trkpt><trkpt lat="59.2884522211" lon="34.7007302754"><ele>147.22</ele><time>2026-08-16T12:45:48Z</time></trkpt><trkpt lat="59.2884540651" lon="34.7007810697"><ele>146.74</ele><time>2026-08-16T12:45:51Z</time></trkpt><trkpt lat="59.2885152530" lon="34.7009289265"><ele>146.74</ele><time>2026-08-16T12:46:02Z</time></trkpt><trkpt lat="59.2885243054" lon="34.7009535693"><ele>146.74</ele><time>2026-08-16T12:46:04Z</time></trkpt><trkpt lat="59.2885215394" lon="34.7010093927"><ele>146.74</ele><time>2026-08-16T12:46:07Z</time></trkpt><trkpt lat="59.2885576654" lon="34.7011633683"><ele>146.74</ele><time>2026-08-16T12:46:20Z</time></trkpt><trkpt lat="59.2885849904" lon="34.7012840677"><ele>146.74</ele><time>2026-08-16T12:46:31Z</time></trkpt><trkpt lat="59.2886559851" lon="34.7014252190"><ele>146.26</ele><time>2026-08-16T12:46:45Z</time></trkpt><trkpt lat="59.2886518780" lon="34.7015255503"><ele>146.26</ele><time>2026-08-16T12:46:56Z</time></trkpt><trkpt lat="59.2886336055" lon="34.7015567310"><ele>146.26</ele><time>2026-08-16T12:47:09Z</time></trkpt><trkpt lat="59.2886206973" lon="34.7015738301"><ele>146.26</ele><time>2026-08-16T12:47:15Z</time></trkpt><trkpt lat="59.2885673884" lon="34.7016787715"><ele>146.26</ele><time>2026-08-16T12:47:24Z</time></trkpt><trkpt lat="59.2884987406" lon="34.7017541248"><ele>145.78</ele><time>2026-08-16T12:47:39Z</time></trkpt><trkpt lat="59.2884855811" lon="34.7018496785"><ele>145.78</ele><time>2026-08-16T12:47:53Z</time></trkpt><trkpt lat="59.2885516305" lon="34.7019596491"><ele>145.30</ele><time>2026-08-16T12:48:05Z</time></trkpt><trkpt lat="59.2885558214" lon="34.7019943502"><ele>145.30</ele><time>2026-08-16T12:48:07Z</time></trkpt><trkpt lat="59.2885637004" lon="34.7020733077"><ele>145.30</ele><time>2026-08-16T12:48:19Z</time></trkpt><trkpt lat="59.2885595094" lon="34.7020869702"><ele>145.30</ele><time>2026-08-16T12:48:24Z</time></trkpt><trkpt lat="59.2885316815" lon="34.7022707015"><ele>145.30</ele><time>2026-08-16T12:48:36Z</time></trkpt><trkpt lat="59.2884791270" lon="34.7024568636"><ele>145.30</ele><time>2026-08-16T12:48:50Z</time></trkpt><trkpt lat="59.2884619441" lon="34.7024577856"><ele>145.30</ele><time>2026-08-16T12:49:16Z</time></trkpt><trkpt lat="59.2884922028" lon="34.7024531756"><ele>145.30</ele><time>2026-08-16T12:49:33Z</time></trkpt><trkpt lat="59.2885061167" lon="34.7025175486"><ele>144.82</ele><time>2026-08-16T12:49:57Z</time></trkpt><trkpt lat="59.2885078769" lon="34.7026384994"><ele>144.82</ele><time>2026-08-16T12:50:09Z</time></trkpt><trkpt lat="59.2885007523" lon="34.7027585283"><ele>144.82</ele><time>2026-08-16T12:50:20Z</time></trkpt><trkpt lat="59.2884995788" lon="34.7028044611"><ele>144.82</ele><time>2026-08-16T12:50:23Z</time></trkpt><trkpt lat="59.2885242216" lon="34.7029684950"><ele>144.82</ele><time>2026-08-16T12:50:35Z</time></trkpt><trkpt lat="59.2885222100" lon="34.7030450217"><ele>144.82</ele><time>2026-08-16T12:50:46Z</time></trkpt><trkpt lat="59.2885192763" lon="34.7031565849"><ele>144.82</ele><time>2026-08-16T12:50:57Z</time></trkpt><trkpt lat="59.2885229643" lon="34.7032064572"><ele>144.82</ele><time>2026-08-16T12:51:01Z</time></trkpt><trkpt lat="59.2885150854" lon="34.7033083811"><ele>144.82</ele><time>2026-08-16T12:51:12Z</time></trkpt><trkpt lat="59.2885097209" lon="34.7034098860"><ele>144.82</ele><time>2026-08-16T12:51:26Z</time></trkpt><trkpt lat="59.2885293346" lon="34.7035830561"><ele>144.82</ele><time>2026-08-16T12:51:37Z</time></trkpt><trkpt lat="59.2885448411" lon="34.7037232853"><ele>144.82</ele><time>2026-08-16T12:51:47Z</time></trkpt><trkpt lat="59.2885987367" lon="34.7038716450"><ele>144.82</ele><time>2026-08-16T12:51:59Z</time></trkpt><trkpt lat="59.2886235472" lon="34.7040185798"><ele>144.34</ele><time>2026-08-16T12:52:11Z</time></trkpt><trkpt lat="59.2886383832" lon="34.7041925043"><ele>144.34</ele><time>2026-08-16T12:52:24Z</time></trkpt><trkpt lat="59.2886884231" lon="34.7043607291"><ele>144.34</ele><time>2026-08-16T12:52:38Z</time></trkpt><trkpt lat="59.2886877526" lon="34.7044090088"><ele>144.34</ele><time>2026-08-16T12:53:00Z</time></trkpt><trkpt lat="59.2886636965" lon="34.7044369206"><ele>144.34</ele><time>2026-08-16T12:53:21Z</time></trkpt><trkpt lat="59.2886658758" lon="34.7044625692"><ele>144.34</ele><time>2026-08-16T12:53:42Z</time></trkpt><trkpt lat="59.2886428256" lon="34.7045960929"><ele>144.34</ele><time>2026-08-16T12:53:55Z</time></trkpt><trkpt lat="59.2886302527" lon="34.7046563588"><ele>143.85</ele><time>2026-08-16T12:54:11Z</time></trkpt><trkpt lat="59.2886175960" lon="34.7046662495"><ele>143.85</ele><time>2026-08-16T12:54:27Z</time></trkpt><trkpt lat="59.2886273190" lon="34.7046985198"><ele>143.85</ele><time>2026-08-16T12:54:53Z</time></trkpt><trkpt lat="59.2886412330" lon="34.7047188878"><ele>143.85</ele><time>2026-08-16T12:55:12Z</time></trkpt><trkpt lat="59.2886500340" lon="34.7047514934"><ele>143.85</ele><time>2026-08-16T12:55:42Z</time></trkpt><trkpt lat="59.2886747606" lon="34.7048224881"><ele>143.85</ele><time>2026-08-16T12:55:50Z</time></trkpt><trkpt lat="59.2887016665" lon="34.7049078997"><ele>143.85</ele><time>2026-08-16T12:56:02Z</time></trkpt><trkpt lat="59.2887224536" lon="34.7050516494"><ele>143.85</ele><time>2026-08-16T12:56:15Z</time></trkpt><trkpt lat="59.2887237947" lon="34.7051938064"><ele>143.85</ele><time>2026-08-16T12:56:27Z</time></trkpt><trkpt lat="59.2887561489" lon="34.7054033540"><ele>143.85</ele><time>2026-08-16T12:56:40Z</time></trkpt><trkpt lat="59.2888087034" lon="34.7055680584"><ele>143.85</ele><time>2026-08-16T12:56:53Z</time></trkpt><trkpt lat="59.2888619285" lon="34.7057384625"><ele>143.85</ele><time>2026-08-16T12:57:05Z</time></trkpt><trkpt lat="59.2888682988" lon="34.7058574017"><ele>143.37</ele><time>2026-08-16T12:57:17Z</time></trkpt><trkpt lat="59.2888475955" lon="34.7059664503"><ele>144.82</ele><time>2026-08-16T12:57:31Z</time></trkpt><trkpt lat="59.2888560612" lon="34.7060822044"><ele>144.82</ele><time>2026-08-16T12:57:47Z</time></trkpt><trkpt lat="59.2888714839" lon="34.7060846351"><ele>144.82</ele><time>2026-08-16T12:58:02Z</time></trkpt><trkpt lat="59.2888828833" lon="34.7060884070"><ele>144.82</ele><time>2026-08-16T12:58:28Z</time></trkpt><trkpt lat="59.2888914328" lon="34.7062545363"><ele>144.82</ele><time>2026-08-16T12:58:39Z</time></trkpt><trkpt lat="59.2889202666" lon="34.7063769121"><ele>145.78</ele><time>2026-08-16T12:58:50Z</time></trkpt><trkpt lat="59.2889163271" lon="34.7065079212"><ele>145.78</ele><time>2026-08-16T12:59:02Z</time></trkpt><trkpt lat="59.2889314145" lon="34.7066858690"><ele>146.74</ele><time>2026-08-16T12:59:13Z</time></trkpt><trkpt lat="59.2889314145" lon="34.7066890541"><ele>146.74</ele><time>2026-08-16T12:59:25Z</time></trkpt><trkpt lat="59.2889375333" lon="34.7066530958"><ele>147.22</ele><time>2026-08-16T12:59:42Z</time></trkpt><trkpt lat="59.2889351863" lon="34.7066561971"><ele>147.22</ele><time>2026-08-16T12:59:56Z</time></trkpt><trkpt lat="59.2889381200" lon="34.7066271957"><ele>146.74</ele><time>2026-08-16T13:00:12Z</time></trkpt><trkpt lat="59.2889364436" lon="34.7066411935"><ele>146.74</ele><time>2026-08-16T13:00:29Z</time></trkpt><trkpt lat="59.2889353540" lon="34.7066402715"><ele>146.74</ele><time>2026-08-16T13:00:32Z</time></trkpt><trkpt lat="59.2889377847" lon="34.7066996153"><ele>146.74</ele><time>2026-08-16T13:00:45Z</time></trkpt><trkpt lat="59.2889381200" lon="34.7067562770"><ele>146.74</ele><time>2026-08-16T13:01:05Z</time></trkpt><trkpt lat="59.2889552191" lon="34.7069078218"><ele>147.70</ele><time>2026-08-16T13:01:16Z</time></trkpt><trkpt lat="59.2889621761" lon="34.7070639767"><ele>147.70</ele><time>2026-08-16T13:01:28Z</time></trkpt><trkpt lat="59.2889973801" lon="34.7071698401"><ele>148.18</ele><time>2026-08-16T13:01:39Z</time></trkpt><trkpt lat="59.2890199274" lon="34.7072018590"><ele>148.18</ele><time>2026-08-16T13:01:43Z</time></trkpt><trkpt lat="59.2890604120" lon="34.7072915453"><ele>148.18</ele><time>2026-08-16T13:01:50Z</time></trkpt><trkpt lat="59.2890910897" lon="34.7074198723"><ele>148.18</ele><time>2026-08-16T13:02:03Z</time></trkpt><trkpt lat="59.2890844680" lon="34.7075435892"><ele>148.18</ele><time>2026-08-16T13:02:13Z</time></trkpt><trkpt lat="59.2890914250" lon="34.7077048570"><ele>148.66</ele><time>2026-08-16T13:02:24Z</time></trkpt><trkpt lat="59.2891170736" lon="34.7078315914"><ele>148.66</ele><time>2026-08-16T13:02:36Z</time></trkpt><trkpt lat="59.2891282216" lon="34.7079781070"><ele>149.14</ele><time>2026-08-16T13:02:47Z</time></trkpt><trkpt lat="59.2891775910" lon="34.7081259638"><ele>149.62</ele><time>2026-08-16T13:03:00Z</time></trkpt><trkpt lat="59.2891785968" lon="34.7081975453"><ele>150.10</ele><time>2026-08-16T13:03:07Z</time></trkpt><trkpt lat="59.2892241105" lon="34.7083184123"><ele>150.58</ele><time>2026-08-16T13:03:19Z</time></trkpt><trkpt lat="59.2892593145" lon="34.7084846254"><ele>151.06</ele><time>2026-08-16T13:03:30Z</time></trkpt><trkpt lat="59.2892423831" lon="34.7086657584"><ele>151.06</ele><time>2026-08-16T13:03:40Z</time></trkpt><trkpt lat="59.2892334145" lon="34.7087265272"><ele>151.06</ele><time>2026-08-16T13:03:45Z</time></trkpt><trkpt lat="59.2891533673" lon="34.7088535968"><ele>152.03</ele><time>2026-08-16T13:03:57Z</time></trkpt><trkpt lat="59.2890620884" lon="34.7090001963"><ele>152.03</ele><time>2026-08-16T13:04:10Z</time></trkpt><trkpt lat="59.2890007328" lon="34.7090927325"><ele>152.03</ele><time>2026-08-16T13:04:20Z</time></trkpt><trkpt lat="59.2889257986" lon="34.7092036251"><ele>152.03</ele><time>2026-08-16T13:04:31Z</time></trkpt><trkpt lat="59.2888055183" lon="34.7094312776"><ele>152.03</ele><time>2026-08-16T13:04:46Z</time></trkpt><trkpt lat="59.2887425702" lon="34.7095425054"><ele>152.51</ele><time>2026-08-16T13:04:57Z</time></trkpt><trkpt lat="59.2886398081" lon="34.7097056173"><ele>152.51</ele><time>2026-08-16T13:05:09Z</time></trkpt><trkpt lat="59.2885244731" lon="34.7098097205"><ele>152.51</ele><time>2026-08-16T13:05:21Z</time></trkpt><trkpt lat="59.2885156721" lon="34.7098166775"><ele>152.51</ele><time>2026-08-16T13:05:22Z</time></trkpt><trkpt lat="59.2884569988" lon="34.7098672204"><ele>152.51</ele><time>2026-08-16T13:05:37Z</time></trkpt><trkpt lat="59.2884606868" lon="34.7098754346"><ele>152.51</ele><time>2026-08-16T13:05:57Z</time></trkpt><trkpt lat="59.2884578370" lon="34.7098616883"><ele>152.51</ele><time>2026-08-16T13:06:13Z</time></trkpt><trkpt lat="59.2884541489" lon="34.7098382190"><ele>152.51</ele><time>2026-08-16T13:06:28Z</time></trkpt><trkpt lat="59.2884503771" lon="34.7098576650"><ele>152.51</ele><time>2026-08-16T13:06:45Z</time></trkpt><trkpt lat="59.2884494551" lon="34.7098637000"><ele>152.51</ele><time>2026-08-16T13:06:57Z</time></trkpt><trkpt lat="59.2884595972" lon="34.7099080402"><ele>152.51</ele><time>2026-08-16T13:07:13Z</time></trkpt><trkpt lat="59.2884630337" lon="34.7098883428"><ele>152.51</ele><time>2026-08-16T13:07:40Z</time></trkpt><trkpt lat="59.2884605192" lon="34.7098781168"><ele>152.51</ele><time>2026-08-16T13:07:54Z</time></trkpt><trkpt lat="59.2884634528" lon="34.7098673042"><ele>152.51</ele><time>2026-08-16T13:08:15Z</time></trkpt><trkpt lat="59.2884656321" lon="34.7098666336"><ele>152.99</ele><time>2026-08-16T13:08:40Z</time></trkpt><trkpt lat="59.2884650454" lon="34.7098670527"><ele>152.99</ele><time>2026-08-16T13:09:02Z</time></trkpt><trkpt lat="59.2884603515" lon="34.7098769434"><ele>152.99</ele><time>2026-08-16T13:09:19Z</time></trkpt><trkpt lat="59.2884546518" lon="34.7098988201"><ele>152.99</ele><time>2026-08-16T13:09:41Z</time></trkpt><trkpt lat="59.2884543166" lon="34.7099113092"><ele>152.99</ele><time>2026-08-16T13:09:58Z</time></trkpt><trkpt lat="59.2884546518" lon="34.7099220380"><ele>152.99</ele><time>2026-08-16T13:10:16Z</time></trkpt><trkpt lat="59.2884534784" lon="34.7099495307"><ele>153.47</ele><time>2026-08-16T13:10:28Z</time></trkpt><trkpt lat="59.2884576693" lon="34.7099539731"><ele>153.47</ele><time>2026-08-16T13:10:59Z</time></trkpt><trkpt lat="59.2884622794" lon="34.7099720780"><ele>153.47</ele><time>2026-08-16T13:11:41Z</time></trkpt><trkpt lat="59.2884663865" lon="34.7099759337"><ele>153.47</ele><time>2026-08-16T13:12:17Z</time></trkpt><trkpt lat="59.2884881794" lon="34.7099533863"><ele>153.47</ele><time>2026-08-16T13:13:00Z</time></trkpt><trkpt lat="59.2885170132" lon="34.7099467646"><ele>153.95</ele><time>2026-08-16T13:13:39Z</time></trkpt><trkpt lat="59.2885137442" lon="34.7099491116"><ele>153.95</ele><time>2026-08-16T13:14:19Z</time></trkpt><trkpt lat="59.2885119002" lon="34.7099616006"><ele>153.95</ele><time>2026-08-16T13:14:59Z</time></trkpt><trkpt lat="59.2885045242" lon="34.7099566553"><ele>154.43</ele><time>2026-08-16T13:15:34Z</time></trkpt><trkpt lat="59.2884971481" lon="34.7099463455"><ele>154.43</ele><time>2026-08-16T13:16:00Z</time></trkpt><trkpt lat="59.2884937953" lon="34.7099524643"><ele>154.43</ele><time>2026-08-16T13:16:19Z</time></trkpt><trkpt lat="59.2884927057" lon="34.7099559009"><ele>154.43</ele><time>2026-08-16T13:16:41Z</time></trkpt><trkpt lat="59.2884885985" lon="34.7099586669"><ele>154.91</ele><time>2026-08-16T13:17:16Z</time></trkpt></trkseg></trk></gpx>